TK1791 / TC-LSP 7700 Squawk Report (18th of June, 2021)

Aircraft A21N Reg No. TC-LSP Age 1 years old
Model A321 Jet engines 2 First flight 03-12-19
Registered 12-12-19 Rollout N/A Delivered 12-12-19
Construction No. 9109 Line No. N/A Series 271NX(SL)
ADSHEX 4BB270 Airline name Turkish Airlines Owner N/A
Airfield based Istanbul International~Arnauvtkoy~TC First tracked N/A
Time Lat Lon Altitude Heading Speed Vertical Rate
2021-06-18 20:12:07 GMT 59.669174 17.924835 175 191 118 -640
2021-06-18 20:12:00 GMT 59.673248 17.926300 250 191 119 -576
2021-06-18 20:11:57 GMT 59.674381 17.926750 275 191 119 -640
2021-06-18 20:11:50 GMT 59.678055 17.928040 350 191 119 -576
2021-06-18 20:11:47 GMT 59.679932 17.928680 375 191 118 -576
2021-06-18 20:11:40 GMT 59.683823 17.930145 450 191 118 -640
2021-06-18 20:11:36 GMT 59.685741 17.930824 500 191 118 -704
2021-06-18 20:11:30 GMT 59.689232 17.932055 575 191 119 -704
2021-06-18 20:11:27 GMT 59.690643 17.932617 600 191 118 -704
2021-06-18 20:11:19 GMT 59.694763 17.934082 675 191 118 -576
2021-06-18 20:11:16 GMT 59.696495 17.934708 700 191 118 -576
2021-06-18 20:11:10 GMT 59.700268 17.936033 775 191 119 -576
2021-06-18 20:11:06 GMT 59.701859 17.936646 800 191 120 -576
2021-06-18 20:10:57 GMT 59.707535 17.938660 925 191 124 -640
2021-06-18 20:10:49 GMT 59.712276 17.940390 1,000 191 128 -704
2021-06-18 20:10:46 GMT 59.713066 17.940674 1,025 191 128 -640
2021-06-18 20:10:36 GMT 59.719120 17.942852 1,125 191 130 -640
2021-06-18 20:10:28 GMT 59.723923 17.944702 1,200 191 131 -576
2021-06-18 20:10:25 GMT 59.725525 17.945251 1,250 191 132 -576
2021-06-18 20:10:18 GMT 59.730015 17.946924 1,325 191 144 -704
2021-06-18 20:10:15 GMT 59.731457 17.947397 1,350 191 137 -704
2021-06-18 20:10:08 GMT 59.736389 17.949198 1,450 191 155 -896
2021-06-18 20:10:05 GMT 59.737972 17.949766 1,475 191 149 -832
2021-06-18 20:09:58 GMT 59.742599 17.951385 1,675 191 158 -896
2021-06-18 20:09:55 GMT 59.745003 17.952229 1,625 191 160 -832
2021-06-18 20:09:48 GMT 59.750565 17.954315 1,750 191 167 -896
2021-06-18 20:09:45 GMT 59.752869 17.955164 1,775 191 166 -960
2021-06-18 20:09:40 GMT 59.756332 17.956421 1,875 191 165 -576
2021-06-18 20:09:37 GMT 59.758392 17.957153 1,875 191 165 -576
2021-06-18 20:09:34 GMT 59.760784 17.958099 1,925 191 164 -704
2021-06-18 20:09:27 GMT 59.766815 17.960358 2,025 192 164 -832
2021-06-18 20:09:24 GMT 59.768230 17.960941 2,050 192 163 -896
2021-06-18 20:09:17 GMT 59.773445 17.962931 2,175 192 166 -896
2021-06-18 20:09:14 GMT 59.775375 17.963745 2,175 193 167 -960
2021-06-18 20:09:07 GMT 59.781326 17.966309 2,300 194 169 -896
2021-06-18 20:09:04 GMT 59.783222 17.967194 2,325 195 170 -896
2021-06-18 20:08:57 GMT 59.788715 17.970034 2,425 198 170 -768
2021-06-18 20:08:53 GMT 59.791534 17.971893 2,475 200 168 -448
2021-06-18 20:08:49 GMT 59.794830 17.974274 2,475 204 168 0
2021-06-18 20:08:46 GMT 59.796535 17.975716 2,475 207 168 0
2021-06-18 20:08:43 GMT 59.798767 17.977844 2,475 210 167 0
2021-06-18 20:08:37 GMT 59.803024 17.982971 2,475 214 166 0
2021-06-18 20:08:33 GMT 59.805054 17.985756 2,475 214 166 0
2021-06-18 20:08:27 GMT 59.809242 17.991344 2,475 214 166 0
2021-06-18 20:08:24 GMT 59.811478 17.994373 2,475 214 166 0
2021-06-18 20:08:19 GMT 59.814457 17.998352 2,475 214 166 0
2021-06-18 20:08:16 GMT 59.815933 18.000366 2,475 214 166 0
2021-06-18 20:08:13 GMT 59.817764 18.002838 2,475 215 166 0
2021-06-18 20:08:06 GMT 59.822205 18.008881 2,475 218 166 0
2021-06-18 20:08:02 GMT 59.824608 18.012560 2,475 221 166 0
2021-06-18 20:07:55 GMT 59.828564 18.019756 2,475 230 164 0
2021-06-18 20:07:52 GMT 59.829849 18.022888 2,475 236 163 64
2021-06-18 20:07:47 GMT 59.832184 18.030579 2,475 250 161 0
2021-06-18 20:07:44 GMT 59.832848 18.034626 2,475 265 158 0
2021-06-18 20:07:36 GMT 59.833054 18.046600 2,475 285 157 64
2021-06-18 20:07:33 GMT 59.832287 18.052338 2,475 295 158 -64
2021-06-18 20:07:28 GMT 59.831078 18.057547 2,475 298 161 0
2021-06-18 20:07:25 GMT 59.830078 18.061249 2,475 298 161 -64
2021-06-18 20:07:22 GMT 59.829025 18.065277 2,475 298 161 64
2021-06-18 20:07:16 GMT 59.826828 18.073425 2,475 298 161 0
2021-06-18 20:07:12 GMT 59.825500 18.078369 2,475 298 161 0
2021-06-18 20:07:08 GMT 59.824001 18.084160 2,475 298 162 0
2021-06-18 20:07:05 GMT 59.823116 18.087475 2,475 298 162 0
2021-06-18 20:07:02 GMT 59.821953 18.091831 2,475 298 162 -64
2021-06-18 20:06:58 GMT 59.820328 18.097961 2,475 298 162 0
2021-06-18 20:06:55 GMT 59.819302 18.101870 2,475 298 163 0
2021-06-18 20:06:51 GMT 59.818359 18.105377 2,475 298 164 0
2021-06-18 20:06:45 GMT 59.815903 18.114656 2,475 299 163 0
2021-06-18 20:06:42 GMT 59.814789 18.118561 2,475 299 163 -64
2021-06-18 20:06:35 GMT 59.812408 18.127533 2,475 298 162 -64
2021-06-18 20:06:31 GMT 59.811245 18.131893 2,500 298 162 -64
2021-06-18 20:06:25 GMT 59.808918 18.140606 2,500 298 166 -64
2021-06-18 20:06:22 GMT 59.808243 18.143280 2,500 298 168 -64
2021-06-18 20:06:17 GMT 59.805984 18.151688 2,500 298 176 -64
2021-06-18 20:06:13 GMT 59.804543 18.157274 2,500 298 181 64
2021-06-18 20:06:06 GMT 59.801983 18.166935 2,475 298 188 -64
2021-06-18 20:06:02 GMT 59.800400 18.172901 2,475 298 189 0
2021-06-18 20:05:59 GMT 59.798958 18.178301 2,475 298 191 0
2021-06-18 20:05:55 GMT 59.797047 18.185593 2,475 298 193 0
2021-06-18 20:05:51 GMT 59.795288 18.192169 2,475 298 195 64
2021-06-18 20:05:46 GMT 59.793823 18.197662 2,475 298 199 64
2021-06-18 20:05:40 GMT 59.791031 18.208099 2,475 298 205 0
2021-06-18 20:05:35 GMT 59.788879 18.216248 2,475 298 206 -64
2021-06-18 20:05:32 GMT 59.787506 18.221466 2,475 298 207 -64
2021-06-18 20:05:29 GMT 59.785950 18.227325 2,475 298 209 0
2021-06-18 20:05:25 GMT 59.784431 18.233137 2,475 298 212 0
2021-06-18 20:05:22 GMT 59.783131 18.238157 2,475 298 216 -64
2021-06-18 20:05:16 GMT 59.780056 18.249521 2,475 298 222 -128
2021-06-18 20:05:12 GMT 59.778168 18.256622 2,500 298 226 -576
2021-06-18 20:05:08 GMT 59.776199 18.264038 2,575 298 227 -896
2021-06-18 20:05:05 GMT 59.775009 18.268524 2,600 299 227 -1088
2021-06-18 20:05:00 GMT 59.772095 18.279356 2,725 299 226 -1536
2021-06-18 20:04:56 GMT 59.770111 18.286652 2,850 299 227 -1792
2021-06-18 20:04:53 GMT 59.768784 18.291595 2,975 299 227 -1984
2021-06-18 20:04:49 GMT 59.766186 18.301140 3,100 299 227 -2048
2021-06-18 20:04:44 GMT 59.764389 18.307709 3,225 299 227 -2048
2021-06-18 20:04:41 GMT 59.763016 18.312653 3,325 299 227 -2048
2021-06-18 20:04:38 GMT 59.761047 18.319794 3,450 299 228 -1984
2021-06-18 20:04:35 GMT 59.759853 18.324154 3,525 299 228 -1856
2021-06-18 20:04:31 GMT 59.758083 18.330500 3,625 300 228 -1792
2021-06-18 20:04:28 GMT 59.756268 18.336939 3,750 300 230 -1728
2021-06-18 20:04:25 GMT 59.754776 18.342316 3,825 300 230 -1792
2021-06-18 20:04:20 GMT 59.751801 18.352757 4,050 300 230 -2112
2021-06-18 20:04:17 GMT 59.750774 18.356449 4,050 300 230 -2112
2021-06-18 20:04:14 GMT 59.748589 18.363932 4,250 301 230 -2240
2021-06-18 20:04:11 GMT 59.747314 18.368317 4,325 301 229 -2176
2021-06-18 20:04:07 GMT 59.745438 18.374634 4,450 301 229 -2112
2021-06-18 20:04:04 GMT 59.743973 18.379578 4,550 301 229 -2240
2021-06-18 20:04:01 GMT 59.741867 18.386627 4,700 301 228 -2176
2021-06-18 20:03:57 GMT 59.739990 18.392944 4,875 301 227 -2304
2021-06-18 20:03:54 GMT 59.738434 18.398071 4,875 301 227 -2304
2021-06-18 20:03:49 GMT 59.735554 18.407782 5,225 301 226 -2240
2021-06-18 20:03:46 GMT 59.732246 18.418770 5,350 301 226 -2176
2021-06-18 20:03:43 GMT 59.732246 18.418770 5,375 302 226 -2112
2021-06-18 20:03:40 GMT 59.729919 18.426544 5,525 302 226 -1984
2021-06-18 20:03:37 GMT 59.729141 18.429016 5,575 302 226 -1984
2021-06-18 20:03:34 GMT 59.727676 18.433868 5,725 302 227 -1856
2021-06-18 20:03:31 GMT 59.723740 18.446594 5,875 302 229 -1728
2021-06-18 20:03:27 GMT 59.723740 18.446594 5,875 302 228 -1728
2021-06-18 20:03:24 GMT 59.722183 18.451630 5,975 302 230 -1664
2021-06-18 20:03:19 GMT 59.719025 18.461861 6,125 302 231 -1856
2021-06-18 20:03:15 GMT 59.716839 18.468966 6,250 302 232 -1920
2021-06-18 20:03:12 GMT 59.715534 18.473322 6,325 301 233 -1792
2021-06-18 20:03:08 GMT 59.713303 18.480560 6,475 301 235 -1664
2021-06-18 20:03:05 GMT 59.710052 18.491272 6,650 301 239 -1344
2021-06-18 20:02:59 GMT 59.707714 18.499083 6,700 301 241 -1280
2021-06-18 20:02:56 GMT 59.706573 18.502899 6,750 301 243 -1152
2021-06-18 20:02:53 GMT 59.704422 18.509857 6,800 301 249 -704
2021-06-18 20:02:50 GMT 59.703049 18.514526 6,825 301 249 -704
2021-06-18 20:02:44 GMT 59.697372 18.533386 6,900 301 258 -640
2021-06-18 20:02:41 GMT 59.697372 18.533386 6,950 301 262 -576
2021-06-18 20:02:38 GMT 59.695496 18.539795 6,975 301 267 -576
2021-06-18 20:02:35 GMT 59.693710 18.545837 7,000 301 269 -448
2021-06-18 20:02:32 GMT 59.692307 18.550699 7,000 301 269 -448
2021-06-18 20:02:29 GMT 59.690552 18.556641 7,000 300 270 -256
2021-06-18 20:02:26 GMT 59.688442 18.563959 7,025 301 271 -128
2021-06-18 20:02:23 GMT 59.686485 18.570587 7,025 301 272 0
2021-06-18 20:02:19 GMT 59.684189 18.578339 7,000 301 273 128
2021-06-18 20:02:16 GMT 59.681644 18.586973 7,000 302 273 64
2021-06-18 20:02:13 GMT 59.679794 18.592896 7,000 304 272 64
2021-06-18 20:02:10 GMT 59.677410 18.600042 7,000 307 272 128
2021-06-18 20:02:05 GMT 59.674290 18.608282 7,000 313 273 0
2021-06-18 20:02:02 GMT 59.671967 18.613586 7,000 328 279 0
2021-06-18 20:01:59 GMT 59.668991 18.619171 7,000 322 275 0
2021-06-18 20:01:55 GMT 59.665054 18.625305 7,000 327 277 -64
2021-06-18 20:01:52 GMT 59.662327 18.629120 7,000 328 279 0
2021-06-18 20:01:49 GMT 59.658600 18.633728 7,000 328 278 0
2021-06-18 20:01:46 GMT 59.654457 18.638874 7,000 329 279 0
2021-06-18 20:01:43 GMT 59.651058 18.643042 7,000 329 279 0
2021-06-18 20:01:39 GMT 59.647243 18.647778 7,000 328 278 0
2021-06-18 20:01:35 GMT 59.643517 18.652416 7,000 328 278 0
2021-06-18 20:01:32 GMT 59.639702 18.657152 7,000 328 278 0
2021-06-18 20:01:28 GMT 59.632324 18.666321 7,000 328 278 0
2021-06-18 20:01:25 GMT 59.632324 18.666321 7,000 328 278 0
2021-06-18 20:01:22 GMT 59.629040 18.670319 7,000 329 279 0
2021-06-18 20:01:19 GMT 59.625458 18.674768 7,000 329 279 0
2021-06-18 20:01:15 GMT 59.621174 18.680073 7,000 329 279 0
2021-06-18 20:01:12 GMT 59.617123 18.684998 7,000 329 280 0
2021-06-18 20:01:08 GMT 59.614059 18.688843 7,025 328 280 0
2021-06-18 20:01:04 GMT 59.605812 18.699015 7,000 329 281 0
2021-06-18 20:01:01 GMT 59.605812 18.699015 7,025 329 281 0
2021-06-18 20:00:58 GMT 59.603065 18.702330 7,025 329 281 -64
2021-06-18 20:00:55 GMT 59.598633 18.707794 7,000 329 281 -64
2021-06-18 20:00:51 GMT 59.595013 18.712275 7,025 328 280 -256
2021-06-18 20:00:48 GMT 59.590302 18.718048 7,025 328 280 -256
2021-06-18 20:00:42 GMT 59.585468 18.724018 7,100 328 280 -1088
2021-06-18 20:00:38 GMT 59.580952 18.729607 7,175 328 280 -1088
2021-06-18 20:00:34 GMT 59.576202 18.735382 7,225 328 279 -1024
2021-06-18 20:00:31 GMT 59.572620 18.739834 7,275 328 279 -960
2021-06-18 20:00:28 GMT 59.569336 18.743958 7,300 328 279 -960
2021-06-18 20:00:24 GMT 59.564751 18.749590 7,375 328 278 -1024
2021-06-18 20:00:21 GMT 59.561142 18.754028 7,425 328 278 -1024
2021-06-18 20:00:18 GMT 59.558514 18.757261 7,550 329 278 -1024
2021-06-18 20:00:15 GMT 59.555908 18.760481 7,525 329 278 -1024
2021-06-18 20:00:12 GMT 59.551346 18.766113 7,575 329 278 -1024
2021-06-18 20:00:08 GMT 59.547855 18.770426 7,625 329 279 -960
2021-06-18 20:00:04 GMT 59.542919 18.776487 7,725 329 280 -1024
2021-06-18 20:00:01 GMT 59.540543 18.779388 7,775 328 280 -1024
2021-06-18 19:59:58 GMT 59.536587 18.784252 7,800 328 280 -1024
2021-06-18 19:59:55 GMT 59.533722 18.787811 7,850 328 280 -1024
2021-06-18 19:59:52 GMT 59.529743 18.792683 7,900 328 280 -896
2021-06-18 19:59:47 GMT 59.525345 18.798065 7,950 328 280 -640
2021-06-18 19:59:42 GMT 59.514149 18.811909 8,025 329 280 -512
2021-06-18 19:59:38 GMT 59.514149 18.811909 8,025 329 280 -512
2021-06-18 19:59:35 GMT 59.511429 18.815277 8,050 329 280 -512
2021-06-18 19:59:32 GMT 59.507446 18.820053 8,100 329 280 -512
2021-06-18 19:59:27 GMT 59.502823 18.825714 8,225 329 281 -512
2021-06-18 19:59:20 GMT 59.494675 18.835693 8,175 329 281 -448
2021-06-18 19:59:17 GMT 59.486450 18.845816 8,225 329 281 -512
2021-06-18 19:59:13 GMT 59.486450 18.845816 8,250 329 281 -512
2021-06-18 19:59:10 GMT 59.483597 18.849243 8,275 329 281 -512
2021-06-18 19:59:06 GMT 59.478725 18.855190 8,375 329 280 -448
2021-06-18 19:59:01 GMT 59.474022 18.860874 8,325 329 278 -512
2021-06-18 19:58:57 GMT 59.469505 18.866367 8,375 329 279 -512
2021-06-18 19:58:50 GMT 59.461826 18.875744 8,600 329 281 -384
2021-06-18 19:58:47 GMT 59.458660 18.879625 8,450 329 281 -384
2021-06-18 19:58:41 GMT 59.451862 18.887865 8,525 329 286 -384
2021-06-18 19:58:36 GMT 59.446926 18.893927 8,550 329 291 -448
2021-06-18 19:58:30 GMT 59.440456 18.901789 9,025 329 295 -704
2021-06-18 19:58:26 GMT 59.435478 18.907850 8,625 329 297 -1024
2021-06-18 19:58:21 GMT 59.428680 18.916088 8,750 329 298 -1664
2021-06-18 19:58:17 GMT 59.423538 18.922394 8,900 329 299 -1920
2021-06-18 19:58:10 GMT 59.415924 18.931622 9,875 329 297 -640
2021-06-18 19:58:06 GMT 59.411957 18.936493 9,575 329 296 -1984
2021-06-18 19:58:00 GMT 59.404751 18.945354 9,450 329 296 -1920
2021-06-18 19:57:56 GMT 59.399956 18.951132 9,575 329 296 -1728
2021-06-18 19:57:50 GMT 59.388458 18.965244 9,750 329 296 -960
2021-06-18 19:57:46 GMT 59.388458 18.965244 9,775 329 297 -704
2021-06-18 19:57:43 GMT 59.385315 18.968994 9,800 329 297 -512
2021-06-18 19:57:39 GMT 59.379333 18.976231 9,850 329 297 -576
2021-06-18 19:57:36 GMT 59.376343 18.979889 9,850 329 297 -576
2021-06-18 19:57:32 GMT 59.371078 18.986206 9,900 329 297 -512
2021-06-18 19:57:28 GMT 59.367790 18.990152 9,925 329 297 -512
2021-06-18 19:57:25 GMT 59.364532 18.994171 9,950 329 298 -512
2021-06-18 19:57:19 GMT 59.352814 19.008362 10,000 329 297 -192
2021-06-18 19:57:15 GMT 59.352814 19.008362 10,000 329 297 0
2021-06-18 19:57:09 GMT 59.345123 19.017609 10,000 329 297 0
2021-06-18 19:57:06 GMT 59.341003 19.022552 10,000 329 297 0
2021-06-18 19:56:59 GMT 59.333542 19.031616 10,000 329 296 0
2021-06-18 19:56:55 GMT 59.328873 19.037224 10,000 329 296 0
2021-06-18 19:56:49 GMT 59.322052 19.045532 10,000 329 295 -64
2021-06-18 19:56:45 GMT 59.317421 19.051146 10,000 329 296 0
2021-06-18 19:56:41 GMT 59.312073 19.057617 10,000 329 296 0
2021-06-18 19:56:38 GMT 59.308807 19.061563 10,000 329 296 0
2021-06-18 19:56:35 GMT 59.305408 19.065636 10,000 329 296 0
2021-06-18 19:56:28 GMT 59.298203 19.074371 10,000 329 296 0
2021-06-18 19:56:25 GMT 59.293900 19.079590 10,000 329 296 0
2021-06-18 19:56:22 GMT 59.290283 19.083984 10,000 329 296 0
2021-06-18 19:56:18 GMT 59.285671 19.089598 10,000 329 297 0
2021-06-18 19:56:15 GMT 59.278690 19.098026 10,000 329 295 0
2021-06-18 19:56:12 GMT 59.278690 19.098026 10,000 329 295 0
2021-06-18 19:56:07 GMT 59.273708 19.103992 10,000 329 296 0
2021-06-18 19:56:03 GMT 59.268913 19.109772 10,000 329 297 0
2021-06-18 19:56:00 GMT 59.264584 19.114981 10,000 329 297 0
2021-06-18 19:55:57 GMT 59.261230 19.119053 10,000 329 297 -64
2021-06-18 19:55:54 GMT 59.257004 19.124084 10,000 329 297 0
2021-06-18 19:55:47 GMT 59.250244 19.132217 10,000 329 297 0
2021-06-18 19:55:44 GMT 59.246147 19.137142 10,000 329 297 -64
2021-06-18 19:55:38 GMT 59.234619 19.151001 10,000 329 295 0
2021-06-18 19:55:34 GMT 59.234619 19.151001 10,000 329 295 0
2021-06-18 19:55:27 GMT 59.226471 19.160797 10,000 329 295 0
2021-06-18 19:55:24 GMT 59.223198 19.164701 10,000 329 296 0
2021-06-18 19:55:18 GMT 59.215668 19.173798 10,000 329 296 0
2021-06-18 19:55:14 GMT 59.210907 19.179474 10,000 329 296 0
2021-06-18 19:55:10 GMT 59.206718 19.184591 10,000 329 296 0
2021-06-18 19:55:07 GMT 59.203354 19.188629 10,000 329 296 0
2021-06-18 19:55:04 GMT 59.199280 19.193481 10,000 329 296 0
2021-06-18 19:55:01 GMT 59.196121 19.197327 10,000 329 297 0
2021-06-18 19:54:57 GMT 59.192146 19.202019 10,000 329 296 0
2021-06-18 19:54:54 GMT 59.187744 19.207397 10,000 329 296 0
2021-06-18 19:54:49 GMT 59.182709 19.213348 10,000 329 296 0
2021-06-18 19:54:46 GMT 59.178787 19.218119 10,000 329 295 -64
2021-06-18 19:54:41 GMT 59.172958 19.225067 10,000 329 296 0
2021-06-18 19:54:37 GMT 59.168060 19.230927 10,000 329 294 0
2021-06-18 19:54:34 GMT 59.164078 19.235596 10,000 329 295 -64
2021-06-18 19:54:30 GMT 59.160965 19.239349 10,000 329 294 0
2021-06-18 19:54:27 GMT 59.156891 19.244202 10,000 329 294 0
2021-06-18 19:54:23 GMT 59.152130 19.249786 10,000 329 294 0
2021-06-18 19:54:17 GMT 59.144993 19.258276 10,000 329 294 0
2021-06-18 19:54:11 GMT 59.133492 19.271914 10,000 329 296 0
2021-06-18 19:54:07 GMT 59.133492 19.271914 10,000 329 296 0
2021-06-18 19:54:03 GMT 59.128464 19.277786 10,000 329 297 0
2021-06-18 19:53:59 GMT 59.123669 19.283468 10,000 329 298 0
2021-06-18 19:53:56 GMT 59.121201 19.286404 10,000 329 298 0
2021-06-18 19:53:53 GMT 59.116837 19.291626 10,000 329 298 0
2021-06-18 19:53:49 GMT 59.112358 19.296917 10,000 329 298 0
2021-06-18 19:53:46 GMT 59.109329 19.300507 10,000 329 297 0
2021-06-18 19:53:43 GMT 59.104862 19.305820 10,000 329 297 0
2021-06-18 19:53:36 GMT 59.096668 19.315575 10,000 329 298 0
2021-06-18 19:53:32 GMT 59.093033 19.319916 10,000 329 298 0
2021-06-18 19:53:27 GMT 59.085983 19.328339 10,000 329 300 -64
2021-06-18 19:53:23 GMT 59.080563 19.334896 10,000 329 299 0
2021-06-18 19:53:18 GMT 59.076324 19.339966 10,000 329 298 0
2021-06-18 19:53:15 GMT 59.072834 19.344084 10,000 329 298 0
2021-06-18 19:53:12 GMT 59.069275 19.348297 10,000 329 298 0
2021-06-18 19:53:06 GMT 59.062134 19.356903 10,000 329 298 0
2021-06-18 19:53:01 GMT 59.056122 19.363972 10,000 329 298 0
2021-06-18 19:52:56 GMT 59.049652 19.371643 10,000 329 298 0
2021-06-18 19:52:52 GMT 59.045197 19.376953 10,000 329 298 0
2021-06-18 19:52:46 GMT 59.038059 19.385471 10,000 329 297 0
2021-06-18 19:52:42 GMT 59.033497 19.390869 10,000 329 297 0
2021-06-18 19:52:38 GMT 59.029037 19.396179 10,000 329 297 -64
2021-06-18 19:52:35 GMT 59.025070 19.400908 10,000 329 297 -64
2021-06-18 19:52:32 GMT 59.021442 19.405170 10,000 329 297 -64
2021-06-18 19:52:26 GMT 59.014549 19.413410 10,000 329 296 -64
2021-06-18 19:52:21 GMT 59.009754 19.419092 10,000 329 296 -64
2021-06-18 19:52:18 GMT 59.005554 19.424011 10,000 329 295 0
2021-06-18 19:52:15 GMT 58.997746 19.433298 10,000 329 295 0
2021-06-18 19:52:11 GMT 58.997746 19.433298 10,000 329 294 0
2021-06-18 19:52:08 GMT 58.993462 19.438318 10,000 329 294 -64
2021-06-18 19:52:05 GMT 58.990540 19.441772 10,000 329 294 0
2021-06-18 19:52:01 GMT 58.986015 19.447126 10,000 329 294 0
2021-06-18 19:51:58 GMT 58.982288 19.451483 10,000 329 294 0
2021-06-18 19:51:55 GMT 58.978821 19.455505 10,000 329 294 0
2021-06-18 19:51:51 GMT 58.973770 19.461428 10,000 329 294 -64
2021-06-18 19:51:48 GMT 58.970280 19.465500 10,000 330 295 0
2021-06-18 19:51:45 GMT 58.967159 19.469194 10,000 329 295 0
2021-06-18 19:51:41 GMT 58.962250 19.474915 10,000 329 295 0
2021-06-18 19:51:35 GMT 58.955151 19.483212 10,000 329 295 0
2021-06-18 19:51:31 GMT 58.950401 19.488798 10,000 327 295 0
2021-06-18 19:51:28 GMT 58.947098 19.492966 10,000 325 294 0
2021-06-18 19:51:24 GMT 58.943188 19.498270 10,000 324 295 0
2021-06-18 19:51:21 GMT 58.939270 19.503937 10,000 323 294 0
2021-06-18 19:51:17 GMT 58.935646 19.509445 9,975 322 294 64
2021-06-18 19:51:14 GMT 58.932632 19.513916 9,975 323 295 0
2021-06-18 19:51:10 GMT 58.928242 19.520620 9,975 322 294 -64
2021-06-18 19:51:05 GMT 58.921921 19.530212 9,975 322 298 0
2021-06-18 19:51:01 GMT 58.917709 19.536621 9,975 322 301 -64
2021-06-18 19:50:51 GMT 58.906132 19.554243 10,000 322 313 -256
2021-06-18 19:50:44 GMT 58.899147 19.564945 10,050 322 323 -256
2021-06-18 19:50:40 GMT 58.894455 19.572144 10,075 322 331 -576
2021-06-18 19:50:37 GMT 58.890862 19.577637 10,100 322 339 -896
2021-06-18 19:50:33 GMT 58.886673 19.584045 10,150 322 345 -1024
2021-06-18 19:50:30 GMT 58.881821 19.591461 10,250 322 352 -1344
2021-06-18 19:50:24 GMT 58.874130 19.603363 10,425 322 362 -1856
2021-06-18 19:50:20 GMT 58.869278 19.610870 10,550 322 369 -2240
2021-06-18 19:50:17 GMT 58.864929 19.617554 10,675 322 373 -2496
2021-06-18 19:50:13 GMT 58.860168 19.624878 10,825 322 378 -2688
2021-06-18 19:50:10 GMT 58.855247 19.632475 11,000 322 384 -3008
2021-06-18 19:50:04 GMT 58.846127 19.646301 11,400 323 391 -3648
2021-06-18 19:49:59 GMT 58.840714 19.654451 11,650 323 394 -4352
2021-06-18 19:49:56 GMT 58.836395 19.660858 11,900 323 396 -5440
2021-06-18 19:49:53 GMT 58.832161 19.667084 12,900 324 392 -6848
2021-06-18 19:49:49 GMT 58.826481 19.675415 12,550 324 395 -6336
2021-06-18 19:49:42 GMT 58.816006 19.690430 13,350 324 392 -6848
2021-06-18 19:49:39 GMT 58.810181 19.698751 13,800 324 391 -6784
2021-06-18 19:49:36 GMT 58.807251 19.702827 14,025 325 388 -6720
2021-06-18 19:49:32 GMT 58.797199 19.716797 15,075 325 384 -6080
2021-06-18 19:49:29 GMT 58.797199 19.716797 14,800 325 387 -6592
2021-06-18 19:49:23 GMT 58.787521 19.730293 15,575 325 384 -6080
2021-06-18 19:49:18 GMT 58.781464 19.738678 15,925 325 385 -5952
2021-06-18 19:49:13 GMT 58.772919 19.750317 16,475 325 385 -4992
2021-06-18 19:49:06 GMT 58.763168 19.763580 17,000 326 388 -4544
2021-06-18 19:49:02 GMT 58.757858 19.770605 17,425 326 388 -5120
2021-06-18 19:48:59 GMT 58.752686 19.777517 17,550 326 388 -5056
2021-06-18 19:48:55 GMT 58.746643 19.785492 17,900 326 388 -5120
2021-06-18 19:48:52 GMT 58.737488 19.797628 18,300 326 388 -5440
2021-06-18 19:48:48 GMT 58.737488 19.797628 18,450 326 388 -5440
2021-06-18 19:48:45 GMT 58.726913 19.811716 19,150 326 388 -5248
2021-06-18 19:48:41 GMT 58.726913 19.811716 19,075 326 388 -5248
2021-06-18 19:48:36 GMT 58.718388 19.823090 19,575 326 388 -4864
2021-06-18 19:48:32 GMT 58.712036 19.831564 19,900 325 400 -1920
2021-06-18 19:48:29 GMT 58.707870 19.837145 19,975 326 397 -2240
2021-06-18 19:48:25 GMT 58.702011 19.845030 20,100 326 403 -1792
2021-06-18 19:48:21 GMT 58.692036 19.858429 20,300 325 435 -2048
2021-06-18 19:48:18 GMT 58.692036 19.858429 20,300 325 415 -1856
2021-06-18 19:48:14 GMT 58.685707 19.866852 20,675 325 435 -2048
2021-06-18 19:48:11 GMT 58.680817 19.873560 20,625 325 449 -2240
2021-06-18 19:48:08 GMT 58.675461 19.880735 20,625 325 449 -2240
2021-06-18 19:48:05 GMT 58.671741 19.885803 21,050 326 469 -5440
2021-06-18 19:48:02 GMT 58.666294 19.893219 20,875 325 444 -2176
2021-06-18 19:47:58 GMT 58.659622 19.902353 21,050 325 449 -2304
2021-06-18 19:47:54 GMT 58.652840 19.911713 21,225 325 458 -2752
2021-06-18 19:47:51 GMT 58.646324 19.920685 21,400 325 463 -3264
2021-06-18 19:47:48 GMT 58.641808 19.926910 21,575 325 466 -4288
2021-06-18 19:47:43 GMT 58.633484 19.938059 22,275 327 468 -8320
2021-06-18 19:47:39 GMT 58.627422 19.946136 22,675 327 469 -7744
2021-06-18 19:47:35 GMT 58.619694 19.956024 22,950 327 467 -8384
2021-06-18 19:47:32 GMT 58.606155 19.973057 23,775 327 465 -8384
2021-06-18 19:47:28 GMT 58.606155 19.973057 24,000 327 464 -8576
2021-06-18 19:47:25 GMT 58.600937 19.979612 24,400 327 462 -8704
2021-06-18 19:47:21 GMT 58.594883 19.987152 25,225 327 459 -8512
2021-06-18 19:47:18 GMT 58.587574 19.996307 25,475 327 458 -8320
2021-06-18 19:47:13 GMT 58.578232 20.007963 26,200 328 455 -8128
2021-06-18 19:47:10 GMT 58.573795 20.013519 26,550 328 455 -7808
2021-06-18 19:47:07 GMT 58.569946 20.018242 26,825 328 454 -7616
2021-06-18 19:47:04 GMT 58.564133 20.025507 27,225 328 453 -7488
2021-06-18 19:47:01 GMT 58.559036 20.031830 27,600 328 452 -7296
2021-06-18 19:46:57 GMT 58.552010 20.040436 28,050 328 452 -7168
2021-06-18 19:46:54 GMT 58.547447 20.046112 28,500 328 451 -7104
2021-06-18 19:46:51 GMT 58.540970 20.054035 28,800 328 451 -6784
2021-06-18 19:46:47 GMT 58.534332 20.062187 29,225 328 452 -6336
2021-06-18 19:46:43 GMT 58.527283 20.070869 29,600 328 453 -5696
2021-06-18 19:46:40 GMT 58.522705 20.076450 29,850 328 453 -5824
2021-06-18 19:46:36 GMT 58.514603 20.086374 30,500 328 454 -6144
2021-06-18 19:46:33 GMT 58.509506 20.092529 30,625 328 454 -6016
2021-06-18 19:46:28 GMT 58.499218 20.104980 31,225 328 454 -5696
2021-06-18 19:46:24 GMT 58.493401 20.112122 31,750 328 455 -5760
2021-06-18 19:46:21 GMT 58.487411 20.119423 31,800 328 455 -5504
2021-06-18 19:46:17 GMT 58.481014 20.127228 32,200 328 455 -5568
2021-06-18 19:46:14 GMT 58.475555 20.133863 32,450 328 454 -5824
2021-06-18 19:46:10 GMT 58.469193 20.141602 32,800 328 454 -6016
2021-06-18 19:46:06 GMT 58.462463 20.149813 33,275 328 452 -6080
2021-06-18 19:46:03 GMT 58.454544 20.159382 33,625 328 451 -6080
2021-06-18 19:46:00 GMT 58.451736 20.162842 36,450 328 447 -4800
2021-06-18 19:45:57 GMT 58.444336 20.171783 34,200 328 450 -5824
2021-06-18 19:45:54 GMT 58.439987 20.177099 34,425 328 449 -5824
2021-06-18 19:45:50 GMT 58.434185 20.184082 34,725 328 450 -4928
2021-06-18 19:45:46 GMT 58.421814 20.199249 35,125 328 449 -4544
2021-06-18 19:45:43 GMT 58.421814 20.199249 35,350 328 447 -4800
2021-06-18 19:45:40 GMT 58.416077 20.206238 35,525 328 446 -4992
2021-06-18 19:45:36 GMT 58.408813 20.215111 35,875 327 442 -5056
2021-06-18 19:45:32 GMT 58.402344 20.223175 36,225 327 440 -5184
2021-06-18 19:45:29 GMT 58.398571 20.227844 36,400 327 438 -5056
2021-06-18 19:45:26 GMT 58.392471 20.235399 36,700 327 439 -4544
2021-06-18 19:45:22 GMT 58.385349 20.244232 37,000 327 439 -3904
2021-06-18 19:45:19 GMT 58.381622 20.248865 37,125 327 441 -3008
2021-06-18 19:45:16 GMT 58.375351 20.256750 37,300 327 444 -2304
2021-06-18 19:45:13 GMT 58.370041 20.263395 37,450 327 445 -2688
2021-06-18 19:45:10 GMT 58.363861 20.271193 37,550 327 445 -2752
2021-06-18 19:45:07 GMT 58.359604 20.276598 37,700 327 444 -2752
2021-06-18 19:45:04 GMT 58.353462 20.284332 37,825 327 443 -2432
2021-06-18 19:44:59 GMT 58.346649 20.292988 37,950 327 444 -1344
2021-06-18 19:44:56 GMT 58.340515 20.300785 38,050 327 445 -768
2021-06-18 19:44:52 GMT 58.333511 20.309557 39,000 328 448 0
2021-06-18 19:44:49 GMT 58.329437 20.314783 38,100 327 445 -832
2021-06-18 19:44:46 GMT 58.315979 20.331263 38,325 328 441 -960
2021-06-18 19:44:41 GMT 58.310989 20.337288 38,400 328 440 -960
2021-06-18 19:44:38 GMT 58.310989 20.337288 38,250 328 443 -960
2021-06-18 19:44:33 GMT 58.301651 20.348452 38,325 328 441 -960
2021-06-18 19:44:29 GMT 58.294601 20.356869 38,400 328 440 -960
2021-06-18 19:44:25 GMT 58.287552 20.365286 38,450 328 440 -960
2021-06-18 19:44:21 GMT 58.281189 20.372906 38,525 328 441 -960
2021-06-18 19:44:18 GMT 58.276703 20.378222 38,550 328 441 -1024
2021-06-18 19:44:15 GMT 58.269104 20.387259 38,650 328 442 -1088
2021-06-18 19:44:11 GMT 58.263245 20.394196 38,700 328 443 -1152
2021-06-18 19:44:08 GMT 58.259754 20.398315 38,750 328 443 -1152
2021-06-18 19:44:03 GMT 58.249191 20.410913 38,850 329 445 -1024
2021-06-18 19:43:59 GMT 58.241833 20.419647 38,925 328 447 -832
2021-06-18 19:43:54 GMT 58.234177 20.428722 38,975 328 447 -512
2021-06-18 19:43:51 GMT 58.229782 20.433950 38,975 328 447 -384
2021-06-18 19:43:48 GMT 58.223862 20.440979 39,000 329 449 64
2021-06-18 19:43:45 GMT 58.216827 20.449366 39,000 328 448 0
2021-06-18 19:43:41 GMT 58.210220 20.457275 39,000 328 448 0
2021-06-18 19:43:38 GMT 58.206173 20.462036 39,000 328 448 0
2021-06-18 19:43:33 GMT 58.195816 20.474352 39,000 328 449 0
2021-06-18 19:43:30 GMT 58.192486 20.478241 39,000 329 449 0
2021-06-18 19:43:26 GMT 58.185287 20.486843 39,000 329 449 64
2021-06-18 19:43:22 GMT 58.177914 20.495544 39,000 329 447 0
2021-06-18 19:43:17 GMT 58.170547 20.504210 39,000 329 447 0
2021-06-18 19:43:13 GMT 58.157059 20.520172 39,000 329 447 0
2021-06-18 19:43:10 GMT 58.157059 20.520172 39,000 329 449 0
2021-06-18 19:43:07 GMT 58.152695 20.525295 39,000 329 447 0
2021-06-18 19:43:03 GMT 58.145000 20.534454 39,000 328 448 0
2021-06-18 19:43:00 GMT 58.139229 20.541321 39,000 329 449 0
2021-06-18 19:42:57 GMT 58.135506 20.545624 39,000 329 449 0
2021-06-18 19:42:54 GMT 58.128845 20.553471 39,000 329 448 0
2021-06-18 19:42:51 GMT 58.125183 20.557812 39,000 329 448 0
2021-06-18 19:42:48 GMT 58.117119 20.567322 39,000 329 448 0
2021-06-18 19:42:45 GMT 58.113602 20.571457 39,000 329 448 0
2021-06-18 19:42:41 GMT 58.107101 20.579077 39,000 329 448 0
2021-06-18 19:42:37 GMT 58.099754 20.587738 39,000 329 448 0
2021-06-18 19:42:33 GMT 58.092728 20.595999 39,000 329 448 0
2021-06-18 19:42:30 GMT 58.085693 20.604218 39,000 329 448 0
2021-06-18 19:42:27 GMT 58.082199 20.608315 39,000 329 448 0
2021-06-18 19:42:21 GMT 58.070938 20.621426 39,000 329 449 0
2021-06-18 19:42:17 GMT 58.063862 20.629578 39,000 329 450 0
2021-06-18 19:42:14 GMT 58.057716 20.636810 39,000 329 451 0
2021-06-18 19:42:10 GMT 58.052582 20.642778 39,000 329 451 0
2021-06-18 19:42:07 GMT 58.046543 20.649811 39,000 329 452 0
2021-06-18 19:42:02 GMT 58.038399 20.659332 39,000 329 454 0
2021-06-18 19:41:59 GMT 58.032158 20.666565 39,000 329 454 0
2021-06-18 19:41:56 GMT 58.028091 20.671309 39,000 329 454 0
2021-06-18 19:41:52 GMT 58.018478 20.682560 39,000 329 454 0
2021-06-18 19:41:49 GMT 58.014191 20.687531 39,000 329 454 0
2021-06-18 19:41:46 GMT 58.009953 20.692566 39,000 329 454 0
2021-06-18 19:41:42 GMT 57.996220 20.708588 39,000 329 454 0
2021-06-18 19:41:39 GMT 57.996220 20.708588 39,000 329 454 0
2021-06-18 19:41:36 GMT 57.991940 20.713623 39,000 329 454 0
2021-06-18 19:41:33 GMT 57.985931 20.720657 39,000 329 453 0
2021-06-18 19:41:30 GMT 57.980759 20.726683 39,000 329 453 0
2021-06-18 19:41:26 GMT 57.974388 20.734222 39,000 329 453 0
2021-06-18 19:41:22 GMT 57.966381 20.743561 39,000 329 452 0
2021-06-18 19:41:19 GMT 57.959656 20.751490 39,000 329 451 0
2021-06-18 19:41:16 GMT 57.955948 20.755833 39,000 329 450 0
2021-06-18 19:41:12 GMT 57.949081 20.763893 39,000 329 450 0
2021-06-18 19:41:09 GMT 57.944317 20.769470 39,000 329 450 0
2021-06-18 19:41:06 GMT 57.937798 20.777069 39,000 329 448 0
2021-06-18 19:41:01 GMT 57.929214 20.787195 39,000 329 447 0
2021-06-18 19:40:58 GMT 57.923767 20.793488 39,000 329 447 0
2021-06-18 19:40:55 GMT 57.919189 20.798891 39,000 329 447 0
2021-06-18 19:40:52 GMT 57.908192 20.811676 39,000 329 445 -64
2021-06-18 19:40:49 GMT 57.902618 20.818207 39,025 329 444 0
2021-06-18 19:40:46 GMT 57.902618 20.818207 39,000 329 444 0
2021-06-18 19:40:42 GMT 57.896851 20.824850 39,000 329 444 0
2021-06-18 19:40:39 GMT 57.890919 20.831726 39,025 329 444 0
2021-06-18 19:40:36 GMT 57.884308 20.839380 39,000 329 444 0
2021-06-18 19:40:32 GMT 57.878399 20.846191 39,000 329 444 0
2021-06-18 19:40:29 GMT 57.867226 20.859100 39,000 329 444 64
2021-06-18 19:40:25 GMT 57.867226 20.859100 39,000 329 446 0
2021-06-18 19:40:22 GMT 57.861282 20.865961 39,000 329 447 0
2021-06-18 19:40:19 GMT 57.849335 20.879782 39,000 329 448 0
2021-06-18 19:40:15 GMT 57.849335 20.879782 39,000 329 449 0
2021-06-18 19:40:11 GMT 57.840683 20.889706 39,000 329 449 0
2021-06-18 19:40:08 GMT 57.835384 20.895813 39,000 329 450 0
2021-06-18 19:40:05 GMT 57.825119 20.907690 39,000 329 452 0
2021-06-18 19:40:01 GMT 57.825119 20.907690 39,000 329 452 0
2021-06-18 19:39:58 GMT 57.818710 20.915045 39,000 329 452 0
2021-06-18 19:39:55 GMT 57.813217 20.921425 39,000 329 452 0
2021-06-18 19:39:50 GMT 57.804474 20.931437 39,000 329 453 0
2021-06-18 19:39:47 GMT 57.798981 20.937815 39,000 329 453 0
2021-06-18 19:39:42 GMT 57.789185 20.949156 39,000 329 453 0
2021-06-18 19:39:38 GMT 57.782082 20.957336 39,000 329 454 0
2021-06-18 19:39:35 GMT 57.777611 20.962463 39,000 329 454 0
2021-06-18 19:39:29 GMT 57.768162 20.973358 39,000 329 454 0
2021-06-18 19:39:24 GMT 57.758331 20.984684 39,000 329 455 0
2021-06-18 19:39:20 GMT 57.749954 20.994341 39,000 329 455 0
2021-06-18 19:39:17 GMT 57.745834 20.999037 39,000 329 455 0
2021-06-18 19:39:14 GMT 57.740799 21.004795 39,000 329 455 -64
2021-06-18 19:39:09 GMT 57.731689 21.015251 39,000 329 455 0
2021-06-18 19:39:06 GMT 57.726311 21.021454 39,000 329 454 0
2021-06-18 19:39:02 GMT 57.718643 21.030235 39,000 329 453 0
2021-06-18 19:38:59 GMT 57.713322 21.036339 39,000 329 452 0
2021-06-18 19:38:56 GMT 57.708527 21.041908 39,000 329 452 0
2021-06-18 19:38:50 GMT 57.696075 21.056156 39,000 329 451 0
2021-06-18 19:38:46 GMT 57.690746 21.062208 39,000 329 451 0
2021-06-18 19:38:41 GMT 57.682571 21.071520 39,000 329 451 0
2021-06-18 19:38:38 GMT 57.677032 21.077785 39,000 329 451 0
2021-06-18 19:38:35 GMT 57.671173 21.084480 39,000 329 451 0
2021-06-18 19:38:31 GMT 57.662998 21.093840 39,000 329 452 0
2021-06-18 19:38:28 GMT 57.659454 21.097870 39,000 329 451 0
2021-06-18 19:38:25 GMT 57.654110 21.103939 39,000 329 451 0
2021-06-18 19:38:22 GMT 57.647919 21.111027 39,000 329 451 0
2021-06-18 19:38:18 GMT 57.640610 21.119354 39,000 329 452 0
2021-06-18 19:38:15 GMT 57.636139 21.124405 39,000 329 452 0
2021-06-18 19:38:11 GMT 57.628456 21.133087 39,000 329 452 0
2021-06-18 19:38:08 GMT 57.623150 21.139112 39,000 329 452 0
2021-06-18 19:38:04 GMT 57.614586 21.148769 39,000 329 452 0
2021-06-18 19:37:58 GMT 57.605988 21.158466 39,000 329 454 0
2021-06-18 19:37:55 GMT 57.600815 21.164303 39,000 329 454 0
2021-06-18 19:37:52 GMT 57.594055 21.171984 39,000 329 454 0
2021-06-18 19:37:49 GMT 57.588684 21.178122 39,000 329 453 0
2021-06-18 19:37:46 GMT 57.582977 21.184565 39,000 329 453 0
2021-06-18 19:37:42 GMT 57.577065 21.191298 39,000 329 452 0
2021-06-18 19:37:40 GMT 57.572662 21.196404 39,000 329 452 0
2021-06-18 19:37:37 GMT 57.567661 21.202106 39,000 329 452 0
2021-06-18 19:37:33 GMT 57.560726 21.210081 39,000 329 453 0
2021-06-18 19:37:28 GMT 57.546574 21.226473 39,000 328 452 0
2021-06-18 19:37:25 GMT 57.546574 21.226473 39,000 328 453 0
2021-06-18 19:37:22 GMT 57.542313 21.231422 39,000 328 453 0
2021-06-18 19:37:17 GMT 57.532375 21.242950 39,000 329 453 0
2021-06-18 19:37:14 GMT 57.517990 21.259607 39,000 329 454 64
2021-06-18 19:37:10 GMT 57.517990 21.259607 39,000 331 454 0
2021-06-18 19:37:07 GMT 57.513611 21.264296 39,000 332 456 0
2021-06-18 19:37:02 GMT 57.500015 21.277685 39,000 335 457 -64
2021-06-18 19:36:59 GMT 57.500015 21.277685 39,000 335 457 -64
2021-06-18 19:36:55 GMT 57.491409 21.285301 39,000 336 458 0
2021-06-18 19:36:52 GMT 57.486801 21.289200 39,000 336 458 0
2021-06-18 19:36:47 GMT 57.474701 21.299486 39,000 336 458 0
2021-06-18 19:36:42 GMT 57.467388 21.305679 39,000 336 458 0
2021-06-18 19:36:38 GMT 57.460464 21.311502 39,000 336 458 0
2021-06-18 19:36:35 GMT 57.451233 21.319324 39,000 336 458 0
2021-06-18 19:36:32 GMT 57.447418 21.322575 39,000 336 458 0
2021-06-18 19:36:29 GMT 57.441650 21.327467 39,000 336 457 0
2021-06-18 19:36:26 GMT 57.436066 21.332102 39,000 336 456 0
2021-06-18 19:36:22 GMT 57.428970 21.338110 39,000 336 457 0
2021-06-18 19:36:19 GMT 57.422836 21.343334 39,000 336 457 0
2021-06-18 19:36:17 GMT 57.419586 21.346092 39,000 336 457 0
2021-06-18 19:36:14 GMT 57.413433 21.351309 39,000 336 457 0
2021-06-18 19:36:11 GMT 57.408051 21.355791 39,000 336 456 0
2021-06-18 19:36:08 GMT 57.401367 21.361456 39,000 336 456 0
2021-06-18 19:36:05 GMT 57.396584 21.365484 39,000 336 456 0
2021-06-18 19:36:01 GMT 57.388714 21.372129 39,000 336 456 0
2021-06-18 19:35:58 GMT 57.381042 21.378622 39,000 336 456 0
2021-06-18 19:35:54 GMT 57.374889 21.383736 39,000 336 456 0
2021-06-18 19:35:51 GMT 57.368977 21.388697 39,000 336 455 0
2021-06-18 19:35:48 GMT 57.363064 21.393747 39,000 336 455 0
2021-06-18 19:35:45 GMT 57.357285 21.398535 39,000 336 455 0
2021-06-18 19:35:42 GMT 57.350590 21.404114 39,000 336 455 0
2021-06-18 19:35:38 GMT 57.344303 21.409430 39,000 336 455 0
2021-06-18 19:35:35 GMT 57.337971 21.414745 39,000 336 456 0
2021-06-18 19:35:31 GMT 57.330894 21.420683 39,000 336 456 0
2021-06-18 19:35:28 GMT 57.324371 21.426172 39,000 336 456 0
2021-06-18 19:35:24 GMT 57.316696 21.432554 39,000 336 456 0
2021-06-18 19:35:21 GMT 57.311737 21.436729 39,000 336 456 0
2021-06-18 19:35:15 GMT 57.299469 21.447029 39,000 336 456 0
2021-06-18 19:35:11 GMT 57.292374 21.452951 39,000 336 456 0
2021-06-18 19:35:08 GMT 57.286011 21.458273 39,000 336 456 0
2021-06-18 19:35:04 GMT 57.279129 21.464006 39,000 336 456 0
2021-06-18 19:35:00 GMT 57.272598 21.469431 39,000 336 456 0
2021-06-18 19:34:57 GMT 57.264187 21.476500 39,000 336 456 0
2021-06-18 19:34:54 GMT 57.260136 21.479866 39,000 336 457 0
2021-06-18 19:34:50 GMT 57.252869 21.485996 39,000 336 457 0
2021-06-18 19:34:46 GMT 57.244217 21.493120 39,000 336 457 0
2021-06-18 19:34:43 GMT 57.233833 21.501839 39,000 336 458 0
2021-06-18 19:34:40 GMT 57.233833 21.501839 39,000 336 458 0
2021-06-18 19:34:36 GMT 57.224396 21.509686 39,000 336 458 0
2021-06-18 19:34:33 GMT 57.220333 21.513002 39,000 336 458 0
2021-06-18 19:34:30 GMT 57.214188 21.518183 39,000 336 458 0
2021-06-18 19:34:26 GMT 57.205299 21.525496 39,000 336 457 0
2021-06-18 19:34:23 GMT 57.198967 21.530811 39,000 336 457 0
2021-06-18 19:34:20 GMT 57.195103 21.534000 39,000 336 457 0
2021-06-18 19:34:14 GMT 57.183380 21.543760 39,000 336 457 0
2021-06-18 19:34:10 GMT 57.175507 21.550283 39,000 336 457 0
2021-06-18 19:34:03 GMT 57.162285 21.561289 39,000 336 456 0
2021-06-18 19:33:59 GMT 57.154404 21.567879 39,000 336 456 0
2021-06-18 19:33:55 GMT 57.146923 21.574047 39,000 336 456 0
2021-06-18 19:33:52 GMT 57.141724 21.578350 39,000 336 456 0
2021-06-18 19:33:49 GMT 57.135193 21.583706 39,000 336 456 0
2021-06-18 19:33:46 GMT 57.126205 21.591225 39,000 336 456 0
2021-06-18 19:33:38 GMT 57.114532 21.600838 39,000 336 455 0
2021-06-18 19:33:35 GMT 57.108582 21.605816 39,000 336 455 0
2021-06-18 19:33:32 GMT 57.102837 21.610550 39,000 336 455 0
2021-06-18 19:33:29 GMT 57.097275 21.615086 39,000 336 455 0
2021-06-18 19:33:25 GMT 57.089081 21.621952 39,000 336 455 0
2021-06-18 19:33:22 GMT 57.082764 21.627102 39,000 336 455 0
2021-06-18 19:33:15 GMT 57.069553 21.638016 39,000 336 455 0
2021-06-18 19:33:10 GMT 57.057907 21.647615 39,000 336 455 0
2021-06-18 19:33:05 GMT 57.050232 21.653963 39,000 336 456 0
2021-06-18 19:33:01 GMT 57.042572 21.660318 39,000 336 456 0
2021-06-18 19:32:56 GMT 57.033752 21.667608 39,000 336 456 0
2021-06-18 19:32:53 GMT 57.028587 21.671862 39,000 336 456 0
2021-06-18 19:32:50 GMT 57.022999 21.676468 39,000 336 456 0
2021-06-18 19:32:44 GMT 57.011490 21.685896 39,000 336 456 0
2021-06-18 19:32:40 GMT 57.003616 21.692419 39,000 336 456 0
2021-06-18 19:32:35 GMT 56.993637 21.700659 39,000 336 456 0
2021-06-18 19:32:30 GMT 56.984035 21.708542 39,000 336 456 0
2021-06-18 19:32:26 GMT 56.975796 21.715275 39,000 336 456 0
2021-06-18 19:32:22 GMT 56.960815 21.727610 39,000 336 457 0
2021-06-18 19:32:19 GMT 56.960815 21.727610 39,000 336 457 0
2021-06-18 19:32:10 GMT 56.945847 21.739883 39,000 336 457 0
2021-06-18 19:32:07 GMT 56.940414 21.744247 39,000 336 457 0
2021-06-18 19:32:01 GMT 56.926544 21.755589 39,000 336 457 0
2021-06-18 19:31:58 GMT 56.921749 21.759575 39,000 336 458 0
2021-06-18 19:31:54 GMT 56.913834 21.766043 39,000 336 459 0
2021-06-18 19:31:50 GMT 56.906113 21.772327 39,000 336 459 -64
2021-06-18 19:31:45 GMT 56.896469 21.780218 39,000 336 458 0
2021-06-18 19:31:40 GMT 56.887207 21.787838 39,000 336 457 0
2021-06-18 19:31:35 GMT 56.876816 21.796360 39,000 336 457 0
2021-06-18 19:31:30 GMT 56.867794 21.803698 39,000 336 456 0
2021-06-18 19:31:24 GMT 56.854946 21.814240 39,000 336 455 0
2021-06-18 19:31:19 GMT 56.847290 21.820478 39,000 336 455 0
2021-06-18 19:31:13 GMT 56.834835 21.830631 39,000 336 455 0
2021-06-18 19:31:09 GMT 56.828133 21.836124 39,000 336 455 0
2021-06-18 19:31:00 GMT 56.798573 21.860134 39,000 337 455 0
2021-06-18 19:30:50 GMT 56.788788 21.868114 39,000 336 455 0
2021-06-18 19:30:40 GMT 56.770596 21.882904 39,000 336 455 0
2021-06-18 19:30:29 GMT 56.751022 21.898756 39,000 336 455 0
2021-06-18 19:30:21 GMT 56.736237 21.910725 39,000 336 455 -64
2021-06-18 19:30:16 GMT 56.727066 21.918257 39,000 337 455 0
2021-06-18 19:30:13 GMT 56.718979 21.924763 39,000 337 455 0
2021-06-18 19:30:05 GMT 56.705978 21.935320 39,000 336 454 0
2021-06-18 19:30:02 GMT 56.699478 21.940556 39,000 336 454 0
2021-06-18 19:29:58 GMT 56.692574 21.946165 39,000 337 453 0
2021-06-18 19:29:51 GMT 56.677444 21.958303 39,000 337 455 0
2021-06-18 19:29:48 GMT 56.672653 21.962185 39,000 337 457 0
2021-06-18 19:29:45 GMT 56.666748 21.966991 39,000 337 455 0
2021-06-18 19:29:42 GMT 56.660385 21.972055 39,000 337 456 0
2021-06-18 19:29:38 GMT 56.653839 21.977352 39,000 337 456 0
2021-06-18 19:29:32 GMT 56.641178 21.987541 39,000 337 457 0
2021-06-18 19:29:28 GMT 56.634430 21.992998 39,000 337 457 0
2021-06-18 19:29:20 GMT 56.617809 22.006235 39,000 337 457 0
2021-06-18 19:29:17 GMT 56.614151 22.009220 39,000 337 457 0
2021-06-18 19:29:12 GMT 56.601238 22.019526 39,000 337 457 0
2021-06-18 19:29:05 GMT 56.574829 22.040655 39,000 337 457 0
2021-06-18 19:28:57 GMT 56.574829 22.040655 39,000 337 455 0
2021-06-18 19:28:54 GMT 56.568100 22.046064 39,000 337 455 64
2021-06-18 19:28:47 GMT 56.555614 22.055998 39,000 337 455 0
2021-06-18 19:28:44 GMT 56.549843 22.060633 39,000 337 455 0
2021-06-18 19:28:40 GMT 56.541557 22.067242 39,000 337 456 0
2021-06-18 19:28:36 GMT 56.535225 22.072306 39,000 337 457 -64
2021-06-18 19:28:30 GMT 56.523056 22.081938 39,000 337 458 0
2021-06-18 19:28:26 GMT 56.515301 22.088184 39,000 337 458 0
2021-06-18 19:28:20 GMT 56.502777 22.098167 39,000 337 457 0
2021-06-18 19:28:16 GMT 56.496002 22.103577 39,000 337 457 0
2021-06-18 19:28:11 GMT 56.484650 22.112732 39,000 336 457 0
2021-06-18 19:28:05 GMT 56.465073 22.128611 39,000 337 456 0
2021-06-18 19:28:01 GMT 56.465073 22.128611 39,000 336 456 0
2021-06-18 19:27:53 GMT 56.450317 22.140614 39,000 336 455 0
2021-06-18 19:27:50 GMT 56.444962 22.145004 39,000 337 455 0
2021-06-18 19:27:47 GMT 56.439560 22.149210 39,000 338 455 0
2021-06-18 19:27:43 GMT 56.431416 22.155390 39,000 339 455 0
2021-06-18 19:27:39 GMT 56.424408 22.160423 39,000 339 455 0
2021-06-18 19:27:36 GMT 56.419327 22.164001 39,000 341 455 0
2021-06-18 19:27:33 GMT 56.413025 22.168179 39,000 341 455 0
2021-06-18 19:27:30 GMT 56.406090 22.172728 39,000 341 456 0
2021-06-18 19:27:23 GMT 56.392216 22.181568 39,000 341 457 0
2021-06-18 19:27:20 GMT 56.386070 22.185516 39,000 341 457 0
2021-06-18 19:27:17 GMT 56.378906 22.190052 39,000 341 458 0
2021-06-18 19:27:12 GMT 56.371536 22.194796 39,000 341 458 0
2021-06-18 19:27:09 GMT 56.364166 22.199457 39,000 341 458 0
2021-06-18 19:27:03 GMT 56.345245 22.211609 39,000 341 458 0
2021-06-18 19:26:59 GMT 56.345245 22.211609 39,000 341 458 0
2021-06-18 19:26:52 GMT 56.331070 22.220598 39,000 341 458 0
2021-06-18 19:26:49 GMT 56.323334 22.225592 39,000 341 458 0
2021-06-18 19:26:42 GMT 56.310799 22.233582 39,000 341 457 0
2021-06-18 19:26:39 GMT 56.304428 22.237659 39,000 341 457 0
2021-06-18 19:26:33 GMT 56.292892 22.244984 39,000 341 456 0
2021-06-18 19:26:29 GMT 56.285156 22.249895 39,000 341 456 0
2021-06-18 19:26:25 GMT 56.275650 22.255983 39,000 341 456 0
2021-06-18 19:26:22 GMT 56.271694 22.258472 39,000 341 456 0
2021-06-18 19:26:19 GMT 56.265335 22.262545 39,000 341 456 0
2021-06-18 19:26:14 GMT 56.255402 22.268787 39,000 341 456 0
2021-06-18 19:26:09 GMT 56.244740 22.275553 39,000 341 455 0
2021-06-18 19:26:06 GMT 56.237385 22.280188 39,000 341 455 0
2021-06-18 19:25:58 GMT 56.224503 22.288347 39,000 341 455 0
2021-06-18 19:25:55 GMT 56.218140 22.292341 39,000 341 455 0
2021-06-18 19:25:51 GMT 56.207218 22.299242 39,000 341 456 0
2021-06-18 19:25:48 GMT 56.203075 22.301817 39,000 341 458 0
2021-06-18 19:25:45 GMT 56.198280 22.304821 39,000 341 456 0
2021-06-18 19:25:41 GMT 56.188934 22.310736 39,000 341 457 0
2021-06-18 19:25:38 GMT 56.184174 22.313732 39,000 341 457 0
2021-06-18 19:25:31 GMT 56.169418 22.323017 39,000 341 458 0
2021-06-18 19:25:28 GMT 56.163437 22.326799 39,000 341 458 0
2021-06-18 19:25:18 GMT 56.141674 22.340441 39,000 341 459 0
2021-06-18 19:25:11 GMT 56.130661 22.347357 39,000 341 459 0
2021-06-18 19:25:08 GMT 56.122448 22.352543 39,000 341 459 0
2021-06-18 19:25:02 GMT 56.113037 22.358425 39,000 341 459 0
2021-06-18 19:24:58 GMT 56.102829 22.364836 39,000 341 459 0
2021-06-18 19:24:54 GMT 56.093258 22.370825 39,000 341 458 0
2021-06-18 19:24:51 GMT 56.082275 22.377735 39,000 341 458 0
2021-06-18 19:24:48 GMT 56.082275 22.377735 39,000 341 458 0
2021-06-18 19:24:43 GMT 56.068497 22.386309 39,000 341 456 0
2021-06-18 19:24:40 GMT 56.068497 22.386309 39,000 341 457 0
2021-06-18 19:24:36 GMT 56.059708 22.391802 39,000 341 457 0
2021-06-18 19:24:32 GMT 56.051735 22.396832 39,000 341 457 0
2021-06-18 19:24:28 GMT 56.043167 22.402153 39,000 341 457 0
2021-06-18 19:24:25 GMT 56.037003 22.406034 39,000 341 457 0
2021-06-18 19:24:21 GMT 56.031067 22.409792 39,000 341 457 0
2021-06-18 19:24:17 GMT 56.022499 22.415199 39,000 341 456 0
2021-06-18 19:24:14 GMT 56.015762 22.419434 39,000 341 454 0
2021-06-18 19:24:10 GMT 56.009171 22.423512 39,000 341 456 0
2021-06-18 19:24:07 GMT 56.002434 22.427731 39,000 341 456 0
2021-06-18 19:24:04 GMT 55.997082 22.431078 39,000 341 456 0
2021-06-18 19:24:01 GMT 55.990311 22.435247 39,000 341 455 0
2021-06-18 19:23:57 GMT 55.982372 22.440262 39,000 341 455 0
2021-06-18 19:23:54 GMT 55.962936 22.452309 39,000 341 455 0
2021-06-18 19:23:48 GMT 55.962936 22.452309 39,000 341 455 0
2021-06-18 19:23:44 GMT 55.956390 22.456388 39,000 341 454 0
2021-06-18 19:23:41 GMT 55.950439 22.460051 39,000 341 454 0
2021-06-18 19:23:37 GMT 55.943115 22.464626 39,000 341 454 0
2021-06-18 19:23:34 GMT 55.935425 22.469456 39,000 341 454 0
2021-06-18 19:23:30 GMT 55.929859 22.472878 39,000 341 454 0
2021-06-18 19:23:27 GMT 55.921188 22.478277 39,000 341 454 0
2021-06-18 19:23:23 GMT 55.914642 22.482355 39,000 341 455 0
2021-06-18 19:23:19 GMT 55.907684 22.486683 39,000 341 455 0
2021-06-18 19:23:16 GMT 55.901184 22.490761 39,000 341 455 0
2021-06-18 19:23:13 GMT 55.895004 22.494507 39,000 341 455 0
2021-06-18 19:23:07 GMT 55.881912 22.502663 39,000 341 455 0
2021-06-18 19:23:03 GMT 55.875160 22.506866 39,000 341 455 0
2021-06-18 19:22:59 GMT 55.868042 22.511236 39,000 341 454 0
2021-06-18 19:22:55 GMT 55.859333 22.516651 39,000 341 454 0
2021-06-18 19:22:52 GMT 55.853607 22.520170 39,000 341 454 0
2021-06-18 19:22:49 GMT 55.848038 22.523638 39,000 341 454 0
2021-06-18 19:22:46 GMT 55.841125 22.527882 39,000 341 454 0
2021-06-18 19:22:43 GMT 55.836411 22.530878 39,000 341 454 0
2021-06-18 19:22:39 GMT 55.828098 22.535963 39,000 341 454 0
2021-06-18 19:22:36 GMT 55.821167 22.540283 39,000 341 454 0
2021-06-18 19:22:32 GMT 55.812653 22.545527 39,000 341 455 0
2021-06-18 19:22:28 GMT 55.806702 22.549189 39,000 341 455 0
2021-06-18 19:22:25 GMT 55.800568 22.552935 39,000 341 455 0
2021-06-18 19:22:21 GMT 55.791649 22.558451 39,000 341 455 -64
2021-06-18 19:22:18 GMT 55.787689 22.560940 39,000 341 456 0
2021-06-18 19:22:15 GMT 55.779915 22.565660 39,000 341 456 0
2021-06-18 19:22:11 GMT 55.771397 22.570982 39,000 341 456 0
2021-06-18 19:22:08 GMT 55.767426 22.573408 39,000 341 456 0
2021-06-18 19:22:05 GMT 55.760880 22.577404 39,000 341 456 0
2021-06-18 19:22:02 GMT 55.754078 22.581625 39,000 341 457 0
2021-06-18 19:21:59 GMT 55.746552 22.586226 39,000 341 457 0
2021-06-18 19:21:55 GMT 55.739368 22.590637 39,000 341 457 0
2021-06-18 19:21:52 GMT 55.734386 22.593727 39,000 341 458 0
2021-06-18 19:21:48 GMT 55.727600 22.597878 39,000 341 458 0
2021-06-18 19:21:45 GMT 55.719818 22.602621 39,000 341 458 0
2021-06-18 19:21:41 GMT 55.712448 22.607201 39,000 341 459 0
2021-06-18 19:21:38 GMT 55.706451 22.610863 39,000 341 459 0
2021-06-18 19:21:32 GMT 55.694046 22.618519 39,000 341 459 0
2021-06-18 19:21:28 GMT 55.686810 22.622995 39,000 341 459 0
2021-06-18 19:21:23 GMT 55.677036 22.629004 39,000 341 459 0
2021-06-18 19:21:20 GMT 55.669830 22.633417 39,000 341 459 0
2021-06-18 19:21:17 GMT 55.665817 22.635870 39,000 341 458 0
2021-06-18 19:21:14 GMT 55.656410 22.641706 39,000 341 458 0
2021-06-18 19:21:10 GMT 55.650833 22.645153 39,000 341 458 0
2021-06-18 19:21:07 GMT 55.639435 22.652143 39,000 341 458 0
2021-06-18 19:21:04 GMT 55.639435 22.652143 39,000 341 458 0
2021-06-18 19:21:01 GMT 55.632843 22.656139 39,000 341 458 0
2021-06-18 19:20:57 GMT 55.623871 22.661705 39,000 341 458 0
2021-06-18 19:20:54 GMT 55.619080 22.664623 39,000 341 458 0
2021-06-18 19:20:50 GMT 55.611099 22.669538 39,000 341 457 0
2021-06-18 19:20:47 GMT 55.602951 22.674534 39,000 341 456 0
2021-06-18 19:20:41 GMT 55.591984 22.681274 39,000 341 456 0
2021-06-18 19:20:37 GMT 55.578644 22.689348 39,000 341 456 0
2021-06-18 19:20:34 GMT 55.578644 22.689348 39,000 341 456 0
2021-06-18 19:20:30 GMT 55.572098 22.693342 39,000 341 456 0
2021-06-18 19:20:27 GMT 55.565125 22.697582 39,000 341 456 0
2021-06-18 19:20:23 GMT 55.557999 22.701916 39,000 341 456 0
2021-06-18 19:20:20 GMT 55.552040 22.705564 39,000 341 456 0
2021-06-18 19:20:17 GMT 55.544872 22.709942 39,000 342 455 0
2021-06-18 19:20:13 GMT 55.537750 22.714319 39,000 342 455 0
2021-06-18 19:20:10 GMT 55.532181 22.717646 39,000 342 456 0
2021-06-18 19:20:07 GMT 55.517807 22.726301 39,000 342 457 0
2021-06-18 19:20:04 GMT 55.517807 22.726301 39,000 342 456 0
2021-06-18 19:20:00 GMT 55.509659 22.731213 39,000 341 458 0
2021-06-18 19:19:57 GMT 55.504837 22.734060 39,000 342 456 0
2021-06-18 19:19:52 GMT 55.496460 22.739124 39,000 342 456 0
2021-06-18 19:19:49 GMT 55.489471 22.743196 39,000 342 457 0
2021-06-18 19:19:46 GMT 55.484680 22.746077 39,000 342 457 0
2021-06-18 19:19:43 GMT 55.477890 22.750105 39,000 342 457 0
2021-06-18 19:19:40 GMT 55.470669 22.754402 39,000 341 457 0
2021-06-18 19:19:37 GMT 55.463314 22.758865 39,000 341 458 0
2021-06-18 19:19:32 GMT 55.447857 22.768908 39,000 339 457 0
2021-06-18 19:19:29 GMT 55.447857 22.768908 39,000 339 457 0
2021-06-18 19:19:26 GMT 55.443924 22.771662 39,000 338 458 0
2021-06-18 19:19:22 GMT 55.434544 22.778404 39,000 337 458 0
2021-06-18 19:19:19 GMT 55.424652 22.785887 39,000 337 458 0
2021-06-18 19:19:16 GMT 55.417877 22.791058 39,000 337 458 0
2021-06-18 19:19:13 GMT 55.413036 22.794800 39,000 337 458 0
2021-06-18 19:19:10 GMT 55.413036 22.794800 39,000 337 458 0
2021-06-18 19:19:07 GMT 55.407032 22.799461 39,000 337 458 0
2021-06-18 19:19:04 GMT 55.401772 22.803539 39,000 337 458 0
2021-06-18 19:19:00 GMT 55.391327 22.811575 39,000 337 459 0
2021-06-18 19:18:56 GMT 55.375809 22.823530 39,000 337 459 0
2021-06-18 19:18:51 GMT 55.375809 22.823530 39,000 337 458 0
2021-06-18 19:18:49 GMT 55.371323 22.827005 39,000 337 458 0
2021-06-18 19:18:46 GMT 55.365135 22.831755 39,000 337 458 0
2021-06-18 19:18:42 GMT 55.358551 22.836861 39,000 337 459 0
2021-06-18 19:18:39 GMT 55.351543 22.842241 39,000 337 459 0
2021-06-18 19:18:36 GMT 55.345551 22.846796 39,000 337 459 0
2021-06-18 19:18:32 GMT 55.331570 22.857555 39,000 337 458 0
2021-06-18 19:18:28 GMT 55.331570 22.857555 39,000 337 458 0
2021-06-18 19:18:24 GMT 55.322075 22.864880 39,000 337 458 0
2021-06-18 19:18:20 GMT 55.315109 22.870222 39,000 337 458 0
2021-06-18 19:18:18 GMT 55.310062 22.874119 39,000 337 458 0
2021-06-18 19:18:15 GMT 55.306572 22.876781 39,000 337 458 0
2021-06-18 19:18:11 GMT 55.299225 22.882421 39,000 337 458 0
2021-06-18 19:18:07 GMT 55.289719 22.889765 39,000 337 458 0
2021-06-18 19:18:04 GMT 55.285809 22.892677 39,000 337 459 0
2021-06-18 19:18:01 GMT 55.276337 22.899952 39,000 337 459 0
2021-06-18 19:17:58 GMT 55.272446 22.902941 39,000 337 458 0
2021-06-18 19:17:55 GMT 55.266449 22.907543 39,000 337 458 0
2021-06-18 19:17:52 GMT 55.255596 22.915899 39,000 337 458 0
2021-06-18 19:17:47 GMT 55.252666 22.918146 39,000 337 458 0
2021-06-18 19:17:44 GMT 55.245495 22.923555 39,000 337 458 0
2021-06-18 19:17:40 GMT 55.235825 22.930971 39,000 337 457 0
2021-06-18 19:17:37 GMT 55.232738 22.933376 39,000 337 457 0
2021-06-18 19:17:34 GMT 55.226921 22.937790 39,000 337 457 0
2021-06-18 19:17:31 GMT 55.220360 22.942865 39,000 337 458 0
2021-06-18 19:17:27 GMT 55.213806 22.947935 39,000 337 458 0
2021-06-18 19:17:24 GMT 55.206665 22.953428 39,000 337 458 0
2021-06-18 19:17:21 GMT 55.200108 22.958513 39,000 337 458 0
2021-06-18 19:17:17 GMT 55.193710 22.963446 39,000 337 458 0
2021-06-18 19:17:14 GMT 55.187912 22.967918 39,000 337 457 0
2021-06-18 19:17:11 GMT 55.181717 22.972654 39,000 337 457 0
2021-06-18 19:17:07 GMT 55.175156 22.977655 39,000 337 457 0
2021-06-18 19:17:04 GMT 55.169567 22.981983 39,000 337 457 0
2021-06-18 19:17:00 GMT 55.160492 22.988892 39,000 337 457 0
2021-06-18 19:16:56 GMT 55.152950 22.994635 39,000 337 457 0
2021-06-18 19:16:53 GMT 55.147736 22.998629 39,000 337 456 0
2021-06-18 19:16:50 GMT 55.142303 23.002705 39,000 337 457 0
2021-06-18 19:16:47 GMT 55.135529 23.007875 39,000 337 457 0
2021-06-18 19:16:44 GMT 55.121979 23.018135 39,000 337 458 0
2021-06-18 19:16:41 GMT 55.121979 23.018135 39,000 337 457 0
2021-06-18 19:16:35 GMT 55.106506 23.029848 39,000 337 457 0
2021-06-18 19:16:32 GMT 55.106506 23.029848 39,000 337 457 0
2021-06-18 19:16:29 GMT 55.102066 23.033241 39,000 337 457 0
2021-06-18 19:16:26 GMT 55.094666 23.038830 39,000 337 458 0
2021-06-18 19:16:23 GMT 55.089268 23.042908 39,000 337 458 0
2021-06-18 19:16:19 GMT 55.082474 23.047943 39,000 337 458 0
2021-06-18 19:16:16 GMT 55.070801 23.056667 39,000 337 457 0
2021-06-18 19:16:13 GMT 55.070801 23.056667 39,000 337 457 0
2021-06-18 19:16:10 GMT 55.063248 23.062323 39,000 337 457 0
2021-06-18 19:16:07 GMT 55.056839 23.067087 39,000 337 457 0
2021-06-18 19:16:04 GMT 55.052399 23.070457 39,000 337 457 0
2021-06-18 19:16:01 GMT 55.046539 23.074762 39,000 337 457 0
2021-06-18 19:15:56 GMT 55.035324 23.083082 39,000 338 456 0
2021-06-18 19:15:53 GMT 55.030472 23.086637 39,000 338 456 0
2021-06-18 19:15:50 GMT 55.025803 23.090111 39,000 338 456 0
2021-06-18 19:15:44 GMT 55.013248 23.099337 39,000 337 455 0
2021-06-18 19:15:40 GMT 55.006668 23.104168 39,000 337 455 0
2021-06-18 19:15:35 GMT 54.995499 23.112488 39,000 337 454 0
2021-06-18 19:15:32 GMT 54.989693 23.116816 39,000 337 454 0
2021-06-18 19:15:29 GMT 54.983917 23.121132 39,000 337 454 0
2021-06-18 19:15:25 GMT 54.975864 23.127218 39,000 337 455 0
2021-06-18 19:15:22 GMT 54.971832 23.130260 39,000 337 455 0
2021-06-18 19:15:18 GMT 54.964554 23.135876 39,000 336 455 0
2021-06-18 19:15:13 GMT 54.952881 23.145042 39,000 336 457 0
2021-06-18 19:15:08 GMT 54.945053 23.151344 39,000 336 457 0
2021-06-18 19:15:05 GMT 54.936264 23.158373 39,000 336 457 0
2021-06-18 19:15:02 GMT 54.933151 23.160875 39,000 336 457 64
2021-06-18 19:14:58 GMT 54.924500 23.167662 39,000 338 457 64
2021-06-18 19:14:55 GMT 54.920425 23.170650 39,000 339 456 0
2021-06-18 19:14:52 GMT 54.913719 23.175159 39,000 341 457 0
2021-06-18 19:14:46 GMT 54.899872 23.183090 39,000 345 457 0
2021-06-18 19:14:42 GMT 54.884949 23.189726 39,000 350 456 0
2021-06-18 19:14:38 GMT 54.884949 23.189726 39,000 349 455 0
2021-06-18 19:14:35 GMT 54.876896 23.192389 39,000 354 454 0
2021-06-18 19:14:32 GMT 54.872314 23.193754 39,000 355 454 0
2021-06-18 19:14:29 GMT 54.863754 23.195612 39,000 356 454 0
2021-06-18 19:14:25 GMT 54.858555 23.196383 39,000 357 453 0
2021-06-18 19:14:21 GMT 54.850174 23.197132 39,000 6 451 -64
2021-06-18 19:14:18 GMT 54.843018 23.197309 39,000 1 453 0
2021-06-18 19:14:14 GMT 54.834457 23.196823 39,000 5 451 -64
2021-06-18 19:14:11 GMT 54.829643 23.196301 39,000 7 451 0
2021-06-18 19:14:08 GMT 54.822601 23.195047 39,000 7 451 0
2021-06-18 19:14:05 GMT 54.816193 23.193674 39,000 8 450 0
2021-06-18 19:14:02 GMT 54.807999 23.191557 39,000 8 450 0
2021-06-18 19:13:58 GMT 54.802048 23.189959 39,000 8 450 0
2021-06-18 19:13:54 GMT 54.794868 23.188061 39,000 8 449 0
2021-06-18 19:13:51 GMT 54.787857 23.186241 39,000 8 450 0
2021-06-18 19:13:48 GMT 54.780487 23.184233 39,000 8 449 0
2021-06-18 19:13:45 GMT 54.774574 23.182650 39,000 8 449 0
2021-06-18 19:13:41 GMT 54.767166 23.180748 39,000 8 449 0
2021-06-18 19:13:38 GMT 54.759613 23.178728 39,000 8 449 0
2021-06-18 19:13:33 GMT 54.748352 23.175659 39,000 8 449 0
2021-06-18 19:13:30 GMT 54.745895 23.175077 39,000 8 449 0
2021-06-18 19:13:27 GMT 54.738728 23.173162 39,000 8 449 0
2021-06-18 19:13:24 GMT 54.731979 23.171331 39,000 8 449 0
2021-06-18 19:13:20 GMT 54.721344 23.168470 39,000 8 449 0
2021-06-18 19:13:17 GMT 54.718246 23.167669 39,000 8 449 0
2021-06-18 19:13:14 GMT 54.709866 23.165422 39,000 8 449 0
2021-06-18 19:13:10 GMT 54.703308 23.163704 39,000 8 449 0
2021-06-18 19:13:07 GMT 54.696533 23.161926 39,000 8 449 0
2021-06-18 19:13:03 GMT 54.690628 23.160311 39,000 8 449 0
2021-06-18 19:13:00 GMT 54.680771 23.157764 39,000 8 449 0
2021-06-18 19:12:57 GMT 54.675064 23.156191 39,000 8 449 0
2021-06-18 19:12:54 GMT 54.670528 23.154936 39,000 8 449 0
2021-06-18 19:12:50 GMT 54.662338 23.152798 39,000 8 449 0
2021-06-18 19:12:46 GMT 54.654556 23.150698 39,000 8 449 0
2021-06-18 19:12:42 GMT 54.644505 23.147943 39,000 8 450 0
2021-06-18 19:12:39 GMT 54.639385 23.146612 39,000 8 450 0
2021-06-18 19:12:35 GMT 54.633041 23.144880 39,000 8 450 0
2021-06-18 19:12:32 GMT 54.625050 23.142782 39,000 8 450 0
2021-06-18 19:12:29 GMT 54.617844 23.140842 39,000 8 450 0
2021-06-18 19:12:26 GMT 54.611481 23.139147 39,000 8 449 0
2021-06-18 19:12:23 GMT 54.606812 23.137854 39,000 8 449 0
2021-06-18 19:12:20 GMT 54.598801 23.135754 39,000 8 449 0
2021-06-18 19:12:16 GMT 54.592228 23.133961 39,000 8 449 0
2021-06-18 19:12:13 GMT 54.585896 23.132296 39,000 8 449 0
2021-06-18 19:12:08 GMT 54.573795 23.129051 39,000 8 450 0
2021-06-18 19:12:05 GMT 54.569687 23.127998 39,000 8 450 0
2021-06-18 19:12:02 GMT 54.563553 23.126387 39,000 8 450 0
2021-06-18 19:11:59 GMT 54.559223 23.125221 39,000 8 451 0
2021-06-18 19:11:56 GMT 54.544231 23.121309 39,000 8 451 0
2021-06-18 19:11:52 GMT 54.544231 23.121309 39,000 8 451 0
2021-06-18 19:11:48 GMT 54.537018 23.119396 39,000 8 451 0
2021-06-18 19:11:45 GMT 54.527344 23.116932 39,000 8 451 0
2021-06-18 19:11:40 GMT 54.510250 23.112488 39,000 8 451 0
2021-06-18 19:11:37 GMT 54.510250 23.112488 39,000 8 451 0
2021-06-18 19:11:34 GMT 54.506573 23.111572 39,000 8 451 0
2021-06-18 19:11:31 GMT 54.501823 23.110325 39,000 8 451 0
2021-06-18 19:11:28 GMT 54.494431 23.108450 39,000 8 450 0
2021-06-18 19:11:23 GMT 54.482941 23.105459 39,000 8 450 0
2021-06-18 19:11:19 GMT 54.476173 23.103664 39,000 8 450 0
2021-06-18 19:11:16 GMT 54.468384 23.101664 39,000 8 450 0
2021-06-18 19:11:11 GMT 54.459133 23.099255 39,000 8 450 0
2021-06-18 19:11:08 GMT 54.453407 23.097755 39,000 8 450 0
2021-06-18 19:11:05 GMT 54.446846 23.096092 39,000 8 450 0
2021-06-18 19:11:01 GMT 54.439861 23.094259 39,000 8 450 0
2021-06-18 19:10:58 GMT 54.432693 23.092428 39,000 8 450 0
2021-06-18 19:10:55 GMT 54.424896 23.090433 39,000 8 450 0
2021-06-18 19:10:52 GMT 54.419937 23.089100 39,000 8 450 0
2021-06-18 19:10:48 GMT 54.411980 23.087019 39,000 8 449 0
2021-06-18 19:10:40 GMT 54.397018 23.083082 39,000 8 449 0
2021-06-18 19:10:37 GMT 54.389633 23.081110 39,000 9 449 0
2021-06-18 19:10:30 GMT 54.373444 23.076620 39,000 9 448 0
2021-06-18 19:10:26 GMT 54.366917 23.074785 39,000 9 448 0
2021-06-18 19:10:22 GMT 54.356720 23.071873 39,000 9 448 0
2021-06-18 19:10:19 GMT 54.351974 23.070562 39,000 9 449 0
2021-06-18 19:10:16 GMT 54.346069 23.068947 39,000 7 450 0
2021-06-18 19:10:12 GMT 54.338882 23.067087 39,000 7 450 0
2021-06-18 19:10:09 GMT 54.332745 23.065628 39,000 6 450 0
2021-06-18 19:10:06 GMT 54.326553 23.064299 39,000 6 449 0
2021-06-18 19:10:02 GMT 54.311920 23.061596 39,000 5 450 0
2021-06-18 19:09:59 GMT 54.311920 23.061596 39,000 4 451 0
2021-06-18 19:09:56 GMT 54.305279 23.060637 39,000 4 451 0
2021-06-18 19:09:51 GMT 54.293224 23.059387 39,000 1 453 0
2021-06-18 19:09:48 GMT 54.289082 23.058971 39,000 1 452 0
2021-06-18 19:09:45 GMT 54.284088 23.058687 39,000 1 452 0
2021-06-18 19:09:41 GMT 54.266968 23.057871 39,000 1 453 0
2021-06-18 19:09:38 GMT 54.266968 23.057871 39,000 1 453 0
2021-06-18 19:09:34 GMT 54.260925 23.057713 39,000 1 453 0
2021-06-18 19:09:29 GMT 54.248814 23.057234 39,000 1 453 0
2021-06-18 19:09:25 GMT 54.240433 23.056910 39,000 1 453 0
2021-06-18 19:09:21 GMT 54.232086 23.056614 39,000 1 453 0
2021-06-18 19:09:18 GMT 54.224350 23.056379 39,000 1 453 0
2021-06-18 19:09:15 GMT 54.220001 23.056223 39,000 1 453 0
2021-06-18 19:09:11 GMT 54.209942 23.055861 39,000 1 453 0
2021-06-18 19:09:08 GMT 54.205994 23.055752 39,000 1 453 0
2021-06-18 19:09:05 GMT 54.198257 23.055437 39,000 1 453 0
2021-06-18 19:09:01 GMT 54.190933 23.055202 39,000 1 453 0
2021-06-18 19:08:58 GMT 54.185501 23.055052 39,000 1 453 0
2021-06-18 19:08:54 GMT 54.176743 23.054731 39,000 1 453 0
2021-06-18 19:08:51 GMT 54.169254 23.054485 39,000 1 453 0
2021-06-18 19:08:48 GMT 54.163155 23.054243 39,000 1 453 0
2021-06-18 19:08:45 GMT 54.157104 23.054003 39,000 1 453 0
2021-06-18 19:08:41 GMT 54.148773 23.053711 39,000 1 453 0
2021-06-18 19:08:37 GMT 54.140625 23.053476 39,000 1 453 0
2021-06-18 19:08:34 GMT 54.133923 23.053194 39,000 1 453 0
2021-06-18 19:08:28 GMT 54.121582 23.052769 39,000 1 453 0
2021-06-18 19:08:25 GMT 54.116371 23.052547 39,000 1 453 0
2021-06-18 19:08:21 GMT 54.106110 23.052141 39,000 1 453 0
2021-06-18 19:08:18 GMT 54.099659 23.051983 39,000 1 453 0
2021-06-18 19:08:15 GMT 54.093189 23.051741 39,000 1 453 0
2021-06-18 19:08:10 GMT 54.084412 23.051435 39,000 1 452 0
2021-06-18 19:08:07 GMT 54.078991 23.051254 39,000 1 452 0
2021-06-18 19:08:04 GMT 54.071869 23.050964 39,000 1 452 0
2021-06-18 19:08:00 GMT 54.063534 23.050690 39,000 1 452 0
2021-06-18 19:07:56 GMT 54.053291 23.050285 39,000 1 452 0
2021-06-18 19:07:53 GMT 54.049118 23.050180 39,000 1 452 0
2021-06-18 19:07:50 GMT 54.042252 23.049944 39,000 1 452 0
2021-06-18 19:07:46 GMT 54.026619 23.049397 39,000 1 452 0
2021-06-18 19:07:43 GMT 54.026619 23.049397 39,000 1 452 0
2021-06-18 19:07:40 GMT 54.021404 23.049236 39,000 1 452 0
2021-06-18 19:07:35 GMT 54.011398 23.048845 39,000 1 452 0
2021-06-18 19:07:32 GMT 54.005577 23.048670 39,000 1 451 0
2021-06-18 19:07:29 GMT 53.998268 23.048428 39,000 1 451 0
2021-06-18 19:07:26 GMT 53.992451 23.048185 39,000 1 451 0
2021-06-18 19:07:23 GMT 53.987045 23.047981 39,000 1 451 0
2021-06-18 19:07:20 GMT 53.980812 23.047783 39,000 1 451 0
2021-06-18 19:07:17 GMT 53.973503 23.047459 39,000 1 450 0
2021-06-18 19:07:14 GMT 53.967499 23.047216 39,000 1 450 0
2021-06-18 19:07:09 GMT 53.958344 23.046963 39,000 1 450 0
2021-06-18 19:07:04 GMT 53.936966 23.046099 39,000 1 450 0
2021-06-18 19:07:00 GMT 53.936966 23.046099 39,000 1 450 0
2021-06-18 19:06:54 GMT 53.920994 23.045601 39,000 1 451 0
2021-06-18 19:06:47 GMT 53.910564 23.045197 39,000 1 451 0
2021-06-18 19:06:43 GMT 53.895172 23.044685 39,000 1 451 0
2021-06-18 19:06:39 GMT 53.895172 23.044685 39,000 1 451 0
2021-06-18 19:06:35 GMT 53.886063 23.044373 39,000 1 451 0
2021-06-18 19:06:32 GMT 53.880203 23.044136 39,000 1 451 0
2021-06-18 19:06:29 GMT 53.873337 23.043901 39,000 1 451 0
2021-06-18 19:06:26 GMT 53.867550 23.043661 39,000 1 451 0
2021-06-18 19:06:23 GMT 53.861938 23.043509 39,000 1 451 0
2021-06-18 19:06:19 GMT 53.853836 23.043196 39,000 1 451 0
2021-06-18 19:06:16 GMT 53.846741 23.042934 39,000 1 451 0
2021-06-18 19:06:12 GMT 53.838455 23.042612 39,000 1 451 0
2021-06-18 19:06:09 GMT 53.832001 23.042412 39,000 1 451 0
2021-06-18 19:06:06 GMT 53.825958 23.042253 39,000 1 451 0
2021-06-18 19:06:02 GMT 53.817032 23.041941 39,000 1 451 0
2021-06-18 19:05:59 GMT 53.810383 23.041723 39,000 1 451 0
2021-06-18 19:05:56 GMT 53.805168 23.041481 39,000 1 451 0
2021-06-18 19:05:51 GMT 53.795197 23.041155 39,000 1 451 0
2021-06-18 19:05:48 GMT 53.789566 23.040998 39,000 1 452 0
2021-06-18 19:05:45 GMT 53.782288 23.040764 39,000 1 452 0
2021-06-18 19:05:42 GMT 53.775421 23.040527 39,000 1 452 0
2021-06-18 19:05:39 GMT 53.768299 23.040270 39,000 1 452 0
2021-06-18 19:05:36 GMT 53.761456 23.040108 39,000 1 453 0
2021-06-18 19:05:33 GMT 53.756428 23.039946 39,000 1 452 0
2021-06-18 19:05:30 GMT 53.752472 23.039783 39,000 1 452 0
2021-06-18 19:05:27 GMT 53.745346 23.039585 39,000 1 452 0
2021-06-18 19:05:24 GMT 53.738480 23.039351 39,000 1 452 0
2021-06-18 19:05:21 GMT 53.731201 23.039116 39,000 1 451 0
2021-06-18 19:05:17 GMT 53.723923 23.038801 39,000 1 451 0
2021-06-18 19:05:13 GMT 53.714539 23.038486 39,000 1 451 0
2021-06-18 19:05:10 GMT 53.708294 23.038330 39,000 1 451 0
2021-06-18 19:05:06 GMT 53.701870 23.038088 39,000 1 451 0
2021-06-18 19:05:03 GMT 53.695400 23.037846 39,000 1 451 0
2021-06-18 19:05:00 GMT 53.688766 23.037624 39,000 1 451 0
2021-06-18 19:04:57 GMT 53.680874 23.037361 39,000 1 451 0
2021-06-18 19:04:51 GMT 53.669403 23.036919 39,000 1 451 0
2021-06-18 19:04:48 GMT 53.663185 23.036715 39,000 1 450 0
2021-06-18 19:04:45 GMT 53.657593 23.036526 39,000 1 450 0
2021-06-18 19:04:40 GMT 53.646984 23.036148 39,000 1 449 0
2021-06-18 19:04:37 GMT 53.642212 23.035976 39,000 1 449 0
2021-06-18 19:04:34 GMT 53.635162 23.035746 39,000 1 449 0
2021-06-18 19:04:31 GMT 53.628983 23.035583 39,000 1 448 0
2021-06-18 19:04:28 GMT 53.620880 23.035349 39,000 1 448 0
2021-06-18 19:04:24 GMT 53.614059 23.035112 39,000 1 448 0
2021-06-18 19:04:21 GMT 53.607464 23.034857 39,000 1 448 0
2021-06-18 19:04:18 GMT 53.599827 23.034615 39,000 1 448 0
2021-06-18 19:04:14 GMT 53.594662 23.034452 39,000 1 448 0
2021-06-18 19:04:09 GMT 53.583069 23.034092 39,000 1 448 0
2021-06-18 19:04:06 GMT 53.577297 23.033888 39,000 1 448 0
2021-06-18 19:04:03 GMT 53.568604 23.033543 39,000 1 448 0
2021-06-18 19:04:00 GMT 53.564255 23.033464 39,000 1 449 0
2021-06-18 19:03:57 GMT 53.557022 23.033152 39,000 1 449 0
2021-06-18 19:03:53 GMT 53.549789 23.032915 39,000 1 449 0
2021-06-18 19:03:50 GMT 53.541496 23.032675 39,000 1 449 0
2021-06-18 19:03:47 GMT 53.531570 23.032288 39,000 1 449 0
2021-06-18 19:03:44 GMT 53.531570 23.032288 39,000 1 449 0
2021-06-18 19:03:41 GMT 53.518707 23.031816 39,000 1 449 0
2021-06-18 19:03:38 GMT 53.518707 23.031816 39,000 1 449 0
2021-06-18 19:03:35 GMT 53.511703 23.031626 39,000 1 448 0
2021-06-18 19:03:32 GMT 53.507561 23.031464 39,000 1 448 0
2021-06-18 19:03:29 GMT 53.500717 23.031221 39,000 1 448 0
2021-06-18 19:03:26 GMT 53.495132 23.031059 39,000 1 448 0
2021-06-18 19:03:23 GMT 53.487495 23.030817 39,000 1 448 0
2021-06-18 19:03:20 GMT 53.481308 23.030561 39,000 1 448 0
2021-06-18 19:03:16 GMT 53.471603 23.030247 39,000 1 448 0
2021-06-18 19:03:12 GMT 53.463337 23.030010 39,000 1 448 0
2021-06-18 19:03:09 GMT 53.458786 23.029856 39,000 1 448 0
2021-06-18 19:03:06 GMT 53.454025 23.029686 39,000 1 448 0
2021-06-18 19:03:03 GMT 53.444962 23.029385 39,000 1 448 0
2021-06-18 19:03:00 GMT 53.440804 23.029202 39,000 1 448 0
2021-06-18 19:02:57 GMT 53.433590 23.028959 39,000 1 448 0
2021-06-18 19:02:54 GMT 53.428234 23.028797 39,000 1 448 0
2021-06-18 19:02:51 GMT 53.421810 23.028555 39,000 1 448 0
2021-06-18 19:02:48 GMT 53.416645 23.028395 39,000 1 448 0
2021-06-18 19:02:45 GMT 53.410641 23.028152 39,000 1 448 0
2021-06-18 19:02:42 GMT 53.403004 23.027828 39,000 1 448 0
2021-06-18 19:02:38 GMT 53.395157 23.027578 39,000 1 448 0
2021-06-18 19:02:35 GMT 53.381916 23.027102 39,000 1 448 0
2021-06-18 19:02:32 GMT 53.381916 23.027102 39,000 1 448 0
2021-06-18 19:02:28 GMT 53.374466 23.026873 39,000 1 448 0
2021-06-18 19:02:25 GMT 53.368881 23.026636 39,000 1 448 0
2021-06-18 19:02:22 GMT 53.360001 23.026323 39,000 1 448 0
2021-06-18 19:02:17 GMT 53.350296 23.026011 39,000 1 448 0
2021-06-18 19:02:13 GMT 53.341835 23.025728 39,000 1 447 0
2021-06-18 19:02:09 GMT 53.333782 23.025406 39,000 1 447 0
2021-06-18 19:02:06 GMT 53.328232 23.025225 39,000 1 447 0
2021-06-18 19:02:01 GMT 53.318138 23.024920 39,000 1 447 0
2021-06-18 19:01:57 GMT 53.311523 23.024675 39,000 1 447 0
2021-06-18 19:01:54 GMT 53.303055 23.024363 39,000 1 447 0
2021-06-18 19:01:51 GMT 53.295456 23.024126 39,000 1 447 0
2021-06-18 19:01:48 GMT 53.291336 23.023970 39,000 1 447 0
2021-06-18 19:01:45 GMT 53.285751 23.023733 39,000 1 447 0
2021-06-18 19:01:42 GMT 53.278152 23.023499 39,000 1 447 0
2021-06-18 19:01:39 GMT 53.273804 23.023342 39,000 1 447 0
2021-06-18 19:01:36 GMT 53.264324 23.023062 39,000 1 447 0
2021-06-18 19:01:31 GMT 53.256317 23.022739 39,000 1 447 0
2021-06-18 19:01:28 GMT 53.249477 23.022497 39,000 1 447 0
2021-06-18 19:01:25 GMT 53.244354 23.022335 39,000 1 447 0
2021-06-18 19:01:21 GMT 53.235043 23.022013 39,000 1 447 0
2021-06-18 19:01:18 GMT 53.229263 23.021772 39,000 1 448 0
2021-06-18 19:01:15 GMT 53.224106 23.021608 39,000 1 448 0
2021-06-18 19:01:11 GMT 53.216888 23.021366 39,000 1 447 0
2021-06-18 19:01:08 GMT 53.210510 23.021124 39,000 1 447 0
2021-06-18 19:01:05 GMT 53.203251 23.020882 39,000 1 447 0
2021-06-18 19:01:01 GMT 53.195847 23.020639 39,000 1 447 0
2021-06-18 19:00:58 GMT 53.188431 23.020437 39,000 1 447 0
2021-06-18 19:00:55 GMT 53.182209 23.020235 39,000 1 447 0
2021-06-18 19:00:50 GMT 53.172943 23.019913 39,000 1 446 0
2021-06-18 19:00:47 GMT 53.164516 23.019588 39,000 1 446 0
2021-06-18 19:00:43 GMT 53.155838 23.019339 39,000 1 442 0
2021-06-18 19:00:40 GMT 53.151344 23.019184 39,000 1 446 0
2021-06-18 19:00:37 GMT 53.143936 23.018948 39,000 1 446 0
2021-06-18 19:00:34 GMT 53.140228 23.018789 39,000 1 446 0
2021-06-18 19:00:31 GMT 53.127045 23.018398 39,000 1 446 0
2021-06-18 19:00:28 GMT 53.127045 23.018398 39,000 1 446 0
2021-06-18 19:00:25 GMT 53.121918 23.018242 39,000 1 446 0
2021-06-18 19:00:22 GMT 53.114475 23.017973 39,000 1 446 0
2021-06-18 19:00:19 GMT 53.109558 23.017847 39,000 1 446 0
2021-06-18 19:00:16 GMT 53.102371 23.017612 39,000 1 445 0
2021-06-18 19:00:13 GMT 53.097244 23.017378 39,000 1 445 0
2021-06-18 19:00:10 GMT 53.089008 23.017141 39,000 1 445 0
2021-06-18 19:00:06 GMT 53.082458 23.016891 39,000 1 444 0
2021-06-18 19:00:03 GMT 53.076324 23.016663 39,000 1 444 0
2021-06-18 19:00:00 GMT 53.061359 23.016199 39,000 1 443 0
2021-06-18 18:59:57 GMT 53.061359 23.016199 39,000 1 443 0
2021-06-18 18:59:54 GMT 53.056046 23.015976 39,000 1 443 0
2021-06-18 18:59:50 GMT 53.046249 23.015671 39,000 1 442 0
2021-06-18 18:59:47 GMT 53.042587 23.015518 39,000 1 442 0
2021-06-18 18:59:44 GMT 53.037060 23.015337 39,000 1 442 0
2021-06-18 18:59:41 GMT 53.031738 23.015137 39,000 1 441 0
2021-06-18 18:59:38 GMT 53.024231 23.014908 39,000 1 441 0
2021-06-18 18:59:35 GMT 53.017273 23.014709 39,000 1 441 0
2021-06-18 18:59:32 GMT 53.011185 23.014526 39,000 1 440 0
2021-06-18 18:59:29 GMT 53.005913 23.014317 39,000 1 440 0
2021-06-18 18:59:26 GMT 52.998596 23.014069 39,000 1 440 0
2021-06-18 18:59:23 GMT 52.992928 23.013926 39,000 1 440 0
2021-06-18 18:59:18 GMT 52.983803 23.013611 39,000 1 440 0
2021-06-18 18:59:15 GMT 52.976074 23.013306 39,000 1 440 0
2021-06-18 18:59:12 GMT 52.972641 23.013229 39,000 1 440 0
2021-06-18 18:59:09 GMT 52.965321 23.012983 39,000 1 440 0
2021-06-18 18:59:06 GMT 52.952911 23.012543 39,000 1 441 0
2021-06-18 18:59:03 GMT 52.952911 23.012543 39,000 1 441 0
2021-06-18 18:58:58 GMT 52.942978 23.012238 39,000 1 441 0
2021-06-18 18:58:54 GMT 52.928696 23.011780 39,000 1 442 0
2021-06-18 18:58:51 GMT 52.928696 23.011780 39,000 1 442 0
2021-06-18 18:58:47 GMT 52.922379 23.011551 39,000 1 442 0
2021-06-18 18:58:43 GMT 52.912170 23.011246 39,000 1 442 0
2021-06-18 18:58:38 GMT 52.901592 23.010864 39,000 1 442 0
2021-06-18 18:58:33 GMT 52.891983 23.010559 39,000 1 442 0
2021-06-18 18:58:30 GMT 52.885666 23.010406 39,000 1 441 0
2021-06-18 18:58:27 GMT 52.880596 23.010237 39,000 1 442 0
2021-06-18 18:58:23 GMT 52.869370 23.009796 39,000 1 441 0
2021-06-18 18:58:20 GMT 52.866302 23.009766 39,000 1 438 0
2021-06-18 18:58:17 GMT 52.859600 23.009529 39,000 1 441 0
2021-06-18 18:58:13 GMT 52.845776 23.008982 39,000 1 440 0
2021-06-18 18:58:10 GMT 52.845776 23.008982 39,000 1 440 0
2021-06-18 18:58:07 GMT 52.839294 23.008804 39,000 1 440 0
2021-06-18 18:58:03 GMT 52.830364 23.008432 39,000 1 439 0
2021-06-18 18:58:00 GMT 52.825291 23.008274 39,000 1 439 0
2021-06-18 18:57:57 GMT 52.818588 23.008039 39,000 1 438 0
2021-06-18 18:57:54 GMT 52.812954 23.007881 39,000 1 438 0
2021-06-18 18:57:50 GMT 52.805237 23.007584 39,000 1 438 0
2021-06-18 18:57:47 GMT 52.797966 23.007334 39,000 1 438 0
2021-06-18 18:57:44 GMT 52.792099 23.007175 39,000 1 438 0
2021-06-18 18:57:41 GMT 52.785069 23.006941 39,000 1 438 0
2021-06-18 18:57:38 GMT 52.779205 23.006704 39,000 1 438 0
2021-06-18 18:57:35 GMT 52.772736 23.006439 39,000 1 438 0
2021-06-18 18:57:32 GMT 52.767475 23.006233 39,000 1 438 0
2021-06-18 18:57:29 GMT 52.756767 23.005842 39,000 1 438 0
2021-06-18 18:57:26 GMT 52.756767 23.005842 39,000 1 437 0
2021-06-18 18:57:23 GMT 52.741837 23.005295 39,000 1 437 0
2021-06-18 18:57:20 GMT 52.741837 23.005295 39,000 1 437 0
2021-06-18 18:57:16 GMT 52.736160 23.005142 39,000 1 437 0
2021-06-18 18:57:12 GMT 52.727921 23.004837 39,000 1 437 0
2021-06-18 18:57:09 GMT 52.722473 23.004684 39,000 1 436 0
2021-06-18 18:57:06 GMT 52.716454 23.004429 39,000 1 436 0
2021-06-18 18:57:03 GMT 52.709797 23.004194 39,000 1 436 0
2021-06-18 18:57:00 GMT 52.702560 23.003998 39,000 1 435 0
2021-06-18 18:56:57 GMT 52.690292 23.003540 39,000 1 436 0
2021-06-18 18:56:54 GMT 52.690292 23.003540 39,000 1 436 0
2021-06-18 18:56:50 GMT 52.683243 23.003311 39,000 1 436 0
2021-06-18 18:56:47 GMT 52.676788 23.003096 39,000 1 436 0
2021-06-18 18:56:43 GMT 52.668968 23.002859 39,000 1 435 0
2021-06-18 18:56:39 GMT 52.661728 23.002625 39,000 1 435 0
2021-06-18 18:56:36 GMT 52.655285 23.002390 39,000 1 435 0
2021-06-18 18:56:32 GMT 52.646484 23.002090 39,000 1 435 0
2021-06-18 18:56:29 GMT 52.641270 23.001997 39,000 1 435 0
2021-06-18 18:56:25 GMT 52.634033 23.001709 39,000 1 435 0
2021-06-18 18:56:22 GMT 52.626049 23.001526 39,000 1 435 0
2021-06-18 18:56:19 GMT 52.620026 23.001328 39,000 1 435 0
2021-06-18 18:56:15 GMT 52.611988 23.001055 39,000 1 434 0
2021-06-18 18:56:11 GMT 52.598351 23.000584 39,000 1 435 0
2021-06-18 18:56:07 GMT 52.598351 23.000584 39,000 1 435 0
2021-06-18 18:56:04 GMT 52.591736 23.000412 39,000 1 435 0
2021-06-18 18:56:01 GMT 52.585735 23.000193 39,000 1 435 0
2021-06-18 18:55:58 GMT 52.579494 22.999956 39,000 1 435 0
2021-06-18 18:55:55 GMT 52.574467 22.999800 39,000 1 435 0
2021-06-18 18:55:52 GMT 52.567245 22.999573 39,000 1 435 0
2021-06-18 18:55:49 GMT 52.562439 22.999420 39,000 1 435 0
2021-06-18 18:55:46 GMT 52.554218 22.999092 39,000 1 435 0
2021-06-18 18:55:43 GMT 52.550400 22.998962 39,000 1 435 0
2021-06-18 18:55:40 GMT 52.544350 22.998779 39,000 1 436 0
2021-06-18 18:55:37 GMT 52.537537 22.998581 39,000 1 436 0
2021-06-18 18:55:34 GMT 52.524891 22.998152 39,000 1 436 0
2021-06-18 18:55:31 GMT 52.524891 22.998152 39,000 1 436 0
2021-06-18 18:55:27 GMT 52.517258 22.997818 39,000 1 436 0
2021-06-18 18:55:24 GMT 52.509995 22.997602 39,000 1 436 0
2021-06-18 18:55:20 GMT 52.501556 22.997360 39,000 1 436 0
2021-06-18 18:55:17 GMT 52.487869 22.996902 39,000 1 436 0
2021-06-18 18:55:13 GMT 52.482422 22.996674 39,000 1 436 0
2021-06-18 18:55:10 GMT 52.482422 22.996674 39,000 1 436 0
2021-06-18 18:55:07 GMT 52.478210 22.996521 39,000 1 436 0
2021-06-18 18:55:04 GMT 52.472168 22.996368 39,000 1 436 0
2021-06-18 18:55:01 GMT 52.457703 22.995834 39,000 1 435 0
2021-06-18 18:54:58 GMT 52.457703 22.995834 39,000 1 435 0
2021-06-18 18:54:55 GMT 52.453491 22.995758 39,000 1 435 0
2021-06-18 18:54:52 GMT 52.446262 22.995483 39,000 1 435 0
2021-06-18 18:54:49 GMT 52.439838 22.995249 39,000 1 435 0
2021-06-18 18:54:45 GMT 52.431610 22.994995 39,000 1 435 0
2021-06-18 18:54:42 GMT 52.426991 22.994856 39,000 1 435 0
2021-06-18 18:54:39 GMT 52.420990 22.994690 39,000 1 435 0
2021-06-18 18:54:36 GMT 52.407158 22.994228 39,000 1 435 0
2021-06-18 18:54:33 GMT 52.407158 22.994228 39,000 1 435 0
2021-06-18 18:54:30 GMT 52.403137 22.994080 39,000 1 435 0
2021-06-18 18:54:27 GMT 52.396687 22.993835 39,000 1 435 0
2021-06-18 18:54:24 GMT 52.390495 22.993679 39,000 1 435 0
2021-06-18 18:54:20 GMT 52.381416 22.993364 39,000 1 435 0
2021-06-18 18:54:17 GMT 52.376434 22.993208 39,000 1 435 0
2021-06-18 18:54:14 GMT 52.370384 22.992971 39,000 1 435 0
2021-06-18 18:54:10 GMT 52.356583 22.992630 39,000 1 434 0
2021-06-18 18:54:07 GMT 52.356583 22.992630 39,000 1 434 0
2021-06-18 18:54:04 GMT 52.350552 22.992422 39,000 1 434 0
2021-06-18 18:54:01 GMT 52.342117 22.992172 39,000 1 434 0
2021-06-18 18:53:58 GMT 52.337330 22.992031 39,000 1 434 0
2021-06-18 18:53:53 GMT 52.329712 22.991791 39,000 1 434 0
2021-06-18 18:53:49 GMT 52.320293 22.991482 39,000 1 433 0
2021-06-18 18:53:46 GMT 52.309708 22.991104 39,000 1 433 0
2021-06-18 18:53:43 GMT 52.309708 22.991104 39,000 1 433 0
2021-06-18 18:53:40 GMT 52.301102 22.990799 39,000 1 432 0
2021-06-18 18:53:37 GMT 52.296158 22.990570 39,000 1 432 0
2021-06-18 18:53:34 GMT 52.290173 22.990305 39,000 1 432 0
2021-06-18 18:53:31 GMT 52.279186 22.989834 39,000 1 432 0
2021-06-18 18:53:28 GMT 52.279186 22.989834 39,000 1 432 0
2021-06-18 18:53:24 GMT 52.264851 22.989126 39,000 357 438 0
2021-06-18 18:53:21 GMT 52.264851 22.989126 39,000 1 433 64
2021-06-18 18:53:18 GMT 52.258659 22.988813 39,000 1 433 64
2021-06-18 18:53:14 GMT 52.251892 22.988586 39,000 1 433 64
2021-06-18 18:53:11 GMT 52.245064 22.988420 39,000 0 435 0
2021-06-18 18:53:08 GMT 52.239029 22.988586 39,000 358 436 -64
2021-06-18 18:53:04 GMT 52.228584 22.989204 39,000 357 437 0
2021-06-18 18:53:01 GMT 52.224350 22.989676 39,000 357 438 0
2021-06-18 18:52:58 GMT 52.218521 22.990341 39,000 357 438 0
2021-06-18 18:52:55 GMT 52.213486 22.990875 39,000 357 437 0
2021-06-18 18:52:51 GMT 52.198372 22.992580 39,000 357 437 0
2021-06-18 18:52:48 GMT 52.198372 22.992580 39,000 357 437 0
2021-06-18 18:52:45 GMT 52.192337 22.993240 39,000 357 437 0
2021-06-18 18:52:42 GMT 52.187302 22.993851 39,000 357 437 0
2021-06-18 18:52:39 GMT 52.180664 22.994537 39,000 357 437 0
2021-06-18 18:52:36 GMT 52.173046 22.995405 39,000 357 437 0
2021-06-18 18:52:32 GMT 52.158737 22.996979 39,000 357 437 0
2021-06-18 18:52:28 GMT 52.158737 22.996979 39,000 357 437 0
2021-06-18 18:52:25 GMT 52.152752 22.997681 39,000 357 437 0
2021-06-18 18:52:22 GMT 52.146698 22.998352 39,000 357 437 0
2021-06-18 18:52:18 GMT 52.137268 22.999344 39,000 357 437 0
2021-06-18 18:52:15 GMT 52.132034 22.999956 39,000 357 437 0
2021-06-18 18:52:12 GMT 52.125797 23.000664 39,000 357 437 0
2021-06-18 18:52:08 GMT 52.117977 23.001526 39,000 357 436 0
2021-06-18 18:52:05 GMT 52.106106 23.002859 39,000 357 436 0
2021-06-18 18:52:02 GMT 52.106106 23.002859 39,000 357 436 0
2021-06-18 18:51:57 GMT 52.093678 23.004194 39,000 357 435 0
2021-06-18 18:51:54 GMT 52.091068 23.004507 39,000 357 435 0
2021-06-18 18:51:51 GMT 52.074875 23.006363 39,000 357 435 0
2021-06-18 18:51:47 GMT 52.074875 23.006363 39,000 357 435 0
2021-06-18 18:51:44 GMT 52.069656 23.006941 39,000 357 434 0
2021-06-18 18:51:41 GMT 52.064442 23.007490 39,000 357 434 0
2021-06-18 18:51:37 GMT 52.048462 23.009262 39,000 357 434 0
2021-06-18 18:51:34 GMT 52.048462 23.009262 39,000 357 434 0
2021-06-18 18:51:31 GMT 52.044659 23.009687 39,000 357 434 0
2021-06-18 18:51:27 GMT 52.035439 23.010630 39,000 357 434 0
2021-06-18 18:51:24 GMT 52.030014 23.011246 39,000 357 435 0
2021-06-18 18:51:21 GMT 52.014397 23.012905 39,000 357 435 0
2021-06-18 18:51:17 GMT 52.014397 23.012905 39,000 357 437 0
2021-06-18 18:51:14 GMT 52.004333 23.014069 39,000 357 437 64
2021-06-18 18:51:11 GMT 52.004333 23.014069 39,000 356 438 0
2021-06-18 18:51:07 GMT 51.994858 23.015137 39,000 356 439 -64
2021-06-18 18:51:04 GMT 51.989586 23.015730 39,000 356 440 64
2021-06-18 18:51:01 GMT 51.983139 23.016510 39,000 356 440 64
2021-06-18 18:50:57 GMT 51.975853 23.017378 39,000 356 440 64
2021-06-18 18:50:54 GMT 51.969360 23.018188 39,000 356 440 0
2021-06-18 18:50:51 GMT 51.961029 23.019104 39,000 356 440 0
2021-06-18 18:50:47 GMT 51.955353 23.019791 39,000 357 440 0
2021-06-18 18:50:37 GMT 51.935349 23.022003 39,000 357 437 0
2021-06-18 18:50:34 GMT 51.929672 23.022635 39,000 357 437 0
2021-06-18 18:50:31 GMT 51.921806 23.023499 39,000 357 436 0
2021-06-18 18:50:28 GMT 51.917381 23.023970 39,000 357 436 0
2021-06-18 18:50:25 GMT 51.909935 23.024754 39,000 357 436 0
2021-06-18 18:50:22 GMT 51.904488 23.025303 39,000 357 436 0
2021-06-18 18:50:19 GMT 51.899879 23.025696 39,000 357 435 0
2021-06-18 18:50:16 GMT 51.893646 23.026352 39,000 357 436 0
2021-06-18 18:50:13 GMT 51.877991 23.027863 39,000 357 437 0
2021-06-18 18:50:10 GMT 51.877991 23.027863 39,000 357 443 0
2021-06-18 18:50:06 GMT 51.871109 23.028564 39,000 357 437 0
2021-06-18 18:50:03 GMT 51.864872 23.029175 39,000 357 448 0
2021-06-18 18:50:00 GMT 51.860264 23.029633 39,000 357 438 0
2021-06-18 18:49:57 GMT 51.853188 23.030319 39,000 357 439 0
2021-06-18 18:49:54 GMT 51.847694 23.030853 39,000 357 439 0
2021-06-18 18:49:51 GMT 51.842651 23.031427 39,000 357 440 0
2021-06-18 18:49:48 GMT 51.829865 23.032684 39,000 357 441 0
2021-06-18 18:49:45 GMT 51.829865 23.032684 39,000 357 442 0
2021-06-18 18:49:42 GMT 51.823746 23.033358 39,000 357 443 0
2021-06-18 18:49:38 GMT 51.816830 23.034058 39,000 357 443 0
2021-06-18 18:49:35 GMT 51.809242 23.034821 39,000 357 444 0
2021-06-18 18:49:32 GMT 51.803329 23.035435 39,000 357 446 0
2021-06-18 18:49:28 GMT 51.793880 23.036423 39,000 357 445 64
2021-06-18 18:49:24 GMT 51.788544 23.036995 39,000 357 445 0
2021-06-18 18:49:21 GMT 51.782009 23.037643 39,000 357 448 0
2021-06-18 18:49:18 GMT 51.772141 23.038712 39,000 357 446 0
2021-06-18 18:49:14 GMT 51.764282 23.039518 39,000 357 448 0
2021-06-18 18:49:11 GMT 51.761200 23.039856 39,000 357 448 0
2021-06-18 18:49:08 GMT 51.753567 23.040695 39,000 357 448 0
2021-06-18 18:49:05 GMT 51.746567 23.041449 39,000 357 448 0
2021-06-18 18:49:01 GMT 51.740391 23.042145 39,000 357 448 0
2021-06-18 18:48:57 GMT 51.730865 23.043156 39,000 357 448 0
2021-06-18 18:48:54 GMT 51.719349 23.044434 38,975 357 435 320
2021-06-18 18:48:51 GMT 51.719349 23.044434 39,000 357 446 0
2021-06-18 18:48:48 GMT 51.714184 23.045044 39,000 357 443 0
2021-06-18 18:48:45 GMT 51.706192 23.045902 38,975 357 435 192
2021-06-18 18:48:42 GMT 51.700470 23.046495 39,000 357 442 0
2021-06-18 18:48:39 GMT 51.694107 23.047165 39,000 357 441 0
2021-06-18 18:48:34 GMT 51.676243 23.049088 38,975 357 439 64
2021-06-18 18:48:31 GMT 51.676243 23.049088 38,975 357 438 64
2021-06-18 18:48:27 GMT 51.668564 23.049910 38,975 357 436 128
2021-06-18 18:48:24 GMT 51.656662 23.051172 38,925 357 433 448
2021-06-18 18:48:21 GMT 51.656662 23.051172 38,975 357 435 320
2021-06-18 18:48:18 GMT 51.652267 23.051682 38,950 357 434 384
2021-06-18 18:48:15 GMT 51.644447 23.052521 38,925 357 434 448
2021-06-18 18:48:11 GMT 51.638855 23.053102 38,925 357 433 448
2021-06-18 18:48:08 GMT 51.632065 23.053894 38,875 357 433 448
2021-06-18 18:48:04 GMT 51.622879 23.054884 38,825 357 432 448
2021-06-18 18:48:00 GMT 51.611343 23.056147 38,800 357 432 512
2021-06-18 18:47:57 GMT 51.611343 23.056147 38,800 357 431 512
2021-06-18 18:47:54 GMT 51.602596 23.057098 38,750 357 431 576
2021-06-18 18:47:51 GMT 51.598640 23.057556 38,725 356 430 640
2021-06-18 18:47:48 GMT 51.592495 23.058243 38,700 356 429 640
2021-06-18 18:47:44 GMT 51.584812 23.059082 38,650 357 428 704
2021-06-18 18:47:41 GMT 51.578251 23.059845 38,600 357 428 832
2021-06-18 18:47:38 GMT 51.572151 23.060455 38,575 357 428 832
2021-06-18 18:47:34 GMT 51.564651 23.061342 38,500 357 428 960
2021-06-18 18:47:31 GMT 51.558327 23.061981 38,450 357 428 1024
2021-06-18 18:47:27 GMT 51.550644 23.062826 38,400 357 428 1088
2021-06-18 18:47:24 GMT 51.545105 23.063419 38,300 357 428 1152
2021-06-18 18:47:21 GMT 51.537827 23.064163 38,275 357 428 1152
2021-06-18 18:47:17 GMT 51.530914 23.064905 38,200 357 428 1088
2021-06-18 18:47:13 GMT 51.522812 23.065722 38,150 357 428 960
2021-06-18 18:47:10 GMT 51.518646 23.066168 38,025 357 428 576
2021-06-18 18:47:07 GMT 51.511734 23.066835 38,050 357 428 640
2021-06-18 18:47:03 GMT 51.502075 23.067875 38,025 357 429 320
2021-06-18 18:47:00 GMT 51.497910 23.068247 38,000 357 429 256
2021-06-18 18:46:57 GMT 51.491196 23.068924 38,000 357 429 64
2021-06-18 18:46:54 GMT 51.485229 23.069582 38,000 357 429 64
2021-06-18 18:46:51 GMT 51.478115 23.070297 38,000 357 429 0
2021-06-18 18:46:47 GMT 51.471600 23.070984 38,000 357 429 0
2021-06-18 18:46:44 GMT 51.466232 23.071512 38,000 357 429 0
2021-06-18 18:46:41 GMT 51.459503 23.072254 38,000 357 428 0
2021-06-18 18:46:37 GMT 51.451813 23.073044 38,000 357 428 0
2021-06-18 18:46:33 GMT 51.442520 23.074036 38,000 357 428 0
2021-06-18 18:46:29 GMT 51.434589 23.074875 38,000 357 428 0
2021-06-18 18:46:26 GMT 51.430847 23.075298 38,000 357 428 0
2021-06-18 18:46:23 GMT 51.424534 23.075943 38,000 357 428 0
2021-06-18 18:46:20 GMT 51.418213 23.076633 38,000 357 428 0
2021-06-18 18:46:17 GMT 51.411301 23.077375 38,000 357 428 0
2021-06-18 18:46:13 GMT 51.403770 23.078156 38,000 357 428 0
2021-06-18 18:46:10 GMT 51.398045 23.078766 38,000 357 428 0
2021-06-18 18:46:06 GMT 51.390739 23.079529 38,000 357 428 0
2021-06-18 18:46:03 GMT 51.383801 23.080292 38,000 357 428 0
2021-06-18 18:46:00 GMT 51.377285 23.080978 38,000 357 428 0
2021-06-18 18:45:55 GMT 51.369556 23.081818 38,000 357 428 -64
2021-06-18 18:45:52 GMT 51.362457 23.082573 38,000 357 428 -64
2021-06-18 18:45:49 GMT 51.357513 23.083092 38,000 357 428 -64
2021-06-18 18:45:46 GMT 51.350376 23.083878 38,000 357 428 -64
2021-06-18 18:45:41 GMT 51.340897 23.084873 38,000 357 428 0
2021-06-18 18:45:38 GMT 51.336365 23.085327 38,000 357 428 0
2021-06-18 18:45:35 GMT 51.330639 23.085938 38,000 357 428 0
2021-06-18 18:45:31 GMT 51.322166 23.086853 38,000 357 428 64
2021-06-18 18:45:28 GMT 51.314068 23.087692 38,000 357 428 0
2021-06-18 18:45:25 GMT 51.310295 23.088074 38,000 357 428 0
2021-06-18 18:45:22 GMT 51.303589 23.088808 38,000 357 428 0
2021-06-18 18:45:19 GMT 51.290955 23.090143 38,000 357 428 0
2021-06-18 18:45:16 GMT 51.290955 23.090143 38,000 357 428 0
2021-06-18 18:45:11 GMT 51.280472 23.091257 38,000 357 429 0
2021-06-18 18:45:05 GMT 51.271004 23.092270 38,000 357 430 0
2021-06-18 18:45:01 GMT 51.256107 23.093796 38,000 357 430 0
2021-06-18 18:44:58 GMT 51.256107 23.093796 38,000 357 430 0
2021-06-18 18:44:55 GMT 51.251362 23.094330 38,000 357 431 0
2021-06-18 18:44:52 GMT 51.238605 23.095627 38,000 357 431 0
2021-06-18 18:44:49 GMT 51.238605 23.095627 38,000 357 431 0
2021-06-18 18:44:45 GMT 51.229889 23.096527 38,000 357 430 0
2021-06-18 18:44:40 GMT 51.220917 23.097420 38,000 357 430 0
2021-06-18 18:44:37 GMT 51.212395 23.098297 38,000 357 430 64
2021-06-18 18:44:33 GMT 51.205215 23.099052 38,000 357 430 0
2021-06-18 18:44:30 GMT 51.194939 23.100128 38,000 357 430 0
2021-06-18 18:44:27 GMT 51.194939 23.100128 38,000 357 430 0
2021-06-18 18:44:24 GMT 51.189743 23.100685 38,000 357 430 0
2021-06-18 18:44:21 GMT 51.178040 23.101959 38,000 357 430 0
2021-06-18 18:44:18 GMT 51.178040 23.101959 38,000 357 430 0
2021-06-18 18:44:15 GMT 51.169693 23.102839 38,000 357 430 0
2021-06-18 18:44:11 GMT 51.160172 23.103804 38,000 357 431 0
2021-06-18 18:44:08 GMT 51.155411 23.104322 38,000 357 431 0
2021-06-18 18:44:04 GMT 51.149410 23.104935 38,000 357 430 0
2021-06-18 18:44:00 GMT 51.139683 23.105927 38,000 357 431 0
2021-06-18 18:43:57 GMT 51.133492 23.106537 38,000 357 431 0
2021-06-18 18:43:54 GMT 51.118778 23.108063 38,000 357 431 0
2021-06-18 18:43:49 GMT 51.118778 23.108063 38,000 357 430 0
2021-06-18 18:43:46 GMT 51.113205 23.108627 38,000 357 430 0
2021-06-18 18:43:42 GMT 51.104675 23.109512 38,000 357 430 0
2021-06-18 18:43:39 GMT 51.097923 23.110199 38,000 357 430 0
2021-06-18 18:43:36 GMT 51.092743 23.110781 38,000 357 430 0
2021-06-18 18:43:32 GMT 51.084797 23.111649 38,000 357 431 0
2021-06-18 18:43:28 GMT 51.077087 23.112488 38,000 357 431 0
2021-06-18 18:43:25 GMT 51.071297 23.113098 38,000 357 431 0
2021-06-18 18:43:22 GMT 51.063942 23.113861 38,000 357 431 0
2021-06-18 18:43:19 GMT 51.058777 23.114418 38,000 357 432 0
2021-06-18 18:43:16 GMT 51.051605 23.115158 38,000 357 432 0
2021-06-18 18:43:13 GMT 51.048981 23.115458 38,000 357 433 0
2021-06-18 18:43:09 GMT 51.031818 23.117294 38,000 357 434 0
2021-06-18 18:43:06 GMT 51.031818 23.117294 38,000 357 434 0
2021-06-18 18:43:03 GMT 51.027817 23.117752 38,000 357 435 0
2021-06-18 18:43:00 GMT 51.019409 23.118649 38,000 357 435 0
2021-06-18 18:42:57 GMT 51.016178 23.118973 38,000 357 435 0
2021-06-18 18:42:53 GMT 51.007938 23.119812 38,000 357 436 0
2021-06-18 18:42:50 GMT 51.001328 23.120575 38,000 357 436 0
2021-06-18 18:42:47 GMT 50.995090 23.121185 38,000 357 436 0
2021-06-18 18:42:43 GMT 50.987045 23.122065 38,000 357 437 0
2021-06-18 18:42:39 GMT 50.979774 23.122787 38,000 357 437 0
2021-06-18 18:42:36 GMT 50.974548 23.123325 38,000 357 437 0
2021-06-18 18:42:33 GMT 50.967087 23.124142 38,000 357 437 0
2021-06-18 18:42:30 GMT 50.959805 23.124847 38,000 357 437 0
2021-06-18 18:42:27 GMT 50.953949 23.125479 38,000 357 437 0
2021-06-18 18:42:23 GMT 50.945885 23.126297 38,000 357 437 0
2021-06-18 18:42:19 GMT 50.939228 23.126984 38,000 357 437 0
2021-06-18 18:42:16 GMT 50.933167 23.127630 38,000 357 437 0
2021-06-18 18:42:12 GMT 50.925076 23.128433 38,000 357 437 0
2021-06-18 18:42:08 GMT 50.915997 23.129425 38,000 357 437 0
2021-06-18 18:42:05 GMT 50.909760 23.130035 38,000 357 437 0
2021-06-18 18:42:02 GMT 50.895607 23.131485 38,000 357 436 0
2021-06-18 18:41:57 GMT 50.895607 23.131485 38,000 357 437 0
2021-06-18 18:41:54 GMT 50.888996 23.132172 38,000 357 437 0
2021-06-18 18:41:51 GMT 50.883553 23.132706 38,000 357 436 0
2021-06-18 18:41:47 GMT 50.874069 23.133718 38,000 357 436 0
2021-06-18 18:41:44 GMT 50.866421 23.134460 38,000 357 436 0
2021-06-18 18:41:41 GMT 50.863579 23.134766 38,000 357 435 0
2021-06-18 18:41:38 GMT 50.856133 23.135529 38,000 357 436 0
2021-06-18 18:41:35 GMT 50.848480 23.136316 38,000 357 436 0
2021-06-18 18:41:32 GMT 50.842445 23.136902 38,000 357 436 0
2021-06-18 18:41:27 GMT 50.833786 23.137800 38,000 357 436 0
2021-06-18 18:41:24 GMT 50.828388 23.138275 38,000 357 435 0
2021-06-18 18:41:21 GMT 50.821564 23.138988 38,000 357 435 0
2021-06-18 18:41:18 GMT 50.815292 23.139656 38,000 357 435 0
2021-06-18 18:41:15 GMT 50.810093 23.140106 38,000 357 435 0
2021-06-18 18:41:11 GMT 50.801853 23.140945 38,000 357 435 0
2021-06-18 18:41:08 GMT 50.789425 23.142242 38,000 357 435 0
2021-06-18 18:41:04 GMT 50.789425 23.142242 38,000 357 435 0
2021-06-18 18:41:01 GMT 50.780182 23.143221 38,000 357 435 0
2021-06-18 18:40:57 GMT 50.774342 23.143845 38,000 357 436 0
2021-06-18 18:40:54 GMT 50.768520 23.144379 38,000 357 436 0
2021-06-18 18:40:51 GMT 50.760452 23.145224 38,000 357 436 0
2021-06-18 18:40:48 GMT 50.755253 23.145752 38,000 357 436 0
2021-06-18 18:40:44 GMT 50.747807 23.146515 38,000 357 436 0
2021-06-18 18:40:41 GMT 50.741364 23.147228 38,000 357 436 0
2021-06-18 18:40:38 GMT 50.735138 23.147821 38,000 357 436 0
2021-06-18 18:40:35 GMT 50.729511 23.148422 38,000 357 436 0
2021-06-18 18:40:32 GMT 50.717422 23.149605 38,000 357 436 0
2021-06-18 18:40:29 GMT 50.717422 23.149605 38,000 357 436 0
2021-06-18 18:40:26 GMT 50.711151 23.150198 38,000 357 436 0
2021-06-18 18:40:23 GMT 50.704926 23.150866 38,000 357 435 0
2021-06-18 18:40:19 GMT 50.697098 23.151608 38,000 357 435 0
2021-06-18 18:40:16 GMT 50.686844 23.152647 38,000 357 435 0
2021-06-18 18:40:13 GMT 50.686844 23.152647 38,000 357 435 0
2021-06-18 18:40:10 GMT 50.680618 23.153240 38,000 357 435 0
2021-06-18 18:40:07 GMT 50.671600 23.154205 38,000 357 435 0
2021-06-18 18:40:04 GMT 50.666565 23.154697 38,000 357 434 0
2021-06-18 18:40:01 GMT 50.661545 23.155170 38,000 357 434 0
2021-06-18 18:39:58 GMT 50.656769 23.155638 38,000 357 434 0
2021-06-18 18:39:55 GMT 50.649532 23.156359 38,000 357 434 0
2021-06-18 18:39:52 GMT 50.635895 23.157768 38,000 357 434 0
2021-06-18 18:39:48 GMT 50.635895 23.157768 38,000 357 434 0
2021-06-18 18:39:45 GMT 50.627701 23.158587 38,000 357 433 0
2021-06-18 18:39:42 GMT 50.622299 23.159180 38,000 357 433 0
2021-06-18 18:39:39 GMT 50.617126 23.159685 38,000 357 433 0
2021-06-18 18:39:36 GMT 50.612732 23.160192 38,000 357 433 0
2021-06-18 18:39:33 GMT 50.604721 23.160988 38,000 357 433 0
2021-06-18 18:39:30 GMT 50.598930 23.161629 38,000 357 433 0
2021-06-18 18:39:27 GMT 50.591949 23.162296 38,000 357 433 0
2021-06-18 18:39:24 GMT 50.587711 23.162743 38,000 357 433 0
2021-06-18 18:39:21 GMT 50.581329 23.163445 38,000 357 433 0
2021-06-18 18:39:18 GMT 50.575516 23.164022 38,000 357 433 0
2021-06-18 18:39:15 GMT 50.567928 23.164822 38,000 357 433 0
2021-06-18 18:39:12 GMT 50.564762 23.165192 38,000 357 433 0
2021-06-18 18:39:09 GMT 50.556149 23.166082 38,000 357 433 0
2021-06-18 18:39:06 GMT 50.551758 23.166479 38,000 357 433 0
2021-06-18 18:39:03 GMT 50.537575 23.168013 38,000 357 434 0
2021-06-18 18:39:00 GMT 50.537575 23.168013 38,000 357 434 0
2021-06-18 18:38:57 GMT 50.534737 23.168310 38,000 357 433 0
2021-06-18 18:38:54 GMT 50.521774 23.169731 38,000 357 433 0
2021-06-18 18:38:51 GMT 50.521774 23.169731 38,000 357 433 0
2021-06-18 18:38:48 GMT 50.514950 23.170464 38,000 357 433 0
2021-06-18 18:38:45 GMT 50.510193 23.170889 38,000 357 433 0
2021-06-18 18:38:42 GMT 50.500984 23.171873 38,000 357 432 0
2021-06-18 18:38:39 GMT 50.497398 23.172245 38,000 357 432 0
2021-06-18 18:38:36 GMT 50.490837 23.172913 38,000 357 432 0
2021-06-18 18:38:32 GMT 50.484646 23.173506 38,000 357 431 0
2021-06-18 18:38:29 GMT 50.477661 23.174250 38,000 357 431 0
2021-06-18 18:38:26 GMT 50.469517 23.175064 38,000 357 431 0
2021-06-18 18:38:21 GMT 50.456955 23.176237 38,000 357 431 0
2021-06-18 18:38:18 GMT 50.456955 23.176237 38,000 357 431 0
2021-06-18 18:38:15 GMT 50.449585 23.177032 38,000 357 431 0
2021-06-18 18:38:12 GMT 50.442421 23.177738 38,000 357 431 0
2021-06-18 18:38:09 GMT 50.436462 23.178331 38,000 357 431 0
2021-06-18 18:38:05 GMT 50.421524 23.179852 38,000 357 433 0
2021-06-18 18:38:01 GMT 50.415756 23.180429 38,000 357 432 0
2021-06-18 18:37:58 GMT 50.409164 23.181152 38,000 357 432 0
2021-06-18 18:37:55 GMT 50.409164 23.181152 38,000 357 432 0
2021-06-18 18:37:51 GMT 50.395451 23.182564 38,000 357 432 0
2021-06-18 18:37:48 GMT 50.395451 23.182564 38,000 357 432 0
2021-06-18 18:37:45 GMT 50.390656 23.183083 38,000 357 432 0
2021-06-18 18:37:43 GMT 50.384674 23.183681 38,000 357 432 0
2021-06-18 18:37:40 GMT 50.380875 23.184116 38,000 357 432 0
2021-06-18 18:37:37 GMT 50.371902 23.185055 38,000 357 432 0
2021-06-18 18:37:34 GMT 50.369110 23.185345 38,000 357 433 0
2021-06-18 18:37:31 GMT 50.360733 23.186213 38,000 357 433 0
2021-06-18 18:37:27 GMT 50.353554 23.186941 38,000 357 433 0
2021-06-18 18:37:24 GMT 50.346359 23.187656 38,000 357 433 0
2021-06-18 18:37:20 GMT 50.333542 23.188957 38,000 357 433 0
2021-06-18 18:37:17 GMT 50.333542 23.188957 38,000 357 433 0
2021-06-18 18:37:14 GMT 50.328556 23.189392 38,000 357 433 0
2021-06-18 18:37:10 GMT 50.313538 23.190910 38,000 357 433 0
2021-06-18 18:37:07 GMT 50.313538 23.190910 38,000 357 433 0
2021-06-18 18:37:04 GMT 50.308353 23.191397 38,000 357 433 0
2021-06-18 18:37:00 GMT 50.299942 23.192284 38,000 357 433 0
2021-06-18 18:36:57 GMT 50.292755 23.192955 38,000 357 433 0
2021-06-18 18:36:54 GMT 50.287582 23.193512 38,000 357 433 0
2021-06-18 18:36:51 GMT 50.282982 23.193995 38,000 357 433 0
2021-06-18 18:36:48 GMT 50.277374 23.194525 38,000 357 433 0
2021-06-18 18:36:45 GMT 50.270367 23.195183 38,000 357 433 0
2021-06-18 18:36:42 GMT 50.262592 23.195999 38,000 357 433 0
2021-06-18 18:36:39 GMT 50.259193 23.196297 38,000 357 433 0
2021-06-18 18:36:35 GMT 50.249588 23.197269 38,000 357 433 0
2021-06-18 18:36:32 GMT 50.236195 23.198671 38,000 357 433 0
2021-06-18 18:36:29 GMT 50.236195 23.198671 38,000 357 433 0
2021-06-18 18:36:24 GMT 50.221809 23.200155 38,000 357 433 0
2021-06-18 18:36:21 GMT 50.221809 23.200155 38,000 357 433 0
2021-06-18 18:36:18 GMT 50.216629 23.200668 38,000 357 433 0
2021-06-18 18:36:15 GMT 50.210827 23.201269 38,000 357 434 0
2021-06-18 18:36:11 GMT 50.202209 23.202185 38,000 357 434 0
2021-06-18 18:36:09 GMT 50.198025 23.202681 38,000 357 434 0
2021-06-18 18:36:06 GMT 50.190445 23.203485 38,000 356 434 0
2021-06-18 18:36:01 GMT 50.181637 23.204460 38,000 356 434 0
2021-06-18 18:35:58 GMT 50.175446 23.205130 38,000 356 434 0
2021-06-18 18:35:55 GMT 50.163666 23.206450 38,000 356 435 0
2021-06-18 18:35:52 GMT 50.163666 23.206450 38,000 356 435 0
2021-06-18 18:35:49 GMT 50.156662 23.207245 38,000 356 435 0
2021-06-18 18:35:45 GMT 50.150261 23.207951 38,000 356 435 0
2021-06-18 18:35:41 GMT 50.136620 23.209509 38,000 356 435 0
2021-06-18 18:35:38 GMT 50.136620 23.209509 38,000 356 435 0
2021-06-18 18:35:35 GMT 50.131222 23.210102 38,000 356 435 0
2021-06-18 18:35:32 GMT 50.122982 23.211067 38,000 357 435 0
2021-06-18 18:35:28 GMT 50.109604 23.212448 38,000 357 433 0
2021-06-18 18:35:25 GMT 50.109604 23.212448 38,000 357 433 0
2021-06-18 18:35:22 GMT 50.103008 23.213072 38,000 357 433 0
2021-06-18 18:35:20 GMT 50.100174 23.213388 38,000 357 433 0
2021-06-18 18:35:17 GMT 50.094177 23.213894 38,000 357 433 0
2021-06-18 18:35:14 GMT 50.086391 23.214630 38,000 358 433 0
2021-06-18 18:35:11 GMT 50.083420 23.214834 38,000 358 432 0
2021-06-18 18:35:08 GMT 50.076416 23.215340 38,000 358 432 0
2021-06-18 18:35:05 GMT 50.071217 23.215670 38,000 359 432 -64
2021-06-18 18:35:02 GMT 50.063644 23.216135 38,000 359 432 -64
2021-06-18 18:34:58 GMT 50.054272 23.216488 38,025 359 432 0
2021-06-18 18:34:54 GMT 50.047897 23.216713 38,000 359 432 64
2021-06-18 18:34:51 GMT 50.042118 23.216932 38,000 359 432 128
2021-06-18 18:34:47 GMT 50.034164 23.217293 38,000 354 435 64
2021-06-18 18:34:44 GMT 50.028351 23.217941 38,000 354 436 64
2021-06-18 18:34:41 GMT 50.015770 23.220495 38,000 350 438 64
2021-06-18 18:34:38 GMT 50.015770 23.220495 38,000 348 438 0
2021-06-18 18:34:34 GMT 50.007065 23.223434 38,000 345 439 0
2021-06-18 18:34:31 GMT 50.002167 23.225388 38,000 344 441 -64
2021-06-18 18:34:29 GMT 49.998871 23.227028 38,000 341 442 -64
2021-06-18 18:34:25 GMT 49.992096 23.230518 38,000 340 443 -64
2021-06-18 18:34:22 GMT 49.984222 23.235144 38,000 339 444 0
2021-06-18 18:34:19 GMT 49.980423 23.237457 38,000 339 444 0
2021-06-18 18:34:16 GMT 49.973362 23.241726 38,000 339 444 0
2021-06-18 18:34:13 GMT 49.968800 23.244547 38,000 339 444 0
2021-06-18 18:34:10 GMT 49.962143 23.248629 38,000 339 444 0
2021-06-18 18:34:07 GMT 49.955658 23.252636 38,000 339 444 0
2021-06-18 18:34:04 GMT 49.949707 23.256323 38,000 339 444 0
2021-06-18 18:34:01 GMT 49.944965 23.259245 38,000 339 444 0
2021-06-18 18:33:59 GMT 49.939796 23.262436 38,000 339 444 0
2021-06-18 18:33:56 GMT 49.934258 23.265778 38,000 339 444 0
2021-06-18 18:33:53 GMT 49.929886 23.268465 38,000 339 444 0
2021-06-18 18:33:50 GMT 49.925125 23.271427 38,000 339 444 0
2021-06-18 18:33:45 GMT 49.912704 23.278915 38,000 339 443 0
2021-06-18 18:33:42 GMT 49.907959 23.281836 38,000 339 443 0
2021-06-18 18:33:39 GMT 49.902420 23.285160 38,000 339 444 0
2021-06-18 18:33:36 GMT 49.896881 23.288486 38,000 339 444 0
2021-06-18 18:33:31 GMT 49.888275 23.293690 38,000 339 443 0
2021-06-18 18:33:28 GMT 49.882004 23.297447 38,000 339 443 0
2021-06-18 18:33:25 GMT 49.876255 23.300888 38,000 339 443 0
2021-06-18 18:33:21 GMT 49.867859 23.305904 38,000 339 443 0
2021-06-18 18:33:16 GMT 49.857960 23.311874 38,000 339 443 0
2021-06-18 18:33:12 GMT 49.852047 23.315437 38,000 339 443 0
2021-06-18 18:33:08 GMT 49.842316 23.321302 38,000 339 441 0
2021-06-18 18:33:05 GMT 49.829002 23.329319 38,000 339 441 0
2021-06-18 18:33:00 GMT 49.829002 23.329319 38,000 339 441 0
2021-06-18 18:32:56 GMT 49.822174 23.333443 38,000 339 442 0
2021-06-18 18:32:53 GMT 49.815903 23.337202 38,000 339 442 0
2021-06-18 18:32:50 GMT 49.810989 23.340231 38,000 339 442 0
2021-06-18 18:32:47 GMT 49.802052 23.345575 38,000 339 442 0
2021-06-18 18:32:43 GMT 49.796722 23.348839 38,000 339 441 -64
2021-06-18 18:32:40 GMT 49.790817 23.352381 38,000 339 441 0
2021-06-18 18:32:37 GMT 49.779053 23.359531 38,000 339 442 0
2021-06-18 18:32:34 GMT 49.779053 23.359531 38,000 339 441 0
2021-06-18 18:32:31 GMT 49.774303 23.362352 38,000 339 441 0
2021-06-18 18:32:29 GMT 49.770115 23.364876 38,000 339 441 -64
2021-06-18 18:32:26 GMT 49.765366 23.367771 38,000 339 441 -64
2021-06-18 18:32:23 GMT 49.759129 23.371557 38,000 339 441 -64
2021-06-18 18:32:20 GMT 49.752319 23.375727 38,000 339 440 -64
2021-06-18 18:32:17 GMT 49.745861 23.379648 38,025 339 440 0
2021-06-18 18:32:14 GMT 49.739410 23.383532 38,000 339 440 0
2021-06-18 18:32:10 GMT 49.734688 23.386404 38,000 339 440 64
2021-06-18 18:32:07 GMT 49.727894 23.390560 38,000 339 439 0
2021-06-18 18:32:04 GMT 49.722214 23.393974 38,000 339 439 0
2021-06-18 18:32:01 GMT 49.717136 23.397093 38,000 339 440 0
2021-06-18 18:31:59 GMT 49.712391 23.399914 38,000 339 438 0
2021-06-18 18:31:55 GMT 49.706909 23.403263 38,000 339 440 0
2021-06-18 18:31:51 GMT 49.698395 23.408396 38,000 339 440 0
2021-06-18 18:31:49 GMT 49.692535 23.411938 38,000 339 438 0
2021-06-18 18:31:42 GMT 49.680817 23.418949 38,000 339 439 0
2021-06-18 18:31:39 GMT 49.674774 23.422628 38,000 339 438 0
2021-06-18 18:31:34 GMT 49.663975 23.429087 38,000 339 439 0
2021-06-18 18:31:31 GMT 49.660217 23.431379 38,000 339 439 0
2021-06-18 18:31:29 GMT 49.655876 23.433987 38,000 339 438 0
2021-06-18 18:31:25 GMT 49.649094 23.438103 38,000 339 438 0
2021-06-18 18:31:21 GMT 49.642090 23.442293 38,000 339 438 0
2021-06-18 18:31:17 GMT 49.634926 23.446606 38,000 339 439 0
2021-06-18 18:31:14 GMT 49.628494 23.450390 38,000 339 439 0
2021-06-18 18:31:11 GMT 49.622635 23.453932 38,000 339 439 0
2021-06-18 18:31:07 GMT 49.615795 23.457964 38,000 339 439 0
2021-06-18 18:31:04 GMT 49.609554 23.461748 38,000 339 438 0
2021-06-18 18:31:01 GMT 49.603691 23.465239 38,000 339 438 0
2021-06-18 18:30:58 GMT 49.597500 23.468950 38,000 339 439 0
2021-06-18 18:30:54 GMT 49.591049 23.472795 38,000 339 438 0
2021-06-18 18:30:51 GMT 49.585209 23.476299 38,000 339 437 0
2021-06-18 18:30:47 GMT 49.575012 23.482460 38,000 339 438 0
2021-06-18 18:30:44 GMT 49.572189 23.484144 38,000 339 438 0
2021-06-18 18:30:40 GMT 49.565426 23.488176 38,000 339 438 -64
2021-06-18 18:30:37 GMT 49.559372 23.491734 38,000 339 438 -64
2021-06-18 18:30:34 GMT 49.553322 23.495302 38,000 339 438 0
2021-06-18 18:30:31 GMT 49.546711 23.499235 38,000 339 439 0
2021-06-18 18:30:27 GMT 49.540283 23.503080 38,000 339 439 0
2021-06-18 18:30:24 GMT 49.528015 23.510382 38,000 339 438 0
2021-06-18 18:30:21 GMT 49.528015 23.510382 38,000 339 438 0
2021-06-18 18:30:18 GMT 49.520828 23.514645 38,000 339 439 0
2021-06-18 18:30:14 GMT 49.515148 23.518017 38,000 339 438 0
2021-06-18 18:30:11 GMT 49.508537 23.521952 38,000 339 438 0
2021-06-18 18:30:08 GMT 49.501183 23.526331 38,000 339 439 0
2021-06-18 18:30:05 GMT 49.497940 23.528234 38,000 339 439 0
2021-06-18 18:30:01 GMT 49.489609 23.533220 38,000 339 439 0
2021-06-18 18:29:57 GMT 49.483200 23.537052 38,000 339 440 0
2021-06-18 18:29:53 GMT 49.475998 23.541327 38,000 339 439 0
2021-06-18 18:29:50 GMT 49.469013 23.545557 38,000 339 439 0
2021-06-18 18:29:47 GMT 49.463699 23.548689 38,000 339 439 0
2021-06-18 18:29:44 GMT 49.458984 23.551508 38,000 339 439 0
2021-06-18 18:29:41 GMT 49.451981 23.555698 38,000 339 439 0
2021-06-18 18:29:36 GMT 49.436050 23.565168 38,000 339 439 0
2021-06-18 18:29:33 GMT 49.436050 23.565168 38,000 339 438 0
2021-06-18 18:29:30 GMT 49.432285 23.567381 38,000 339 438 0
2021-06-18 18:29:26 GMT 49.425110 23.571659 38,000 339 438 0
2021-06-18 18:29:23 GMT 49.418701 23.575462 38,000 339 438 0
2021-06-18 18:29:20 GMT 49.410965 23.580042 38,000 339 438 0
2021-06-18 18:29:16 GMT 49.405659 23.583164 38,000 339 438 0
2021-06-18 18:29:13 GMT 49.400024 23.586519 38,000 339 438 0
2021-06-18 18:29:10 GMT 49.393433 23.590393 38,000 339 438 0
2021-06-18 18:29:07 GMT 49.386795 23.594337 38,000 339 438 0
2021-06-18 18:29:01 GMT 49.376980 23.600151 38,000 339 437 0
2021-06-18 18:28:57 GMT 49.367386 23.605886 38,000 339 437 0
2021-06-18 18:28:53 GMT 49.361710 23.609266 38,000 339 438 0
2021-06-18 18:28:50 GMT 49.356079 23.612656 38,000 339 438 0
2021-06-18 18:28:46 GMT 49.348351 23.617281 38,000 339 438 0
2021-06-18 18:28:43 GMT 49.342487 23.620750 38,000 339 438 0
2021-06-18 18:28:40 GMT 49.336620 23.624220 38,000 339 438 0
2021-06-18 18:28:36 GMT 49.329636 23.628340 38,000 339 438 0
2021-06-18 18:28:31 GMT 49.319443 23.634411 38,000 339 438 0
2021-06-18 18:28:28 GMT 49.314743 23.637156 38,000 339 438 0
2021-06-18 18:28:25 GMT 49.309059 23.640554 38,000 339 437 64
2021-06-18 18:28:21 GMT 49.300961 23.645325 38,000 339 437 64
2021-06-18 18:28:19 GMT 49.297165 23.647577 38,000 339 437 -64
2021-06-18 18:28:14 GMT 49.283615 23.655607 38,000 339 437 0
2021-06-18 18:28:11 GMT 49.281738 23.656734 38,000 339 437 -64
2021-06-18 18:28:09 GMT 49.277966 23.658913 38,000 339 437 -64
2021-06-18 18:28:05 GMT 49.270424 23.663395 38,000 339 437 -64
2021-06-18 18:28:01 GMT 49.262882 23.667803 38,000 339 437 0
2021-06-18 18:27:59 GMT 49.258209 23.670607 38,000 339 437 0
2021-06-18 18:27:55 GMT 49.252350 23.674059 38,000 339 437 0
2021-06-18 18:27:51 GMT 49.243698 23.679129 38,000 339 436 0
2021-06-18 18:27:47 GMT 49.236954 23.683126 38,000 339 436 0
2021-06-18 18:27:44 GMT 49.232807 23.685583 38,000 339 436 0
2021-06-18 18:27:41 GMT 49.225479 23.689903 38,000 339 436 0
2021-06-18 18:27:37 GMT 49.218155 23.694269 38,000 339 436 0
2021-06-18 18:27:34 GMT 49.213444 23.697004 38,000 339 436 0
2021-06-18 18:27:30 GMT 49.205750 23.701525 38,000 340 435 0
2021-06-18 18:27:27 GMT 49.200119 23.704834 38,000 340 435 0
2021-06-18 18:27:24 GMT 49.193893 23.708496 38,000 340 435 0
2021-06-18 18:27:21 GMT 49.187347 23.712299 38,000 340 435 0
2021-06-18 18:27:17 GMT 49.176247 23.718832 38,000 339 434 0
2021-06-18 18:27:14 GMT 49.176247 23.718832 38,000 340 435 0
2021-06-18 18:27:11 GMT 49.168568 23.723312 38,000 340 435 0
2021-06-18 18:27:08 GMT 49.161816 23.727287 38,000 340 435 0
2021-06-18 18:27:03 GMT 49.153198 23.732300 38,000 339 434 0
2021-06-18 18:27:00 GMT 49.148689 23.734949 38,000 339 434 0
2021-06-18 18:26:57 GMT 49.142872 23.738346 38,000 339 434 0
2021-06-18 18:26:54 GMT 49.137589 23.741385 38,000 339 434 0
2021-06-18 18:26:51 GMT 49.131233 23.745140 38,000 339 434 0
2021-06-18 18:26:48 GMT 49.126556 23.747864 38,000 340 434 0
2021-06-18 18:26:44 GMT 49.118317 23.752653 38,000 340 434 0
2021-06-18 18:26:41 GMT 49.112331 23.756128 38,000 340 434 0
2021-06-18 18:26:36 GMT 49.104649 23.760609 38,000 340 434 0
2021-06-18 18:26:33 GMT 49.098087 23.764441 38,000 339 433 0
2021-06-18 18:26:29 GMT 49.091721 23.768147 38,000 339 434 0
2021-06-18 18:26:24 GMT 49.081055 23.774414 38,000 339 433 0
2021-06-18 18:26:21 GMT 49.075241 23.777794 38,000 339 434 0
2021-06-18 18:26:16 GMT 49.063660 23.784555 38,000 339 434 0
2021-06-18 18:26:10 GMT 49.055969 23.789062 38,000 339 434 0
2021-06-18 18:26:06 GMT 49.047390 23.794146 38,000 339 433 0
2021-06-18 18:26:03 GMT 49.036743 23.800402 38,000 339 433 0
2021-06-18 18:25:59 GMT 49.036743 23.800402 38,000 339 433 0
2021-06-18 18:25:53 GMT 49.023285 23.808289 38,000 339 434 0
2021-06-18 18:25:50 GMT 49.004791 23.819204 38,000 340 432 0
2021-06-18 18:25:43 GMT 49.004791 23.819204 38,000 339 433 0
2021-06-18 18:25:40 GMT 48.999210 23.822479 38,000 339 433 0
2021-06-18 18:25:38 GMT 48.994904 23.824980 38,000 339 433 0
2021-06-18 18:25:33 GMT 48.978882 23.834347 38,000 340 431 0
2021-06-18 18:25:29 GMT 48.971054 23.838854 38,000 340 431 -64
2021-06-18 18:25:26 GMT 48.971054 23.838854 38,000 340 431 -64
2021-06-18 18:25:20 GMT 48.961735 23.844307 38,000 340 430 0
2021-06-18 18:25:17 GMT 48.955589 23.847849 38,000 340 430 0
2021-06-18 18:25:13 GMT 48.948532 23.851952 38,000 339 429 0
2021-06-18 18:25:10 GMT 48.942974 23.855148 38,000 339 428 0
2021-06-18 18:25:06 GMT 48.934689 23.860064 38,000 340 434 0
2021-06-18 18:25:03 GMT 48.928219 23.863823 38,000 339 428 0
2021-06-18 18:24:59 GMT 48.923035 23.866882 38,000 339 428 0
2021-06-18 18:24:57 GMT 48.920425 23.868431 38,000 339 428 0
2021-06-18 18:24:54 GMT 48.913414 23.872568 38,000 339 429 0
2021-06-18 18:24:50 GMT 48.905453 23.877193 38,000 340 431 0
2021-06-18 18:24:46 GMT 48.899307 23.880735 38,000 340 432 0
2021-06-18 18:24:42 GMT 48.891861 23.885052 38,000 340 433 0
2021-06-18 18:24:39 GMT 48.880234 23.891743 38,000 340 435 0
2021-06-18 18:24:36 GMT 48.880234 23.891743 38,000 340 436 0
2021-06-18 18:24:33 GMT 48.868607 23.898502 38,000 340 436 0
2021-06-18 18:24:30 GMT 48.868607 23.898502 38,000 340 436 0
2021-06-18 18:24:27 GMT 48.864807 23.900686 38,000 340 437 0
2021-06-18 18:24:24 GMT 48.859180 23.903936 38,000 340 438 64
2021-06-18 18:24:20 GMT 48.850113 23.909208 38,000 340 439 0
2021-06-18 18:24:17 GMT 48.842148 23.913857 38,000 340 439 0
2021-06-18 18:24:14 GMT 48.839676 23.915285 38,000 340 439 -64
2021-06-18 18:24:09 GMT 48.830612 23.920546 38,000 340 439 0
2021-06-18 18:24:07 GMT 48.825851 23.923292 38,000 340 440 0
2021-06-18 18:24:00 GMT 48.812164 23.931181 38,000 340 441 0
2021-06-18 18:23:56 GMT 48.805893 23.934843 38,000 340 442 0
2021-06-18 18:23:53 GMT 48.799034 23.938774 38,000 340 443 64
2021-06-18 18:23:50 GMT 48.785843 23.946392 38,000 340 442 0
2021-06-18 18:23:46 GMT 48.779160 23.950266 38,000 340 442 0
2021-06-18 18:23:42 GMT 48.779160 23.950266 38,000 340 442 0
2021-06-18 18:23:39 GMT 48.770599 23.955267 38,000 340 442 0
2021-06-18 18:23:35 GMT 48.764328 23.958858 38,000 340 443 0
2021-06-18 18:23:31 GMT 48.756672 23.963278 38,000 340 443 0
2021-06-18 18:23:28 GMT 48.751328 23.966393 38,000 340 443 0
2021-06-18 18:23:25 GMT 48.745010 23.970055 38,000 340 443 0
2021-06-18 18:23:20 GMT 48.735260 23.975689 38,000 340 443 0
2021-06-18 18:23:18 GMT 48.731277 23.978012 38,000 340 443 0
2021-06-18 18:23:13 GMT 48.722458 23.983082 38,000 340 443 0
2021-06-18 18:23:10 GMT 48.716171 23.986696 38,000 340 443 0
2021-06-18 18:23:08 GMT 48.712509 23.988789 38,000 340 443 0
2021-06-18 18:22:59 GMT 48.696121 23.998297 38,000 340 442 0
2021-06-18 18:22:55 GMT 48.688660 24.002592 38,000 340 439 0
2021-06-18 18:22:48 GMT 48.674183 24.010983 38,000 340 439 0
2021-06-18 18:22:40 GMT 48.659004 24.019728 38,000 340 439 0
2021-06-18 18:22:37 GMT 48.654282 24.022451 38,000 340 439 0
2021-06-18 18:22:30 GMT 48.640274 24.030550 38,000 340 438 0
2021-06-18 18:22:27 GMT 48.635731 24.033171 38,000 340 438 64
2021-06-18 18:22:23 GMT 48.627411 24.037945 38,000 340 437 0
2021-06-18 18:22:18 GMT 48.619263 24.042593 38,000 340 436 0
2021-06-18 18:22:15 GMT 48.612305 24.046606 38,000 340 436 0
2021-06-18 18:22:12 GMT 48.607590 24.049355 38,000 340 435 0
2021-06-18 18:22:09 GMT 48.600220 24.053579 38,000 340 435 -64
2021-06-18 18:22:07 GMT 48.597790 24.054928 38,000 340 435 0
2021-06-18 18:22:03 GMT 48.588432 24.060349 38,000 340 434 64
2021-06-18 18:22:00 GMT 48.582962 24.063438 38,000 340 433 64
2021-06-18 18:21:57 GMT 48.578842 24.065769 38,000 340 433 0
2021-06-18 18:21:50 GMT 48.564468 24.074074 38,000 340 433 0
2021-06-18 18:21:47 GMT 48.559570 24.076826 38,000 340 433 0
2021-06-18 18:21:44 GMT 48.553207 24.080482 38,000 340 434 0
2021-06-18 18:21:40 GMT 48.545746 24.084778 38,000 340 434 0
2021-06-18 18:21:37 GMT 48.540848 24.087524 38,000 340 434 0
2021-06-18 18:21:33 GMT 48.533569 24.091749 38,000 340 435 0
2021-06-18 18:21:29 GMT 48.525833 24.096115 38,000 340 435 0
2021-06-18 18:21:26 GMT 48.521538 24.098583 38,000 340 435 0
2021-06-18 18:21:22 GMT 48.513485 24.103281 38,000 340 435 64
2021-06-18 18:21:19 GMT 48.508038 24.106388 38,000 340 435 0
2021-06-18 18:21:17 GMT 48.502216 24.109785 38,000 340 435 0
2021-06-18 18:21:13 GMT 48.495609 24.113544 38,000 340 435 0
2021-06-18 18:21:09 GMT 48.489044 24.117304 38,000 340 436 0
2021-06-18 18:21:06 GMT 48.483227 24.120628 38,000 340 437 -64
2021-06-18 18:21:02 GMT 48.475296 24.125132 38,000 340 437 0
2021-06-18 18:20:59 GMT 48.468468 24.128941 38,000 340 438 0
2021-06-18 18:20:56 GMT 48.464127 24.131470 38,000 340 438 0
2021-06-18 18:20:52 GMT 48.457489 24.135202 38,000 340 439 0
2021-06-18 18:20:47 GMT 48.446682 24.141373 38,000 340 440 0
2021-06-18 18:20:43 GMT 48.437943 24.146330 38,000 340 440 0
2021-06-18 18:20:36 GMT 48.425964 24.153152 38,000 340 441 0
2021-06-18 18:20:32 GMT 48.418716 24.157246 38,000 340 440 -64
2021-06-18 18:20:28 GMT 48.410511 24.161900 38,000 340 440 -64
2021-06-18 18:20:25 GMT 48.405575 24.164719 38,000 340 440 -64
2021-06-18 18:20:22 GMT 48.398918 24.168476 38,000 340 439 0
2021-06-18 18:20:16 GMT 48.387512 24.174980 38,000 340 439 0
2021-06-18 18:20:12 GMT 48.379944 24.179289 38,000 340 439 0
2021-06-18 18:20:09 GMT 48.375221 24.181992 38,000 340 438 64
2021-06-18 18:20:05 GMT 48.364983 24.187775 38,000 340 437 64
2021-06-18 18:20:01 GMT 48.359299 24.190979 38,000 340 437 64
2021-06-18 18:19:58 GMT 48.354183 24.193846 38,000 340 437 0
2021-06-18 18:19:56 GMT 48.342079 24.200712 38,000 340 438 64
2021-06-18 18:19:52 GMT 48.342079 24.200712 38,000 340 438 64
2021-06-18 18:19:48 GMT 48.335220 24.204500 38,000 340 438 0
2021-06-18 18:19:45 GMT 48.330460 24.207176 38,000 340 439 0
2021-06-18 18:19:42 GMT 48.322899 24.211481 38,000 340 440 0
2021-06-18 18:19:39 GMT 48.316040 24.215345 38,000 340 440 0
2021-06-18 18:19:35 GMT 48.309956 24.218782 38,000 340 440 0
2021-06-18 18:19:27 GMT 48.294735 24.227383 38,000 340 441 0
2021-06-18 18:19:24 GMT 48.289379 24.230419 38,000 340 441 0
2021-06-18 18:19:21 GMT 48.282898 24.234079 38,000 340 442 0
2021-06-18 18:19:17 GMT 48.275646 24.238153 38,000 340 442 0
2021-06-18 18:19:14 GMT 48.270107 24.241333 38,000 340 442 0
2021-06-18 18:19:11 GMT 48.263992 24.244783 38,000 340 441 64
2021-06-18 18:19:07 GMT 48.257538 24.248489 38,000 340 441 64
2021-06-18 18:19:04 GMT 48.251579 24.251814 38,000 340 441 64
2021-06-18 18:19:00 GMT 48.244354 24.255981 38,000 340 441 0
2021-06-18 18:18:57 GMT 48.235748 24.260841 38,000 340 441 0
2021-06-18 18:18:54 GMT 48.231766 24.263165 38,000 340 441 0
2021-06-18 18:18:50 GMT 48.225094 24.266920 38,000 340 442 -64
2021-06-18 18:18:46 GMT 48.217072 24.271475 38,000 340 442 -128
2021-06-18 18:18:41 GMT 48.205772 24.277906 38,000 340 443 -64
2021-06-18 18:18:38 GMT 48.200775 24.280701 38,025 340 443 0
2021-06-18 18:18:35 GMT 48.196930 24.282885 38,000 340 443 0
2021-06-18 18:18:32 GMT 48.190830 24.286362 38,000 340 443 0
2021-06-18 18:18:29 GMT 48.183563 24.290489 38,000 340 442 0
2021-06-18 18:18:26 GMT 48.177612 24.293800 38,000 340 442 0
2021-06-18 18:18:23 GMT 48.173977 24.295832 38,000 340 441 0
2021-06-18 18:18:19 GMT 48.166157 24.300240 38,000 340 440 -128
2021-06-18 18:18:16 GMT 48.152798 24.307743 38,000 340 440 -128
2021-06-18 18:18:13 GMT 48.152798 24.307743 38,000 340 440 -64
2021-06-18 18:18:08 GMT 48.143646 24.312813 38,000 340 439 64
2021-06-18 18:18:05 GMT 48.138737 24.315561 38,000 340 438 64
2021-06-18 18:17:59 GMT 48.126587 24.322392 38,000 340 438 64
2021-06-18 18:17:54 GMT 48.114990 24.328812 38,000 340 437 64
2021-06-18 18:17:49 GMT 48.107620 24.332932 38,000 340 437 0
2021-06-18 18:17:45 GMT 48.100052 24.337111 38,000 340 438 -64
2021-06-18 18:17:41 GMT 48.093769 24.340633 38,000 340 438 -64
2021-06-18 18:17:38 GMT 48.087524 24.344124 38,000 340 438 0
2021-06-18 18:17:33 GMT 48.077103 24.349998 38,000 340 438 -64
2021-06-18 18:17:29 GMT 48.069901 24.354080 38,000 340 438 -64
2021-06-18 18:17:23 GMT 48.058914 24.360260 38,000 340 437 0
2021-06-18 18:17:19 GMT 48.050755 24.364788 38,025 340 437 0
2021-06-18 18:17:12 GMT 48.038864 24.371521 38,000 340 437 0
2021-06-18 18:17:09 GMT 48.031670 24.375563 38,000 340 438 64
2021-06-18 18:17:03 GMT 48.020912 24.381620 38,000 340 439 0
2021-06-18 18:16:59 GMT 48.012955 24.386078 38,000 340 440 0
2021-06-18 18:16:52 GMT 48.000198 24.393240 38,000 340 440 0
2021-06-18 18:16:48 GMT 47.992004 24.397818 38,000 340 440 0
2021-06-18 18:16:43 GMT 47.981716 24.403522 38,000 340 440 0
2021-06-18 18:16:39 GMT 47.974091 24.407776 38,000 340 440 0
2021-06-18 18:16:34 GMT 47.965897 24.412308 38,000 340 439 0
2021-06-18 18:16:31 GMT 47.960358 24.415329 38,000 340 439 0
2021-06-18 18:16:28 GMT 47.954865 24.418419 38,000 340 439 0
2021-06-18 18:16:24 GMT 47.946476 24.423031 38,000 340 438 0
2021-06-18 18:16:18 GMT 47.935120 24.429367 38,000 340 438 64
2021-06-18 18:16:12 GMT 47.924316 24.435354 38,000 340 438 0
2021-06-18 18:16:08 GMT 47.916546 24.439720 38,000 340 438 0
2021-06-18 18:16:02 GMT 47.904392 24.446482 38,000 340 438 0
2021-06-18 18:15:58 GMT 47.897552 24.450285 38,000 340 439 0
2021-06-18 18:15:51 GMT 47.883865 24.457832 38,000 340 439 0
2021-06-18 18:15:47 GMT 47.877777 24.461266 38,000 340 440 0
2021-06-18 18:15:41 GMT 47.866177 24.467680 38,000 340 440 0
2021-06-18 18:15:38 GMT 47.857819 24.472389 38,000 340 440 0
2021-06-18 18:15:32 GMT 47.846951 24.478455 38,000 340 441 0
2021-06-18 18:15:27 GMT 47.838547 24.483170 38,000 340 441 64
2021-06-18 18:15:24 GMT 47.832642 24.486465 38,000 340 441 64
2021-06-18 18:15:21 GMT 47.827305 24.489441 38,000 340 441 0
2021-06-18 18:15:17 GMT 47.819321 24.493950 38,000 340 441 0
2021-06-18 18:15:11 GMT 47.808243 24.500130 38,000 340 442 0
2021-06-18 18:15:08 GMT 47.802864 24.503174 38,000 340 442 -64
2021-06-18 18:15:06 GMT 47.799271 24.505211 38,000 340 442 -64
2021-06-18 18:15:01 GMT 47.788757 24.511131 38,000 340 442 0
2021-06-18 18:14:57 GMT 47.780731 24.515648 38,000 340 442 0
2021-06-18 18:14:50 GMT 47.768875 24.522308 38,000 340 443 0
2021-06-18 18:14:47 GMT 47.760456 24.526978 38,000 340 443 0
2021-06-18 18:14:40 GMT 47.741272 24.537552 38,000 340 441 0
2021-06-18 18:14:36 GMT 47.741272 24.537552 38,000 340 440 0
2021-06-18 18:14:31 GMT 47.726028 24.545929 38,000 340 436 64
2021-06-18 18:14:28 GMT 47.726028 24.545929 38,000 340 437 0
2021-06-18 18:14:26 GMT 47.721489 24.548388 38,000 340 436 64
2021-06-18 18:14:21 GMT 47.711250 24.553949 38,000 340 435 64
2021-06-18 18:14:18 GMT 47.707108 24.556274 38,000 340 434 64
2021-06-18 18:14:15 GMT 47.702225 24.558907 38,000 340 433 64
2021-06-18 18:14:12 GMT 47.694122 24.563370 38,000 340 432 0
2021-06-18 18:14:08 GMT 47.687576 24.566940 38,000 340 432 0
2021-06-18 18:14:05 GMT 47.682129 24.569893 38,000 340 433 0
2021-06-18 18:14:01 GMT 47.675583 24.573463 38,000 340 433 0
2021-06-18 18:13:58 GMT 47.668423 24.577332 38,000 340 433 0
2021-06-18 18:13:56 GMT 47.662949 24.580330 38,000 340 434 -64
2021-06-18 18:13:51 GMT 47.656357 24.583900 38,000 340 435 -64
2021-06-18 18:13:48 GMT 47.650360 24.587191 38,000 340 435 -64
2021-06-18 18:13:44 GMT 47.643906 24.590630 38,000 340 435 0
2021-06-18 18:13:41 GMT 47.636765 24.594585 38,000 340 437 0
2021-06-18 18:13:38 GMT 47.631084 24.597685 38,000 340 437 64
2021-06-18 18:13:35 GMT 47.625591 24.600714 38,000 340 437 64
2021-06-18 18:13:31 GMT 47.616699 24.605642 38,000 340 436 0
2021-06-18 18:13:28 GMT 47.611580 24.608459 38,000 340 436 0
2021-06-18 18:13:25 GMT 47.607239 24.610817 38,000 340 437 0
2021-06-18 18:13:21 GMT 47.593098 24.618671 38,000 340 436 0
2021-06-18 18:13:18 GMT 47.588196 24.621460 38,000 340 436 0
2021-06-18 18:13:15 GMT 47.588196 24.621460 38,000 340 436 64
2021-06-18 18:13:08 GMT 47.574234 24.629219 38,000 340 436 0
2021-06-18 18:13:03 GMT 47.565166 24.634235 38,000 340 435 0
2021-06-18 18:12:58 GMT 47.549927 24.642677 38,000 340 436 0
2021-06-18 18:12:55 GMT 47.549927 24.642677 38,000 340 436 0
2021-06-18 18:12:47 GMT 47.535553 24.650642 38,000 340 436 0
2021-06-18 18:12:44 GMT 47.529881 24.653744 38,000 340 436 -64
2021-06-18 18:12:40 GMT 47.520813 24.658745 38,000 340 436 -64
2021-06-18 18:12:37 GMT 47.516830 24.660942 38,000 340 436 0
2021-06-18 18:12:35 GMT 47.510983 24.664165 38,000 340 436 0
2021-06-18 18:12:27 GMT 47.492313 24.674448 38,000 340 435 0
2021-06-18 18:12:24 GMT 47.492313 24.674448 38,000 340 435 0
2021-06-18 18:12:17 GMT 47.477230 24.682688 38,000 340 435 0
2021-06-18 18:12:13 GMT 47.472111 24.685505 38,000 340 435 0
2021-06-18 18:12:07 GMT 47.460052 24.692125 38,000 340 435 0
2021-06-18 18:12:04 GMT 47.454254 24.695343 38,000 340 434 0
2021-06-18 18:11:59 GMT 47.443314 24.701317 38,000 340 434 0
2021-06-18 18:11:56 GMT 47.439198 24.703533 38,000 340 433 0
2021-06-18 18:11:53 GMT 47.434498 24.706139 38,000 340 433 0
2021-06-18 18:11:46 GMT 47.419132 24.714590 38,000 340 432 -64
2021-06-18 18:11:43 GMT 47.415573 24.716560 38,000 340 433 -64
2021-06-18 18:11:37 GMT 47.396835 24.726774 38,000 340 432 0
2021-06-18 18:11:34 GMT 47.396835 24.726774 38,000 340 431 0
2021-06-18 18:11:27 GMT 47.385040 24.733246 38,000 340 431 64
2021-06-18 18:11:25 GMT 47.380543 24.735647 38,000 340 432 0
2021-06-18 18:11:22 GMT 47.373093 24.739769 38,000 340 432 0
2021-06-18 18:11:16 GMT 47.364063 24.744661 38,000 340 432 0
2021-06-18 18:11:12 GMT 47.355835 24.749107 38,000 340 433 0
2021-06-18 18:11:06 GMT 47.337296 24.759270 38,000 340 432 0
2021-06-18 18:11:02 GMT 47.337296 24.759270 38,000 340 432 0
2021-06-18 18:10:57 GMT 47.323608 24.766634 38,000 340 431 0
2021-06-18 18:10:55 GMT 47.318024 24.769663 38,000 340 429 64
2021-06-18 18:10:51 GMT 47.318024 24.769663 38,000 340 431 0
2021-06-18 18:10:47 GMT 47.305115 24.776642 38,000 340 430 0
2021-06-18 18:10:44 GMT 47.305115 24.776642 38,000 340 430 0
2021-06-18 18:10:41 GMT 47.299347 24.779800 38,000 340 430 64
2021-06-18 18:10:37 GMT 47.291115 24.784241 38,000 340 429 64
2021-06-18 18:10:34 GMT 47.286255 24.786873 38,000 340 429 64
2021-06-18 18:10:31 GMT 47.279755 24.790375 38,000 340 429 64
2021-06-18 18:10:27 GMT 47.267487 24.796967 38,000 340 428 64
2021-06-18 18:10:25 GMT 47.267487 24.796967 37,975 340 428 0
2021-06-18 18:10:20 GMT 47.260437 24.800791 37,975 340 428 0
2021-06-18 18:10:17 GMT 47.252975 24.804794 38,000 340 428 0
2021-06-18 18:10:14 GMT 47.248146 24.807341 38,000 341 429 0
2021-06-18 18:10:11 GMT 47.241074 24.811180 38,000 340 430 0
2021-06-18 18:10:06 GMT 47.233578 24.815157 38,000 340 431 -64
2021-06-18 18:10:03 GMT 47.228714 24.817772 38,000 340 432 -64
2021-06-18 18:10:00 GMT 47.222542 24.821074 38,000 340 433 -64
2021-06-18 18:09:57 GMT 47.216309 24.824432 38,000 340 433 -64
2021-06-18 18:09:54 GMT 47.209370 24.828186 38,000 340 434 -64
2021-06-18 18:09:51 GMT 47.206577 24.829664 38,000 340 434 -64
2021-06-18 18:09:47 GMT 47.196987 24.834875 38,025 340 434 0
2021-06-18 18:09:43 GMT 47.190216 24.838577 38,000 340 434 0
2021-06-18 18:09:40 GMT 47.183990 24.841942 38,000 340 434 0
2021-06-18 18:09:36 GMT 47.177246 24.845652 38,000 340 434 0
2021-06-18 18:09:33 GMT 47.166504 24.851486 38,000 340 434 0
2021-06-18 18:09:30 GMT 47.166504 24.851486 38,000 340 434 0
2021-06-18 18:09:27 GMT 47.159000 24.855581 38,000 340 435 0
2021-06-18 18:09:23 GMT 47.150902 24.860018 38,000 340 435 0
2021-06-18 18:09:20 GMT 47.146011 24.862694 38,000 340 435 0
2021-06-18 18:09:15 GMT 47.137726 24.867271 38,000 340 436 0
2021-06-18 18:09:12 GMT 47.132046 24.870371 38,000 340 436 0
2021-06-18 18:09:09 GMT 47.126553 24.873329 38,000 340 436 0
2021-06-18 18:09:05 GMT 47.118824 24.877554 38,000 340 436 0
2021-06-18 18:09:02 GMT 47.113174 24.880669 38,000 340 436 0
2021-06-18 18:08:59 GMT 47.107140 24.883963 38,000 340 436 0
2021-06-18 18:08:55 GMT 47.099213 24.888222 38,000 340 435 0
2021-06-18 18:08:52 GMT 47.092384 24.891920 38,000 340 435 0
2021-06-18 18:08:48 GMT 47.086937 24.894878 38,000 340 435 0
2021-06-18 18:08:45 GMT 47.080490 24.898384 38,000 340 435 -64
2021-06-18 18:08:42 GMT 47.075577 24.901007 38,000 340 435 -64
2021-06-18 18:08:39 GMT 47.069183 24.904495 38,000 340 435 0
2021-06-18 18:08:36 GMT 47.063324 24.907585 38,000 340 435 0
2021-06-18 18:08:33 GMT 47.049316 24.915070 38,000 340 435 0
2021-06-18 18:08:29 GMT 47.049316 24.915070 38,000 340 434 0
2021-06-18 18:08:25 GMT 47.042358 24.918846 38,000 340 433 0
2021-06-18 18:08:22 GMT 47.038803 24.920725 38,000 340 431 0
2021-06-18 18:08:19 GMT 47.031631 24.924599 38,000 340 430 64
2021-06-18 18:08:14 GMT 47.022511 24.929457 38,000 340 428 64
2021-06-18 18:08:11 GMT 47.017109 24.932344 38,000 340 428 64
2021-06-18 18:08:08 GMT 47.012451 24.934879 38,000 340 428 64
2021-06-18 18:08:03 GMT 47.001251 24.940819 38,000 340 428 0
2021-06-18 18:07:59 GMT 46.993286 24.945076 38,000 340 428 0
2021-06-18 18:07:54 GMT 46.985455 24.949247 38,000 340 428 0
2021-06-18 18:07:51 GMT 46.981018 24.951599 38,000 340 428 0
2021-06-18 18:07:48 GMT 46.974281 24.955162 38,000 340 430 0
2021-06-18 18:07:42 GMT 46.962158 24.961693 38,000 340 431 0
2021-06-18 18:07:38 GMT 46.954308 24.965866 38,000 340 432 0
2021-06-18 18:07:35 GMT 46.949432 24.968491 38,000 340 433 0
2021-06-18 18:07:31 GMT 46.941181 24.972910 38,000 340 433 0
2021-06-18 18:07:27 GMT 46.935177 24.976149 38,000 340 433 0
2021-06-18 18:07:24 GMT 46.927460 24.980301 38,000 340 433 0
2021-06-18 18:07:20 GMT 46.922001 24.983192 38,000 340 432 0
2021-06-18 18:07:17 GMT 46.916183 24.986292 38,000 340 432 0
2021-06-18 18:07:13 GMT 46.909058 24.990120 38,000 340 432 64
2021-06-18 18:07:10 GMT 46.903427 24.993122 38,000 340 431 64
2021-06-18 18:07:07 GMT 46.897236 24.996431 38,000 340 431 64
2021-06-18 18:07:03 GMT 46.889603 25.000557 38,000 340 430 0
2021-06-18 18:07:00 GMT 46.878021 25.006805 38,000 340 433 0
2021-06-18 18:06:56 GMT 46.878021 25.006805 38,000 340 431 -64
2021-06-18 18:06:53 GMT 46.871120 25.010517 38,000 340 431 0
2021-06-18 18:06:50 GMT 46.865112 25.013792 38,000 340 432 0
2021-06-18 18:06:47 GMT 46.858932 25.017075 38,000 340 433 0
2021-06-18 18:06:44 GMT 46.853664 25.019920 38,000 340 433 0
2021-06-18 18:06:40 GMT 46.844284 25.024981 38,000 340 434 0
2021-06-18 18:06:36 GMT 46.838791 25.027861 38,000 340 435 0
2021-06-18 18:06:32 GMT 46.832199 25.031410 38,000 340 434 0
2021-06-18 18:06:29 GMT 46.827316 25.033997 38,000 340 434 -64
2021-06-18 18:06:26 GMT 46.819962 25.037910 38,000 340 434 -64
2021-06-18 18:06:23 GMT 46.813156 25.041527 38,000 340 433 0
2021-06-18 18:06:19 GMT 46.808075 25.044207 38,000 340 432 -64
2021-06-18 18:06:16 GMT 46.800220 25.048416 38,000 340 431 0
2021-06-18 18:06:12 GMT 46.787884 25.054939 38,000 340 428 0
2021-06-18 18:06:09 GMT 46.787884 25.054939 38,000 341 428 0
2021-06-18 18:06:05 GMT 46.781368 25.058372 38,000 341 427 0
2021-06-18 18:06:02 GMT 46.775436 25.061556 38,000 341 425 0
2021-06-18 18:05:59 GMT 46.769871 25.064484 38,000 341 425 0
2021-06-18 18:05:54 GMT 46.761581 25.068810 38,000 341 424 0
2021-06-18 18:05:51 GMT 46.753464 25.073078 38,000 341 423 0
2021-06-18 18:05:48 GMT 46.750717 25.074553 38,000 341 423 0
2021-06-18 18:05:45 GMT 46.743008 25.078629 38,000 341 423 0
2021-06-18 18:05:42 GMT 46.731232 25.084808 38,000 341 423 64
2021-06-18 18:05:39 GMT 46.731232 25.084808 38,000 341 423 64
2021-06-18 18:05:35 GMT 46.726109 25.087486 38,000 341 422 64
2021-06-18 18:05:32 GMT 46.719315 25.091099 38,000 340 422 0
2021-06-18 18:05:28 GMT 46.712704 25.094559 38,000 340 423 0
2021-06-18 18:05:24 GMT 46.705162 25.098541 38,000 340 423 0
2021-06-18 18:05:21 GMT 46.700409 25.101080 38,000 340 423 -64
2021-06-18 18:05:18 GMT 46.695053 25.103893 38,000 340 424 64
2021-06-18 18:05:13 GMT 46.684204 25.109655 38,000 340 423 0
2021-06-18 18:05:08 GMT 46.676514 25.113808 38,000 340 424 64
2021-06-18 18:05:04 GMT 46.667130 25.118832 38,000 340 423 64
2021-06-18 18:05:01 GMT 46.662552 25.121244 38,000 340 423 64
2021-06-18 18:04:57 GMT 46.657196 25.124125 38,000 340 423 0
2021-06-18 18:04:53 GMT 46.648590 25.128748 38,000 340 423 0
2021-06-18 18:04:50 GMT 46.644012 25.131159 38,000 340 423 0
2021-06-18 18:04:47 GMT 46.637558 25.134642 38,000 340 424 0
2021-06-18 18:04:42 GMT 46.629639 25.138796 38,000 341 425 0
2021-06-18 18:04:39 GMT 46.622818 25.142412 38,000 341 425 0
2021-06-18 18:04:36 GMT 46.618389 25.144753 38,000 341 425 0
2021-06-18 18:04:31 GMT 46.606937 25.150726 38,000 341 425 -64
2021-06-18 18:04:27 GMT 46.600094 25.154366 38,000 341 425 -64
2021-06-18 18:04:22 GMT 46.590820 25.159227 38,000 341 426 0
2021-06-18 18:04:19 GMT 46.586220 25.161644 38,000 341 426 0
2021-06-18 18:04:16 GMT 46.580448 25.164665 38,000 340 426 0
2021-06-18 18:04:12 GMT 46.567135 25.171669 38,000 340 428 64
2021-06-18 18:04:09 GMT 46.567135 25.171669 38,000 340 428 64
2021-06-18 18:04:06 GMT 46.561935 25.174435 38,000 340 428 64
2021-06-18 18:04:02 GMT 46.553558 25.178923 38,000 340 428 0
2021-06-18 18:03:59 GMT 46.548157 25.181736 38,000 340 429 0
2021-06-18 18:03:56 GMT 46.543350 25.184349 38,000 340 429 0
2021-06-18 18:03:51 GMT 46.533478 25.189590 38,000 340 428 0
2021-06-18 18:03:48 GMT 46.528839 25.192053 38,000 341 429 0
2021-06-18 18:03:45 GMT 46.523392 25.194866 38,000 341 429 0
2021-06-18 18:03:42 GMT 46.515926 25.198860 38,000 340 430 0
2021-06-18 18:03:39 GMT 46.510345 25.201834 38,000 340 430 0
2021-06-18 18:03:35 GMT 46.504944 25.204645 38,000 341 429 0
2021-06-18 18:03:32 GMT 46.498764 25.207930 38,000 341 429 0
2021-06-18 18:03:29 GMT 46.492416 25.211288 38,000 340 428 0
2021-06-18 18:03:26 GMT 46.485718 25.214828 38,000 340 428 0
2021-06-18 18:03:18 GMT 46.472855 25.221596 38,000 340 427 0
2021-06-18 18:03:14 GMT 46.465836 25.225296 38,000 340 427 0
2021-06-18 18:03:11 GMT 46.453445 25.231911 38,000 340 426 0
2021-06-18 18:03:08 GMT 46.453445 25.231911 38,000 340 426 0
2021-06-18 18:03:04 GMT 46.447678 25.234993 38,000 340 426 0
2021-06-18 18:03:01 GMT 46.434769 25.241825 38,000 340 426 0
2021-06-18 18:02:58 GMT 46.434769 25.241825 38,000 340 424 0
2021-06-18 18:02:54 GMT 46.428314 25.245241 38,000 340 425 0
2021-06-18 18:02:50 GMT 46.419617 25.249798 38,000 340 425 0
2021-06-18 18:02:45 GMT 46.409836 25.255028 38,000 340 425 0
2021-06-18 18:02:40 GMT 46.400940 25.259645 38,000 341 426 0
2021-06-18 18:02:37 GMT 46.397266 25.261620 38,000 341 426 0
2021-06-18 18:02:34 GMT 46.391144 25.264803 38,000 341 426 0
2021-06-18 18:02:31 GMT 46.385239 25.267885 38,000 341 426 0
2021-06-18 18:02:28 GMT 46.378006 25.271635 38,000 341 426 0
2021-06-18 18:02:24 GMT 46.372284 25.274651 38,000 341 426 0
2021-06-18 18:02:20 GMT 46.364685 25.278603 38,000 341 425 0
2021-06-18 18:02:17 GMT 46.353786 25.284210 38,000 341 425 0
2021-06-18 18:02:14 GMT 46.353786 25.284210 38,000 341 425 0
2021-06-18 18:02:10 GMT 46.345642 25.288450 38,000 341 426 0
2021-06-18 18:02:07 GMT 46.340652 25.291063 38,000 341 426 0
2021-06-18 18:02:04 GMT 46.335297 25.293810 38,000 341 426 0
2021-06-18 18:02:00 GMT 46.327484 25.297874 38,000 340 426 0
2021-06-18 18:01:57 GMT 46.311768 25.306135 38,000 340 425 0
2021-06-18 18:01:51 GMT 46.311768 25.306135 38,000 340 427 0
2021-06-18 18:01:47 GMT 46.296021 25.314444 38,000 340 428 0
2021-06-18 18:01:44 GMT 46.296021 25.314444 38,000 341 427 0
2021-06-18 18:01:39 GMT 46.288605 25.318329 38,000 341 428 0
2021-06-18 18:01:36 GMT 46.278370 25.323692 38,000 341 428 0
2021-06-18 18:01:33 GMT 46.278370 25.323692 38,000 341 428 0
2021-06-18 18:01:30 GMT 46.271301 25.327372 38,000 341 428 0
2021-06-18 18:01:26 GMT 46.265671 25.330252 38,000 340 428 0
2021-06-18 18:01:22 GMT 46.258438 25.334070 38,000 340 428 0
2021-06-18 18:01:19 GMT 46.252670 25.337086 38,000 340 428 0
2021-06-18 18:01:16 GMT 46.246902 25.340166 38,000 341 427 -64
2021-06-18 18:01:12 GMT 46.239082 25.344223 38,000 341 427 -64
2021-06-18 18:01:09 GMT 46.231495 25.348206 38,000 341 427 -64
2021-06-18 18:01:05 GMT 46.225349 25.351364 38,000 341 426 0
2021-06-18 18:01:02 GMT 46.220901 25.353699 38,000 341 426 0
2021-06-18 18:00:59 GMT 46.214596 25.356995 38,000 341 424 0
2021-06-18 18:00:53 GMT 46.201996 25.363480 38,000 341 424 0
2021-06-18 18:00:48 GMT 46.194077 25.367565 38,000 341 424 0
2021-06-18 18:00:45 GMT 46.190186 25.369576 38,000 341 424 0
2021-06-18 18:00:42 GMT 46.182953 25.373260 38,000 341 424 0
2021-06-18 18:00:39 GMT 46.175766 25.376877 38,000 341 424 -64
2021-06-18 18:00:36 GMT 46.170593 25.379557 38,000 341 424 -64
2021-06-18 18:00:31 GMT 46.164318 25.382744 38,000 341 424 -64
2021-06-18 18:00:28 GMT 46.158005 25.385988 38,000 341 424 0
2021-06-18 18:00:25 GMT 46.151749 25.389130 38,000 341 422 0
2021-06-18 18:00:22 GMT 46.145828 25.392218 38,000 341 423 0
2021-06-18 18:00:18 GMT 46.139740 25.395300 38,000 341 423 0
2021-06-18 18:00:15 GMT 46.133129 25.398743 38,000 341 422 64
2021-06-18 18:00:12 GMT 46.126705 25.402039 38,000 341 422 64
2021-06-18 18:00:08 GMT 46.113464 25.408897 38,000 341 422 0
2021-06-18 18:00:05 GMT 46.113464 25.408897 38,000 341 421 0
2021-06-18 18:00:01 GMT 46.108109 25.411646 38,000 341 422 0
2021-06-18 17:59:57 GMT 46.101147 25.415222 38,000 341 422 -64
2021-06-18 17:59:54 GMT 46.095795 25.417969 38,000 341 421 -64
2021-06-18 17:59:51 GMT 46.089371 25.421265 38,000 341 421 -64
2021-06-18 17:59:47 GMT 46.081127 25.425522 38,000 341 420 0
2021-06-18 17:59:43 GMT 46.075653 25.428392 38,000 341 420 0
2021-06-18 17:59:40 GMT 46.069771 25.431358 38,000 341 420 0
2021-06-18 17:59:37 GMT 46.064137 25.434311 38,000 341 421 64
2021-06-18 17:59:34 GMT 46.057526 25.437744 38,000 341 421 64
2021-06-18 17:59:31 GMT 46.052219 25.440491 38,000 341 421 0
2021-06-18 17:59:26 GMT 46.044025 25.444748 38,000 341 422 0
2021-06-18 17:59:23 GMT 46.037975 25.447906 38,000 341 422 0
2021-06-18 17:59:20 GMT 46.033218 25.450365 38,000 341 422 0
2021-06-18 17:59:17 GMT 46.021263 25.456627 38,000 340 423 0
2021-06-18 17:59:14 GMT 46.021263 25.456627 38,000 340 423 0
2021-06-18 17:59:10 GMT 46.014465 25.460129 38,000 340 423 0
2021-06-18 17:59:07 GMT 46.007858 25.463629 38,000 340 423 -64
2021-06-18 17:59:03 GMT 46.000130 25.467682 38,000 340 423 -64
2021-06-18 17:58:59 GMT 45.995148 25.470222 38,000 341 422 -64
2021-06-18 17:58:55 GMT 45.987076 25.474415 38,000 341 421 0
2021-06-18 17:58:52 GMT 45.981228 25.477501 38,000 341 420 0
2021-06-18 17:58:49 GMT 45.977051 25.479639 38,000 341 419 0
2021-06-18 17:58:46 GMT 45.970642 25.482988 38,000 341 418 0
2021-06-18 17:58:43 GMT 45.965012 25.485870 38,000 341 417 0
2021-06-18 17:58:40 GMT 45.958466 25.489243 38,000 341 416 0
2021-06-18 17:58:34 GMT 45.947067 25.495047 38,000 341 416 0
2021-06-18 17:58:29 GMT 45.940201 25.498598 38,000 341 417 64
2021-06-18 17:58:25 GMT 45.932419 25.502550 38,000 341 418 0
2021-06-18 17:58:22 GMT 45.926056 25.505766 38,000 341 418 0
2021-06-18 17:58:19 GMT 45.921688 25.508057 38,000 341 418 0
2021-06-18 17:58:16 GMT 45.915848 25.510990 38,000 341 418 0
2021-06-18 17:58:13 GMT 45.910217 25.513939 38,000 341 418 0
2021-06-18 17:58:10 GMT 45.903122 25.517555 38,000 341 420 0
2021-06-18 17:58:06 GMT 45.896175 25.521172 38,000 341 420 0
2021-06-18 17:58:02 GMT 45.891083 25.523853 38,000 340 420 0
2021-06-18 17:57:59 GMT 45.883575 25.527739 38,000 340 420 0
2021-06-18 17:57:55 GMT 45.877369 25.530922 38,000 340 419 0
2021-06-18 17:57:52 GMT 45.873184 25.533163 38,000 341 419 0
2021-06-18 17:57:48 GMT 45.865173 25.537308 38,000 341 418 0
2021-06-18 17:57:43 GMT 45.855560 25.542341 38,000 341 415 0
2021-06-18 17:57:38 GMT 45.846725 25.546898 38,000 340 415 64
2021-06-18 17:57:33 GMT 45.835190 25.552925 38,000 340 414 0
2021-06-18 17:57:28 GMT 45.828396 25.556465 38,000 340 414 0
2021-06-18 17:57:25 GMT 45.823517 25.559023 38,000 340 414 0
2021-06-18 17:57:22 GMT 45.818298 25.561703 38,000 340 415 0
2021-06-18 17:57:17 GMT 45.809875 25.566122 38,000 340 415 0
2021-06-18 17:57:13 GMT 45.803024 25.569717 38,000 341 415 0
2021-06-18 17:57:10 GMT 45.794926 25.573906 38,000 341 415 0
2021-06-18 17:57:07 GMT 45.788956 25.576977 38,000 341 415 0
2021-06-18 17:57:02 GMT 45.773232 25.585167 38,000 341 415 0
2021-06-18 17:56:57 GMT 45.773232 25.585167 38,000 341 416 0
2021-06-18 17:56:52 GMT 45.754799 25.594574 38,000 341 415 -64
2021-06-18 17:56:47 GMT 45.754799 25.594574 38,000 341 415 -64
2021-06-18 17:56:41 GMT 45.744873 25.599686 38,000 341 414 0
2021-06-18 17:56:37 GMT 45.736549 25.603912 38,000 341 413 0
2021-06-18 17:56:33 GMT 45.730087 25.607187 38,000 341 412 0
2021-06-18 17:56:30 GMT 45.725189 25.609600 38,000 341 411 0
2021-06-18 17:56:27 GMT 45.717499 25.613552 38,000 341 411 0
2021-06-18 17:56:24 GMT 45.711548 25.616501 38,000 341 411 0
2021-06-18 17:56:21 GMT 45.707966 25.618332 38,000 341 411 0
2021-06-18 17:56:15 GMT 45.697220 25.623735 38,000 341 410 0
2021-06-18 17:56:11 GMT 45.690262 25.627218 38,000 341 410 64
2021-06-18 17:56:06 GMT 45.681526 25.631653 38,000 341 410 0
2021-06-18 17:56:03 GMT 45.675430 25.634722 38,000 341 410 0
2021-06-18 17:56:00 GMT 45.670761 25.637066 38,000 341 409 0
2021-06-18 17:55:57 GMT 45.663803 25.640549 38,000 341 410 0
2021-06-18 17:55:53 GMT 45.653591 25.645729 38,000 341 412 0
2021-06-18 17:55:50 GMT 45.653591 25.645729 38,000 341 412 0
2021-06-18 17:55:46 GMT 45.645912 25.649643 38,000 341 412 0
2021-06-18 17:55:43 GMT 45.637997 25.653694 38,000 341 413 0
2021-06-18 17:55:40 GMT 45.633343 25.656097 38,000 341 413 64
2021-06-18 17:55:35 GMT 45.624870 25.660423 38,000 341 414 0
2021-06-18 17:55:32 GMT 45.620403 25.662689 38,000 341 413 0
2021-06-18 17:55:29 GMT 45.615692 25.665068 38,000 341 412 0
2021-06-18 17:55:25 GMT 45.607956 25.668953 38,000 341 413 0
2021-06-18 17:55:19 GMT 45.597870 25.674088 38,000 341 412 0
2021-06-18 17:55:15 GMT 45.589417 25.678331 38,000 341 412 0
2021-06-18 17:55:10 GMT 45.579716 25.683220 38,000 341 411 0
2021-06-18 17:55:05 GMT 45.571476 25.687408 38,000 341 411 -64
2021-06-18 17:55:01 GMT 45.564331 25.690992 38,000 341 410 0
2021-06-18 17:54:58 GMT 45.559650 25.693314 38,000 341 410 0
2021-06-18 17:54:55 GMT 45.552715 25.696815 38,000 341 409 0
2021-06-18 17:54:51 GMT 45.545929 25.700226 38,000 341 409 64
2021-06-18 17:54:48 GMT 45.541451 25.702448 38,000 341 409 64
2021-06-18 17:54:44 GMT 45.534164 25.706112 38,000 341 408 0
2021-06-18 17:54:41 GMT 45.526321 25.710018 38,000 341 408 0
2021-06-18 17:54:38 GMT 45.524551 25.710955 38,000 341 408 64
2021-06-18 17:54:33 GMT 45.516037 25.715200 38,000 341 408 64
2021-06-18 17:54:29 GMT 45.506790 25.719910 38,000 341 408 0
2021-06-18 17:54:25 GMT 45.499317 25.723682 38,000 341 408 -64
2021-06-18 17:54:22 GMT 45.494476 25.726095 38,000 341 408 0
2021-06-18 17:54:19 GMT 45.487541 25.729580 38,000 341 406 0
2021-06-18 17:54:14 GMT 45.476898 25.734949 38,000 341 407 0
2021-06-18 17:54:11 GMT 45.476898 25.734949 38,000 341 407 0
2021-06-18 17:54:08 GMT 45.469807 25.738556 38,000 341 407 0
2021-06-18 17:54:02 GMT 45.458073 25.744516 38,000 341 408 0
2021-06-18 17:53:58 GMT 45.452042 25.747572 38,000 341 408 0
2021-06-18 17:53:53 GMT 45.441921 25.752689 38,000 341 408 0
2021-06-18 17:53:50 GMT 45.437637 25.754902 38,000 341 408 0
2021-06-18 17:53:47 GMT 45.433216 25.757177 38,000 341 408 0
2021-06-18 17:53:42 GMT 45.424164 25.761763 38,000 341 408 0
2021-06-18 17:53:38 GMT 45.415787 25.766079 38,000 341 410 0
2021-06-18 17:53:33 GMT 45.408310 25.769905 38,000 341 411 0
2021-06-18 17:53:30 GMT 45.402771 25.772720 38,000 341 411 0
2021-06-18 17:53:27 GMT 45.397228 25.775534 38,000 341 412 0
2021-06-18 17:53:23 GMT 45.389549 25.779419 38,000 341 412 0
2021-06-18 17:53:20 GMT 45.384155 25.782166 38,000 341 412 0
2021-06-18 17:53:17 GMT 45.378937 25.784781 38,000 341 414 0
2021-06-18 17:53:13 GMT 45.371887 25.788313 38,000 341 413 0
2021-06-18 17:53:10 GMT 45.367577 25.790472 38,000 341 413 0
2021-06-18 17:53:07 GMT 45.361038 25.793674 38,000 341 413 0
2021-06-18 17:53:02 GMT 45.352402 25.797976 38,000 341 412 0
2021-06-18 17:52:59 GMT 45.347885 25.800186 38,000 341 412 0
2021-06-18 17:52:56 GMT 45.341599 25.803402 38,000 341 411 -64
2021-06-18 17:52:53 GMT 45.335129 25.806623 38,000 341 411 -64
2021-06-18 17:52:49 GMT 45.328903 25.809828 38,000 341 410 0
2021-06-18 17:52:46 GMT 45.324608 25.812042 38,000 341 409 0
2021-06-18 17:52:40 GMT 45.313389 25.817804 38,000 341 409 0
2021-06-18 17:52:37 GMT 45.305569 25.821823 38,000 341 410 0
2021-06-18 17:52:32 GMT 45.297562 25.825977 38,000 341 410 0
2021-06-18 17:52:29 GMT 45.291649 25.828991 38,000 341 411 0
2021-06-18 17:52:26 GMT 45.288254 25.830688 38,000 341 410 0
2021-06-18 17:52:19 GMT 45.276100 25.836828 38,000 341 411 0
2021-06-18 17:52:16 GMT 45.269817 25.839911 38,000 341 411 0
2021-06-18 17:52:12 GMT 45.261612 25.844028 38,000 341 410 0
2021-06-18 17:52:09 GMT 45.257294 25.846209 38,000 341 410 0
2021-06-18 17:52:06 GMT 45.251755 25.848953 38,000 341 411 0
2021-06-18 17:51:59 GMT 45.239044 25.855276 38,000 341 411 0
2021-06-18 17:51:55 GMT 45.233688 25.857958 38,000 341 411 0
2021-06-18 17:51:51 GMT 45.224197 25.862686 38,000 341 411 0
2021-06-18 17:51:48 GMT 45.219360 25.865086 38,000 341 410 0
2021-06-18 17:51:45 GMT 45.215561 25.866917 38,000 341 410 0
2021-06-18 17:51:38 GMT 45.197147 25.876152 38,000 341 410 0
2021-06-18 17:51:35 GMT 45.197147 25.876152 38,000 341 410 0
2021-06-18 17:51:28 GMT 45.182999 25.883120 38,000 341 411 0
2021-06-18 17:51:25 GMT 45.178528 25.885359 38,000 341 411 0
2021-06-18 17:51:18 GMT 45.163971 25.892616 38,000 341 412 0
2021-06-18 17:51:15 GMT 45.160233 25.894440 38,000 341 412 0
2021-06-18 17:51:07 GMT 45.146591 25.901274 38,000 341 412 0
2021-06-18 17:51:04 GMT 45.141907 25.903605 38,000 341 412 0
2021-06-18 17:50:57 GMT 45.127350 25.910864 38,000 341 412 0
2021-06-18 17:50:54 GMT 45.123734 25.912695 38,000 341 412 0
2021-06-18 17:50:48 GMT 45.111145 25.918970 38,000 341 412 0
2021-06-18 17:50:45 GMT 45.105927 25.921587 38,000 341 412 0
2021-06-18 17:50:37 GMT 45.091942 25.928604 38,000 341 411 0
2021-06-18 17:50:34 GMT 45.087799 25.930677 38,000 341 411 0
2021-06-18 17:50:27 GMT 45.074715 25.937246 38,000 341 411 0
2021-06-18 17:50:24 GMT 45.068989 25.940126 38,000 341 411 0
2021-06-18 17:50:17 GMT 45.055351 25.946960 38,000 341 412 -64
2021-06-18 17:50:14 GMT 45.050674 25.949314 38,000 341 412 -64
2021-06-18 17:50:07 GMT 45.038265 25.955467 38,000 341 412 0
2021-06-18 17:50:04 GMT 45.032867 25.958147 38,000 341 412 0
2021-06-18 17:49:56 GMT 45.019226 25.965010 38,000 341 412 0
2021-06-18 17:49:53 GMT 45.013641 25.967756 38,000 341 412 0
2021-06-18 17:49:47 GMT 44.994274 25.977442 38,000 341 410 0
2021-06-18 17:49:44 GMT 44.994274 25.977442 38,000 341 410 -64
2021-06-18 17:49:36 GMT 44.982822 25.983202 38,000 341 409 0
2021-06-18 17:49:32 GMT 44.975693 25.986719 38,000 341 409 0
2021-06-18 17:49:25 GMT 44.958435 25.995354 38,000 341 408 0
2021-06-18 17:49:22 GMT 44.958435 25.995354 38,000 341 408 0
2021-06-18 17:49:16 GMT 44.946697 26.001156 38,000 341 409 0
2021-06-18 17:49:12 GMT 44.939713 26.004639 38,000 341 409 0
2021-06-18 17:49:05 GMT 44.928864 26.010065 38,000 341 410 -64
2021-06-18 17:49:01 GMT 44.921860 26.013533 38,000 341 410 0
2021-06-18 17:48:55 GMT 44.909729 26.019548 38,000 341 410 0
2021-06-18 17:48:52 GMT 44.903091 26.022818 38,000 341 410 0
2021-06-18 17:48:45 GMT 44.891647 26.028507 38,000 341 410 64
2021-06-18 17:48:41 GMT 44.884689 26.032038 38,000 341 409 0
2021-06-18 17:48:35 GMT 44.866673 26.041014 38,000 341 409 0
2021-06-18 17:48:31 GMT 44.866673 26.041014 38,000 341 408 0
2021-06-18 17:48:26 GMT 44.857967 26.045368 38,000 341 409 0
2021-06-18 17:48:23 GMT 44.853653 26.047472 38,000 341 409 0
2021-06-18 17:48:20 GMT 44.848526 26.050022 38,000 341 408 0
2021-06-18 17:48:15 GMT 44.837311 26.055580 38,000 341 408 0
2021-06-18 17:48:11 GMT 44.830364 26.059034 38,000 341 407 0
2021-06-18 17:48:06 GMT 44.821335 26.063522 38,000 341 405 0
2021-06-18 17:48:03 GMT 44.818497 26.064934 38,000 341 405 0
2021-06-18 17:48:00 GMT 44.812489 26.067877 38,000 341 405 0
2021-06-18 17:47:53 GMT 44.800278 26.073893 38,000 341 403 0
2021-06-18 17:47:48 GMT 44.789909 26.078997 38,000 341 403 0
2021-06-18 17:47:44 GMT 44.783890 26.081869 38,000 341 403 0
2021-06-18 17:47:40 GMT 44.776176 26.085695 38,000 341 403 0
2021-06-18 17:47:37 GMT 44.770889 26.088213 38,000 341 404 0
2021-06-18 17:47:33 GMT 44.763977 26.091614 38,000 341 405 0
2021-06-18 17:47:30 GMT 44.758163 26.094490 38,000 341 406 0
2021-06-18 17:47:24 GMT 44.741959 26.102404 38,000 341 411 0
2021-06-18 17:47:21 GMT 44.741959 26.102404 38,000 341 412 0
2021-06-18 17:47:18 GMT 44.738331 26.104185 38,000 341 413 0
2021-06-18 17:47:15 GMT 44.732418 26.107065 38,000 341 416 0
2021-06-18 17:47:12 GMT 44.727158 26.109678 38,000 341 417 0
2021-06-18 17:47:09 GMT 44.722408 26.111956 38,000 341 419 64
2021-06-18 17:47:06 GMT 44.715099 26.115574 38,000 341 421 0
2021-06-18 17:47:02 GMT 44.709778 26.118229 38,000 341 423 64
2021-06-18 17:46:59 GMT 44.700764 26.122675 38,000 341 425 0
2021-06-18 17:46:55 GMT 44.694664 26.125689 38,000 341 425 0
2021-06-18 17:46:52 GMT 44.688721 26.128628 38,000 341 426 0
2021-06-18 17:46:48 GMT 44.682587 26.131636 38,000 341 426 0
2021-06-18 17:46:41 GMT 44.669758 26.137880 38,000 341 426 0
2021-06-18 17:46:38 GMT 44.665104 26.140160 38,000 341 425 -64
2021-06-18 17:46:35 GMT 44.657841 26.143709 38,000 341 425 -64
2021-06-18 17:46:32 GMT 44.654114 26.145498 38,000 341 425 -64
2021-06-18 17:46:29 GMT 44.645969 26.149471 38,000 341 425 64
2021-06-18 17:46:26 GMT 44.641479 26.151646 38,000 341 425 0
2021-06-18 17:46:22 GMT 44.634796 26.154898 38,000 341 425 64
2021-06-18 17:46:18 GMT 44.626694 26.158905 38,000 341 424 0
2021-06-18 17:46:15 GMT 44.620926 26.161730 38,000 341 424 0
2021-06-18 17:46:11 GMT 44.612221 26.166018 38,000 341 424 0
2021-06-18 17:46:06 GMT 44.602982 26.170546 38,000 341 426 0
2021-06-18 17:46:02 GMT 44.597790 26.173052 38,000 341 426 0
2021-06-18 17:45:58 GMT 44.589222 26.177271 38,000 341 428 0
2021-06-18 17:45:54 GMT 44.581963 26.180822 38,000 341 429 0
2021-06-18 17:45:51 GMT 44.578003 26.182764 38,000 341 430 -64
2021-06-18 17:45:48 GMT 44.569576 26.186918 38,000 341 430 0
2021-06-18 17:45:44 GMT 44.562641 26.190334 38,000 341 431 0
2021-06-18 17:45:40 GMT 44.554913 26.194153 38,000 341 432 0
2021-06-18 17:45:36 GMT 44.540543 26.201216 38,000 341 434 0
2021-06-18 17:45:32 GMT 44.540543 26.201216 38,000 341 435 0
2021-06-18 17:45:28 GMT 44.533920 26.204470 38,000 341 436 0
2021-06-18 17:45:25 GMT 44.527084 26.207821 38,000 341 437 0
2021-06-18 17:45:22 GMT 44.521545 26.210503 38,000 341 437 0
2021-06-18 17:45:19 GMT 44.515808 26.213245 38,000 341 438 0
2021-06-18 17:45:15 GMT 44.508957 26.216583 38,000 341 438 0
2021-06-18 17:45:12 GMT 44.501495 26.220181 38,000 341 438 0
2021-06-18 17:45:09 GMT 44.495911 26.222860 38,000 341 438 0
2021-06-18 17:45:05 GMT 44.489044 26.226196 38,000 341 439 0
2021-06-18 17:45:01 GMT 44.481735 26.229725 38,000 341 438 0
2021-06-18 17:44:58 GMT 44.476566 26.232203 38,000 341 438 0
2021-06-18 17:44:54 GMT 44.469864 26.235485 38,000 342 439 0
2021-06-18 17:44:51 GMT 44.462540 26.238949 38,000 342 439 0
2021-06-18 17:44:48 GMT 44.456783 26.241783 38,000 342 439 0
2021-06-18 17:44:44 GMT 44.448914 26.245535 38,000 342 439 0
2021-06-18 17:44:41 GMT 44.443130 26.248301 38,000 341 439 64
2021-06-18 17:44:36 GMT 44.433365 26.253036 38,000 341 439 0
2021-06-18 17:44:31 GMT 44.423950 26.257586 38,000 341 439 -64
2021-06-18 17:44:28 GMT 44.417450 26.260790 38,000 341 439 0
2021-06-18 17:44:24 GMT 44.409943 26.264452 38,000 341 439 0
2021-06-18 17:44:20 GMT 44.401897 26.268377 38,000 341 440 0
2021-06-18 17:44:16 GMT 44.393845 26.272329 38,000 341 440 -64
2021-06-18 17:44:13 GMT 44.389980 26.274206 38,000 341 439 0
2021-06-18 17:44:10 GMT 44.384216 26.277008 38,000 341 439 0
2021-06-18 17:44:05 GMT 44.374058 26.281977 38,000 341 439 0
2021-06-18 17:44:02 GMT 44.369659 26.284136 38,000 341 438 64
2021-06-18 17:43:59 GMT 44.364120 26.286818 38,000 341 437 0
2021-06-18 17:43:55 GMT 44.349060 26.294010 38,000 341 434 -64
2021-06-18 17:43:52 GMT 44.349060 26.294010 38,000 341 434 64
2021-06-18 17:43:49 GMT 44.340546 26.298132 38,000 341 432 0
2021-06-18 17:43:46 GMT 44.337891 26.299438 38,000 341 432 0
2021-06-18 17:43:43 GMT 44.333176 26.301662 38,000 341 431 0
2021-06-18 17:43:40 GMT 44.324852 26.305691 38,000 341 432 -64
2021-06-18 17:43:35 GMT 44.318615 26.308704 38,000 341 432 64
2021-06-18 17:43:32 GMT 44.311306 26.312323 38,000 341 433 0
2021-06-18 17:43:29 GMT 44.306396 26.314674 38,000 341 433 0
2021-06-18 17:43:25 GMT 44.299576 26.318016 38,000 341 433 0
2021-06-18 17:43:22 GMT 44.291847 26.321835 38,000 341 433 -64
2021-06-18 17:43:19 GMT 44.286728 26.324381 38,000 341 433 -64
2021-06-18 17:43:16 GMT 44.280300 26.327530 38,000 341 433 0
2021-06-18 17:43:13 GMT 44.276344 26.329472 38,000 341 433 0
2021-06-18 17:43:10 GMT 44.268990 26.333090 38,000 341 431 -64
2021-06-18 17:43:07 GMT 44.260563 26.337311 38,000 341 430 0
2021-06-18 17:43:04 GMT 44.257553 26.338741 38,000 341 429 0
2021-06-18 17:43:01 GMT 44.250046 26.342403 38,000 341 428 -64
2021-06-18 17:42:58 GMT 44.247253 26.343777 38,000 341 426 0
2021-06-18 17:42:53 GMT 44.238686 26.347961 38,000 341 426 0
2021-06-18 17:42:50 GMT 44.231644 26.351427 38,000 341 425 0
2021-06-18 17:42:47 GMT 44.227341 26.353455 38,000 341 425 0
2021-06-18 17:42:43 GMT 44.219742 26.357182 38,000 341 426 0
2021-06-18 17:42:40 GMT 44.215073 26.359406 38,000 341 426 0
2021-06-18 17:42:37 GMT 44.209682 26.362028 38,000 341 426 0
2021-06-18 17:42:33 GMT 44.202049 26.365646 38,000 341 426 0
2021-06-18 17:42:30 GMT 44.194786 26.369198 38,000 341 427 0
2021-06-18 17:42:27 GMT 44.190876 26.371046 38,000 341 427 0
2021-06-18 17:42:23 GMT 44.175385 26.378492 38,000 341 427 0
2021-06-18 17:42:20 GMT 44.175385 26.378492 38,000 341 427 0
2021-06-18 17:42:17 GMT 44.172546 26.379835 38,000 341 427 0
2021-06-18 17:42:12 GMT 44.162479 26.384712 38,000 341 428 0
2021-06-18 17:42:09 GMT 44.154831 26.388393 38,000 341 428 64
2021-06-18 17:42:06 GMT 44.152176 26.389671 38,000 341 428 64
2021-06-18 17:42:02 GMT 44.143387 26.393887 38,000 341 427 0
2021-06-18 17:41:59 GMT 44.137806 26.396549 38,000 341 427 -64
2021-06-18 17:41:56 GMT 44.132950 26.398869 38,000 341 427 -64
2021-06-18 17:41:52 GMT 44.124161 26.403086 38,000 341 428 -64
2021-06-18 17:41:49 GMT 44.117416 26.406359 38,000 341 428 0
2021-06-18 17:41:46 GMT 44.114624 26.407667 38,000 341 428 0
2021-06-18 17:41:42 GMT 44.105255 26.412218 38,000 341 428 0
2021-06-18 17:41:36 GMT 44.095551 26.416882 38,000 341 428 64
2021-06-18 17:41:31 GMT 44.085068 26.421864 38,000 342 428 0
2021-06-18 17:41:26 GMT 44.076279 26.426079 38,000 342 428 0
2021-06-18 17:41:21 GMT 44.066536 26.430687 38,000 342 428 0
2021-06-18 17:41:18 GMT 44.059971 26.433825 38,000 341 428 -64
2021-06-18 17:41:14 GMT 44.053940 26.436682 38,000 341 428 -64
2021-06-18 17:41:11 GMT 44.047989 26.439556 38,000 341 427 0
2021-06-18 17:41:08 GMT 44.040848 26.442942 38,000 341 426 0
2021-06-18 17:41:05 GMT 44.034508 26.445988 38,000 341 426 0
2021-06-18 17:40:59 GMT 44.025970 26.450159 38,000 341 425 0
2021-06-18 17:40:56 GMT 44.019470 26.453291 38,000 341 424 0
2021-06-18 17:40:51 GMT 44.010952 26.457432 38,000 341 423 -64
2021-06-18 17:40:48 GMT 44.004478 26.460571 38,000 341 423 0
2021-06-18 17:40:45 GMT 44.000793 26.462360 38,000 341 423 0
2021-06-18 17:40:42 GMT 43.994331 26.465475 38,000 341 422 0
2021-06-18 17:40:39 GMT 43.988605 26.468288 38,000 341 422 0
2021-06-18 17:40:35 GMT 43.980286 26.472260 38,000 341 423 64
2021-06-18 17:40:31 GMT 43.972733 26.475901 38,000 341 423 64
2021-06-18 17:40:28 GMT 43.968292 26.478008 38,000 341 423 0
2021-06-18 17:40:25 GMT 43.962723 26.480713 38,000 341 424 0
2021-06-18 17:40:21 GMT 43.954056 26.484842 38,000 341 425 0
2021-06-18 17:40:18 GMT 43.948654 26.487461 38,000 341 426 0
2021-06-18 17:40:15 GMT 43.943802 26.489761 38,000 341 427 0
2021-06-18 17:40:10 GMT 43.935059 26.493977 38,000 341 428 64
2021-06-18 17:40:07 GMT 43.927368 26.497683 38,000 341 429 -64
2021-06-18 17:40:04 GMT 43.924576 26.499023 38,000 341 430 0
2021-06-18 17:39:58 GMT 43.912354 26.504900 38,000 341 431 64
2021-06-18 17:39:55 GMT 43.905930 26.507982 38,000 341 431 64
2021-06-18 17:39:50 GMT 43.896526 26.512495 38,000 341 431 0
2021-06-18 17:39:47 GMT 43.891846 26.514799 38,000 341 427 -64
2021-06-18 17:39:44 GMT 43.886032 26.517611 38,000 341 430 -64
2021-06-18 17:39:37 GMT 43.873623 26.523546 38,000 341 427 -64
2021-06-18 17:39:34 GMT 43.867290 26.526621 38,000 341 427 -64
2021-06-18 17:39:27 GMT 43.851463 26.534271 38,025 341 424 0
2021-06-18 17:39:24 GMT 43.848679 26.535624 38,000 341 423 0
2021-06-18 17:39:18 GMT 43.838894 26.540289 38,000 342 421 0
2021-06-18 17:39:14 GMT 43.828766 26.545139 38,000 342 420 64
2021-06-18 17:39:10 GMT 43.820892 26.548845 38,000 342 430 0
2021-06-18 17:39:07 GMT 43.816082 26.551079 38,000 342 421 0
2021-06-18 17:39:04 GMT 43.805935 26.555853 38,000 342 423 0
2021-06-18 17:38:58 GMT 43.800953 26.558207 38,000 342 424 -64
2021-06-18 17:38:55 GMT 43.786850 26.564745 38,000 342 425 -64
2021-06-18 17:38:52 GMT 43.786850 26.564745 38,000 342 427 -64
2021-06-18 17:38:46 GMT 43.777817 26.568865 38,000 342 429 0
2021-06-18 17:38:41 GMT 43.764645 26.575012 38,000 342 431 0
2021-06-18 17:38:38 GMT 43.761990 26.576256 38,000 342 431 0
2021-06-18 17:38:35 GMT 43.757492 26.578356 38,000 342 431 0
2021-06-18 17:38:32 GMT 43.751423 26.581160 38,000 342 433 0
2021-06-18 17:38:25 GMT 43.731766 26.590363 38,000 342 432 0
2021-06-18 17:38:22 GMT 43.731766 26.590363 38,000 342 432 0
2021-06-18 17:38:17 GMT 43.723396 26.594238 38,000 342 432 0
2021-06-18 17:38:13 GMT 43.716789 26.597313 38,000 342 432 0
2021-06-18 17:38:10 GMT 43.711292 26.599861 38,000 342 433 0
2021-06-18 17:38:04 GMT 43.698578 26.605822 38,000 342 433 64
2021-06-18 17:38:01 GMT 43.692902 26.608503 38,000 342 433 0
2021-06-18 17:37:57 GMT 43.683060 26.613167 38,000 341 432 -64
2021-06-18 17:37:54 GMT 43.679626 26.614826 38,000 341 432 0
2021-06-18 17:37:51 GMT 43.673035 26.617956 38,000 341 432 0
2021-06-18 17:37:43 GMT 43.659073 26.624790 38,000 341 432 -64
2021-06-18 17:37:40 GMT 43.653801 26.627394 38,000 341 433 -64
2021-06-18 17:37:34 GMT 43.641560 26.633541 38,000 340 433 0
2021-06-18 17:37:29 GMT 43.626335 26.641256 38,000 341 434 64
2021-06-18 17:37:24 GMT 43.621262 26.643808 38,000 342 435 64
2021-06-18 17:37:20 GMT 43.615025 26.646816 38,000 343 435 0
2021-06-18 17:37:13 GMT 43.602402 26.651937 38,000 348 433 0
2021-06-18 17:37:09 GMT 43.594620 26.654428 38,000 350 432 -64
2021-06-18 17:37:05 GMT 43.586655 26.656473 38,000 352 430 -64
2021-06-18 17:37:02 GMT 43.582111 26.657345 38,000 353 429 -64
2021-06-18 17:36:59 GMT 43.574848 26.658651 38,000 354 428 0
2021-06-18 17:36:55 GMT 43.566425 26.659895 38,000 354 427 0
2021-06-18 17:36:52 GMT 43.562485 26.660498 38,000 354 427 64
2021-06-18 17:36:49 GMT 43.554428 26.661648 38,000 354 426 0
2021-06-18 17:36:42 GMT 43.543102 26.663296 38,000 354 426 0
2021-06-18 17:36:38 GMT 43.533463 26.664713 38,000 354 427 -64
2021-06-18 17:36:33 GMT 43.523071 26.666182 38,000 354 427 64
2021-06-18 17:36:28 GMT 43.514236 26.667522 38,000 354 428 0
2021-06-18 17:36:22 GMT 43.502426 26.669249 38,000 354 428 0
2021-06-18 17:36:18 GMT 43.493546 26.670589 38,000 354 428 0
2021-06-18 17:36:14 GMT 43.485077 26.671865 38,000 354 428 -64
2021-06-18 17:36:10 GMT 43.480179 26.672632 38,000 354 429 -64
2021-06-18 17:36:07 GMT 43.473274 26.673693 38,000 354 429 -64
2021-06-18 17:36:02 GMT 43.462986 26.675198 38,000 354 429 0
2021-06-18 17:35:59 GMT 43.458656 26.675852 38,000 354 429 0
2021-06-18 17:35:56 GMT 43.452557 26.676767 38,000 354 428 64
2021-06-18 17:35:51 GMT 43.442505 26.678253 38,000 354 428 64
2021-06-18 17:35:47 GMT 43.432480 26.679724 38,000 354 427 0
2021-06-18 17:35:44 GMT 43.425789 26.680691 38,000 354 427 0
2021-06-18 17:35:41 GMT 43.423042 26.681084 38,000 355 426 0
2021-06-18 17:35:38 GMT 43.416946 26.681997 38,000 355 426 0
2021-06-18 17:35:35 GMT 43.411266 26.682783 38,000 354 427 0
2021-06-18 17:35:32 GMT 43.402222 26.684130 38,000 354 427 0
2021-06-18 17:35:29 GMT 43.397114 26.684875 38,000 355 427 -64
2021-06-18 17:35:25 GMT 43.391014 26.685726 38,000 355 427 -64
2021-06-18 17:35:21 GMT 43.382401 26.686941 38,000 355 427 -64
2021-06-18 17:35:16 GMT 43.371002 26.688601 38,000 355 426 0
2021-06-18 17:35:11 GMT 43.362385 26.689779 38,000 355 426 0
2021-06-18 17:35:08 GMT 43.356705 26.690630 38,000 355 426 0
2021-06-18 17:35:05 GMT 43.350815 26.691477 38,000 355 426 0
2021-06-18 17:35:01 GMT 43.342552 26.692593 38,000 355 427 0
2021-06-18 17:34:58 GMT 43.337063 26.693377 38,000 355 427 0
2021-06-18 17:34:54 GMT 43.330399 26.694349 38,000 355 427 0
2021-06-18 17:34:50 GMT 43.321930 26.695564 38,000 354 428 0
2021-06-18 17:34:47 GMT 43.316620 26.696329 38,000 354 428 0
2021-06-18 17:34:43 GMT 43.305954 26.697863 38,000 354 429 0
2021-06-18 17:34:40 GMT 43.302238 26.698479 38,000 354 430 0
2021-06-18 17:34:37 GMT 43.296097 26.699392 38,000 354 430 0
2021-06-18 17:34:34 GMT 43.289749 26.700291 38,000 354 431 0
2021-06-18 17:34:31 GMT 43.282425 26.701441 38,000 354 431 0
2021-06-18 17:34:27 GMT 43.276451 26.702400 38,000 354 431 0
2021-06-18 17:34:24 GMT 43.270111 26.703356 38,000 354 431 0
2021-06-18 17:34:20 GMT 43.261963 26.704634 38,000 354 431 0
2021-06-18 17:34:17 GMT 43.255829 26.705656 38,000 354 432 0
2021-06-18 17:34:12 GMT 43.244144 26.707567 38,000 354 431 0
2021-06-18 17:34:09 GMT 43.241180 26.708019 38,000 354 431 0
2021-06-18 17:34:06 GMT 43.235046 26.709042 38,000 354 431 0
2021-06-18 17:34:03 GMT 43.229897 26.709856 38,000 354 431 0
2021-06-18 17:34:00 GMT 43.215652 26.712145 38,000 354 431 -64
2021-06-18 17:33:57 GMT 43.215652 26.712145 38,000 354 431 -64
2021-06-18 17:33:52 GMT 43.208130 26.713385 38,000 354 431 0
2021-06-18 17:33:49 GMT 43.201218 26.714535 38,000 354 432 0
2021-06-18 17:33:46 GMT 43.195084 26.715492 38,000 354 431 0
2021-06-18 17:33:43 GMT 43.188171 26.716642 38,000 354 430 0
2021-06-18 17:33:39 GMT 43.181808 26.717638 38,000 354 430 0
2021-06-18 17:33:36 GMT 43.174873 26.718685 38,000 354 431 0
2021-06-18 17:33:32 GMT 43.164780 26.720156 38,000 355 431 0
2021-06-18 17:33:28 GMT 43.157455 26.721176 38,000 355 431 0
2021-06-18 17:33:25 GMT 43.154484 26.721626 38,000 355 430 0
2021-06-18 17:33:22 GMT 43.142029 26.723158 38,000 356 430 0
2021-06-18 17:33:19 GMT 43.134338 26.723988 38,000 356 429 0
2021-06-18 17:33:16 GMT 43.134338 26.723988 38,000 356 429 -64
2021-06-18 17:33:11 GMT 43.124458 26.724962 38,025 356 429 0
2021-06-18 17:33:08 GMT 43.119896 26.725420 38,000 356 428 64
2021-06-18 17:33:05 GMT 43.113968 26.726032 38,000 356 426 64
2021-06-18 17:33:01 GMT 43.105865 26.726990 38,000 353 426 -64
2021-06-18 17:32:58 GMT 43.099777 26.728077 38,000 350 425 0
2021-06-18 17:32:55 GMT 43.093872 26.729408 38,000 348 425 0
2021-06-18 17:32:51 GMT 43.085770 26.731844 38,000 345 425 0
2021-06-18 17:32:48 GMT 43.079407 26.734144 38,000 343 425 0
2021-06-18 17:32:45 GMT 43.074280 26.736252 38,000 341 425 0
2021-06-18 17:32:39 GMT 43.063286 26.741770 38,000 336 426 64
2021-06-18 17:32:35 GMT 43.056061 26.746153 38,000 333 426 64
2021-06-18 17:32:29 GMT 43.044479 26.754585 38,000 328 427 0
2021-06-18 17:32:25 GMT 43.038254 26.759886 38,000 325 428 0
2021-06-18 17:32:20 GMT 43.030746 26.767141 38,000 319 431 -64
2021-06-18 17:32:17 GMT 43.025303 26.773157 38,000 318 432 -64
2021-06-18 17:32:14 GMT 43.021683 26.777451 38,000 317 433 -64
2021-06-18 17:32:08 GMT 43.011196 26.791534 38,000 314 437 0
2021-06-18 17:32:04 GMT 43.007309 26.797060 38,000 314 437 0
2021-06-18 17:31:59 GMT 43.001419 26.805399 38,000 314 439 -64
2021-06-18 17:31:56 GMT 42.995773 26.813412 38,000 314 439 0
2021-06-18 17:31:53 GMT 42.992573 26.818020 38,000 314 440 0
2021-06-18 17:31:50 GMT 42.987919 26.824623 38,000 314 440 0
2021-06-18 17:31:47 GMT 42.983139 26.831425 38,000 314 440 0
2021-06-18 17:31:44 GMT 42.978607 26.837769 38,000 314 440 0
2021-06-18 17:31:37 GMT 42.970001 26.849947 38,000 314 439 0
2021-06-18 17:31:33 GMT 42.963959 26.858570 38,000 314 439 64
2021-06-18 17:31:28 GMT 42.955536 26.870516 38,000 314 439 0
2021-06-18 17:31:23 GMT 42.949608 26.878902 38,000 314 439 0
2021-06-18 17:31:18 GMT 42.943600 26.887468 38,000 314 440 0
2021-06-18 17:31:15 GMT 42.938667 26.894531 38,000 314 440 0
2021-06-18 17:31:12 GMT 42.935303 26.899323 38,000 314 440 0
2021-06-18 17:31:07 GMT 42.927567 26.910372 38,000 314 441 0
2021-06-18 17:31:04 GMT 42.923351 26.916372 38,000 314 441 0
2021-06-18 17:31:01 GMT 42.920013 26.921167 38,000 314 441 0
2021-06-18 17:30:57 GMT 42.913109 26.931023 38,000 315 441 0
2021-06-18 17:30:53 GMT 42.906731 26.940046 38,000 314 442 0
2021-06-18 17:30:46 GMT 42.898354 26.951881 38,000 315 442 0
2021-06-18 17:30:42 GMT 42.892685 26.959873 38,000 315 442 0
2021-06-18 17:30:39 GMT 42.887413 26.967251 38,000 315 441 0
2021-06-18 17:30:36 GMT 42.883575 26.972649 38,000 315 441 0
2021-06-18 17:30:32 GMT 42.877304 26.981400 38,000 315 441 0
2021-06-18 17:30:26 GMT 42.869629 26.992167 38,000 315 439 0
2021-06-18 17:30:21 GMT 42.862839 27.001713 38,000 315 439 0
2021-06-18 17:30:15 GMT 42.853943 27.014204 38,000 314 439 0
2021-06-18 17:30:12 GMT 42.848328 27.022152 38,000 314 438 0
2021-06-18 17:30:08 GMT 42.844391 27.027708 38,000 314 438 0
2021-06-18 17:30:04 GMT 42.838066 27.036634 38,000 314 438 0
2021-06-18 17:30:01 GMT 42.834824 27.041185 38,025 314 438 0
2021-06-18 17:29:58 GMT 42.829468 27.048723 38,000 315 439 0
2021-06-18 17:29:55 GMT 42.825256 27.054663 38,000 315 438 -64
2021-06-18 17:29:51 GMT 42.819763 27.062391 38,025 315 438 -64
2021-06-18 17:29:47 GMT 42.814140 27.070312 38,000 315 439 0
2021-06-18 17:29:43 GMT 42.809326 27.077019 38,025 315 439 0
2021-06-18 17:29:40 GMT 42.805061 27.082960 38,000 315 439 64
2021-06-18 17:29:37 GMT 42.800537 27.089289 38,025 315 439 0
2021-06-18 17:29:33 GMT 42.794586 27.097588 38,000 315 439 64
2021-06-18 17:29:30 GMT 42.790604 27.103085 38,000 315 439 0
2021-06-18 17:29:26 GMT 42.783463 27.112917 38,000 315 439 0
2021-06-18 17:29:21 GMT 42.775589 27.123684 38,000 315 439 0
2021-06-18 17:29:17 GMT 42.771450 27.129332 38,000 315 439 0
2021-06-18 17:29:14 GMT 42.767262 27.135017 38,000 315 439 -64
2021-06-18 17:29:10 GMT 42.761536 27.142784 38,025 316 439 0
2021-06-18 17:29:07 GMT 42.755630 27.150776 38,025 316 439 0
2021-06-18 17:29:04 GMT 42.751854 27.155840 38,025 316 439 -64
2021-06-18 17:29:01 GMT 42.749725 27.158766 38,025 316 439 0
2021-06-18 17:28:58 GMT 42.744690 27.165506 38,025 316 439 0
2021-06-18 17:28:55 GMT 42.739471 27.172510 38,025 316 439 0
2021-06-18 17:28:50 GMT 42.732395 27.182028 38,000 316 439 0
2021-06-18 17:28:45 GMT 42.725052 27.191912 38,025 316 439 0
2021-06-18 17:28:40 GMT 42.717823 27.201637 38,000 316 439 0
2021-06-18 17:28:33 GMT 42.706879 27.216442 38,025 316 440 0
2021-06-18 17:28:30 GMT 42.703262 27.221312 38,025 316 440 0
2021-06-18 17:28:24 GMT 42.695293 27.231977 38,000 316 440 0
2021-06-18 17:28:19 GMT 42.687889 27.241814 38,000 316 440 0
2021-06-18 17:28:14 GMT 42.680786 27.251274 38,000 316 440 0
2021-06-18 17:28:10 GMT 42.673832 27.260529 38,000 316 440 0
2021-06-18 17:28:07 GMT 42.669434 27.266319 38,000 316 440 0
2021-06-18 17:28:02 GMT 42.662472 27.275604 38,000 316 440 64
2021-06-18 17:27:58 GMT 42.658081 27.281363 38,000 316 440 0
2021-06-18 17:27:54 GMT 42.650974 27.290806 38,000 316 439 0
2021-06-18 17:27:49 GMT 42.643524 27.300642 38,000 316 440 64
2021-06-18 17:27:44 GMT 42.636520 27.309828 38,000 316 440 64
2021-06-18 17:27:38 GMT 42.628956 27.319803 38,000 316 439 0
2021-06-18 17:27:34 GMT 42.621784 27.329193 38,000 316 439 0
2021-06-18 17:27:31 GMT 42.617111 27.335358 38,000 316 440 0
2021-06-18 17:27:28 GMT 42.613724 27.339727 38,000 316 439 0
2021-06-18 17:27:25 GMT 42.609962 27.344715 38,000 316 439 0
2021-06-18 17:27:22 GMT 42.605713 27.350277 38,000 316 439 0
2021-06-18 17:27:18 GMT 42.599442 27.358580 38,000 316 439 0
2021-06-18 17:27:15 GMT 42.595066 27.364325 38,000 316 439 -64
2021-06-18 17:27:11 GMT 42.589386 27.371798 38,000 316 439 64
2021-06-18 17:27:08 GMT 42.584171 27.378696 38,000 316 439 0
2021-06-18 17:27:05 GMT 42.581131 27.382736 38,000 316 439 0
2021-06-18 17:27:02 GMT 42.576443 27.388916 38,000 316 439 -64
2021-06-18 17:26:59 GMT 42.569778 27.397718 38,000 316 439 0
2021-06-18 17:26:56 GMT 42.565247 27.403648 38,000 316 439 0
2021-06-18 17:26:52 GMT 42.560616 27.409803 38,000 316 439 0
2021-06-18 17:26:45 GMT 42.550701 27.422770 38,000 317 439 0
2021-06-18 17:26:40 GMT 42.544281 27.431175 38,000 317 439 0
2021-06-18 17:26:37 GMT 42.539295 27.437653 38,000 317 438 0
2021-06-18 17:26:33 GMT 42.532013 27.447157 38,000 317 438 0
2021-06-18 17:26:30 GMT 42.529099 27.450937 38,000 317 438 0
2021-06-18 17:26:28 GMT 42.526028 27.454899 38,000 317 437 0
2021-06-18 17:26:25 GMT 42.521652 27.460648 38,000 317 437 0
2021-06-18 17:26:22 GMT 42.517696 27.465755 38,000 317 437 0
2021-06-18 17:26:19 GMT 42.510155 27.475657 38,000 317 437 0
2021-06-18 17:26:17 GMT 42.510155 27.475657 38,000 317 437 0
2021-06-18 17:26:14 GMT 42.506660 27.480192 38,000 317 437 0
2021-06-18 17:26:10 GMT 42.500702 27.487986 38,000 317 437 0
2021-06-18 17:26:06 GMT 42.493835 27.496843 38,000 317 436 0
2021-06-18 17:26:02 GMT 42.488480 27.503836 38,000 317 436 0
2021-06-18 17:25:59 GMT 42.484829 27.508553 38,000 317 436 0
2021-06-18 17:25:57 GMT 42.481339 27.513075 38,000 317 435 0
2021-06-18 17:25:54 GMT 42.476963 27.518707 38,000 317 435 64
2021-06-18 17:25:50 GMT 42.470535 27.526995 38,000 317 436 0
2021-06-18 17:25:45 GMT 42.462669 27.537169 38,000 317 436 0
2021-06-18 17:25:40 GMT 42.456387 27.545216 38,000 317 436 64
2021-06-18 17:25:35 GMT 42.449123 27.554605 38,000 317 437 64
2021-06-18 17:25:32 GMT 42.435947 27.571596 38,000 317 437 64
2021-06-18 17:25:27 GMT 42.435947 27.571596 37,975 317 439 64
2021-06-18 17:25:24 GMT 42.433182 27.575184 37,975 317 442 640
2021-06-18 17:25:19 GMT 42.425709 27.584881 37,975 317 441 128
2021-06-18 17:25:15 GMT 42.411575 27.603273 37,900 317 442 640
2021-06-18 17:25:10 GMT 42.411575 27.603273 37,900 316 442 896
2021-06-18 17:25:06 GMT 42.406574 27.609793 37,825 316 443 1024
2021-06-18 17:25:03 GMT 42.402420 27.615196 37,800 316 443 1024
2021-06-18 17:25:00 GMT 42.397125 27.622120 37,725 316 444 1088
2021-06-18 17:24:54 GMT 42.388916 27.632925 37,625 316 444 832
2021-06-18 17:24:51 GMT 42.384064 27.639292 37,575 316 443 768
2021-06-18 17:24:48 GMT 42.380833 27.643581 37,550 316 443 768
2021-06-18 17:24:45 GMT 42.375107 27.651119 37,475 316 442 640
2021-06-18 17:24:42 GMT 42.369984 27.657888 37,475 316 442 640
2021-06-18 17:24:39 GMT 42.367100 27.661722 37,450 316 441 640
2021-06-18 17:24:34 GMT 42.354065 27.679222 37,375 316 441 640
2021-06-18 17:24:31 GMT 42.354065 27.679222 37,350 315 440 576
2021-06-18 17:24:23 GMT 42.344288 27.692446 37,300 315 440 640
2021-06-18 17:24:20 GMT 42.339706 27.698656 37,200 315 439 704
2021-06-18 17:24:16 GMT 42.333572 27.707020 37,200 315 439 704
2021-06-18 17:24:14 GMT 42.330551 27.711079 37,175 316 438 768
2021-06-18 17:24:10 GMT 42.325527 27.717802 37,150 317 438 768
2021-06-18 17:24:03 GMT 42.313843 27.732052 37,050 323 436 704
2021-06-18 17:23:58 GMT 42.305786 27.740602 37,000 326 436 448
2021-06-18 17:23:53 GMT 42.297874 27.748079 36,950 328 434 320
2021-06-18 17:23:50 GMT 42.294338 27.751081 36,950 328 434 320
2021-06-18 17:23:47 GMT 42.287636 27.756512 36,925 332 431 384
2021-06-18 17:23:42 GMT 42.279442 27.762579 36,875 332 429 576
2021-06-18 17:23:37 GMT 42.270737 27.768902 36,850 332 427 640
2021-06-18 17:23:33 GMT 42.264496 27.773500 36,775 331 426 768
2021-06-18 17:23:30 GMT 42.257904 27.778431 36,750 331 426 896
2021-06-18 17:23:26 GMT 42.252274 27.782738 36,700 330 425 704
2021-06-18 17:23:21 GMT 42.235474 27.796097 36,575 329 424 704
2021-06-18 17:23:16 GMT 42.235474 27.796097 36,575 329 424 704
2021-06-18 17:23:11 GMT 42.226410 27.803463 36,525 329 423 448
2021-06-18 17:23:08 GMT 42.222553 27.806652 36,500 329 422 384
2021-06-18 17:23:03 GMT 42.211716 27.815449 36,475 330 420 192
2021-06-18 17:22:59 GMT 42.206177 27.819880 36,450 330 419 192
2021-06-18 17:22:55 GMT 42.201050 27.823999 36,450 330 417 256
2021-06-18 17:22:52 GMT 42.193413 27.830093 36,400 330 416 576
2021-06-18 17:22:49 GMT 42.189789 27.833052 36,400 330 416 576
2021-06-18 17:22:45 GMT 42.184147 27.837566 36,350 329 415 1088
2021-06-18 17:22:42 GMT 42.178253 27.842352 36,200 329 415 1472
2021-06-18 17:22:39 GMT 42.172977 27.846638 36,200 329 415 1472
2021-06-18 17:22:36 GMT 42.167713 27.850918 36,125 329 416 1408
2021-06-18 17:22:29 GMT 42.156216 27.860306 36,000 329 416 1088
2021-06-18 17:22:26 GMT 42.150970 27.864637 35,925 329 415 960
2021-06-18 17:22:22 GMT 42.144241 27.870192 35,825 329 415 1024
2021-06-18 17:22:18 GMT 42.139526 27.874125 35,825 329 415 1024
2021-06-18 17:22:15 GMT 42.134949 27.877871 35,775 329 415 1088
2021-06-18 17:22:08 GMT 42.122932 27.887644 35,625 330 414 1408
2021-06-18 17:22:04 GMT 42.117325 27.892040 35,525 331 415 1600
2021-06-18 17:22:01 GMT 42.111099 27.896660 35,300 333 416 1728
2021-06-18 17:21:58 GMT 42.105881 27.900530 35,350 333 416 1664
2021-06-18 17:21:55 GMT 42.100616 27.904213 35,275 334 417 1664
2021-06-18 17:21:51 GMT 42.093567 27.909019 35,150 335 417 1536
2021-06-18 17:21:48 GMT 42.089401 27.911703 35,075 336 417 1344
2021-06-18 17:21:45 GMT 42.083504 27.915428 35,025 336 417 1280
2021-06-18 17:21:38 GMT 42.070999 27.922876 34,850 338 416 1088
2021-06-18 17:21:35 GMT 42.065506 27.925936 34,825 339 416 1088
2021-06-18 17:21:31 GMT 42.057667 27.930120 34,750 340 414 832
2021-06-18 17:21:28 GMT 42.051910 27.932989 34,700 341 413 832
2021-06-18 17:21:25 GMT 42.047424 27.935230 34,650 341 412 896
2021-06-18 17:21:21 GMT 42.034111 27.941298 34,575 342 412 896
2021-06-18 17:21:18 GMT 42.034111 27.941298 34,550 343 411 1024
2021-06-18 17:21:15 GMT 42.029221 27.943405 34,500 344 410 1152
2021-06-18 17:21:07 GMT 42.015396 27.948898 34,325 346 410 1472
2021-06-18 17:21:04 GMT 42.010254 27.950779 34,250 346 411 1344
2021-06-18 17:20:59 GMT 42.001057 27.953882 34,175 347 410 960
2021-06-18 17:20:56 GMT 41.995560 27.955648 34,125 348 409 768
2021-06-18 17:20:53 GMT 41.990398 27.957138 34,100 349 408 704
2021-06-18 17:20:50 GMT 41.982811 27.959248 34,050 350 407 640
2021-06-18 17:20:46 GMT 41.977112 27.960705 34,000 350 406 768
2021-06-18 17:20:39 GMT 41.964752 27.963575 33,900 352 404 1024
2021-06-18 17:20:36 GMT 41.958092 27.964931 33,850 353 403 960
2021-06-18 17:20:33 GMT 41.953857 27.965698 33,800 354 402 1024
2021-06-18 17:20:29 GMT 41.945148 27.967102 33,725 355 402 1216
2021-06-18 17:20:26 GMT 41.938705 27.968008 33,650 356 402 1216
2021-06-18 17:20:22 GMT 41.933350 27.968695 33,600 356 402 1216
2021-06-18 17:20:18 GMT 41.924805 27.969595 33,500 357 401 1216
2021-06-18 17:20:13 GMT 41.915588 27.970297 33,400 358 401 1216
2021-06-18 17:20:09 GMT 41.908001 27.970680 33,325 359 401 1344
2021-06-18 17:20:04 GMT 41.898598 27.970936 33,200 0 401 1408
2021-06-18 17:19:58 GMT 41.886932 27.970879 33,050 1 400 1280
2021-06-18 17:19:54 GMT 41.879559 27.970617 32,950 2 400 1536
2021-06-18 17:19:48 GMT 41.869446 27.970068 32,800 3 400 1984
2021-06-18 17:19:44 GMT 41.861309 27.969402 32,625 4 402 2240
2021-06-18 17:19:38 GMT 41.851486 27.968252 32,425 6 404 2304
2021-06-18 17:19:34 GMT 41.842804 27.967009 32,250 7 406 2112
2021-06-18 17:18:58 GMT 41.776863 27.952221 31,225 8 454 2176
2021-06-18 17:18:56 GMT 41.774048 27.951529 31,025 10 412 1920
2021-06-18 17:18:53 GMT 41.767136 27.949905 30,900 10 412 1472
2021-06-18 17:18:45 GMT 41.752121 27.946285 30,700 10 412 1728
2021-06-18 17:18:42 GMT 41.747818 27.945286 30,625 10 412 1856
2021-06-18 17:18:37 GMT 41.738983 27.943165 30,450 10 413 2112
2021-06-18 17:18:34 GMT 41.731293 27.941355 30,275 10 414 1920
2021-06-18 17:18:31 GMT 41.726761 27.940229 30,275 10 414 1920
2021-06-18 17:18:28 GMT 41.718254 27.938232 30,100 10 414 1792
2021-06-18 17:18:25 GMT 41.714111 27.937210 30,050 10 414 1664
2021-06-18 17:18:21 GMT 41.708450 27.935923 29,975 10 414 1536
2021-06-18 17:18:14 GMT 41.694466 27.932611 29,800 10 414 1152
2021-06-18 17:18:11 GMT 41.688644 27.931206 29,750 10 413 1152
2021-06-18 17:18:04 GMT 41.675674 27.928120 29,600 10 411 1088
2021-06-18 17:18:01 GMT 41.670025 27.926800 29,550 10 410 1152
2021-06-18 17:17:57 GMT 41.652649 27.922689 29,400 10 409 1344
2021-06-18 17:17:52 GMT 41.652649 27.922689 29,350 10 408 1344
2021-06-18 17:17:50 GMT 41.648758 27.921816 29,300 10 408 1280
2021-06-18 17:17:45 GMT 41.640186 27.919773 29,200 10 406 1024
2021-06-18 17:17:42 GMT 41.633717 27.918240 29,150 10 406 896
2021-06-18 17:17:40 GMT 41.630951 27.917570 29,150 10 405 832
2021-06-18 17:17:36 GMT 41.622265 27.915558 29,075 9 403 640
2021-06-18 17:17:25 GMT 41.597076 27.909580 29,025 10 400 640
2021-06-18 17:17:22 GMT 41.597076 27.909580 28,925 10 396 704
2021-06-18 17:17:19 GMT 41.593277 27.908707 28,925 10 395 704
2021-06-18 17:17:14 GMT 41.582886 27.906273 28,850 9 391 704
2021-06-18 17:17:11 GMT 41.578735 27.905273 28,825 10 389 704
2021-06-18 17:17:08 GMT 41.573242 27.903996 28,775 10 389 704
2021-06-18 17:17:05 GMT 41.566864 27.902464 28,750 9 386 640
2021-06-18 17:17:01 GMT 41.560684 27.901030 28,700 9 385 640
2021-06-18 17:16:59 GMT 41.556290 27.899967 28,675 10 383 640
2021-06-18 17:16:54 GMT 41.547920 27.897991 28,625 9 380 640
2021-06-18 17:16:51 GMT 41.542892 27.896841 28,575 10 379 640
2021-06-18 17:16:48 GMT 41.538563 27.895821 28,575 10 377 640
2021-06-18 17:16:44 GMT 41.531158 27.894094 28,500 10 375 768
2021-06-18 17:16:40 GMT 41.524319 27.892435 28,450 10 373 1024
2021-06-18 17:16:38 GMT 41.520218 27.891478 28,400 10 372 1216
2021-06-18 17:16:34 GMT 41.513798 27.889944 28,000 10 373 2496
2021-06-18 17:16:30 GMT 41.508041 27.888607 28,175 10 372 2240
2021-06-18 17:16:28 GMT 41.503464 27.887545 28,075 10 372 2432
2021-06-18 17:16:24 GMT 41.490189 27.884424 27,875 10 373 2432
2021-06-18 17:16:20 GMT 41.490189 27.884424 27,775 10 373 2176
2021-06-18 17:16:14 GMT 41.480484 27.882177 27,500 9 373 1600
2021-06-18 17:16:10 GMT 41.473846 27.880617 27,450 9 373 1600
2021-06-18 17:16:07 GMT 41.468216 27.879307 27,375 9 372 1472
2021-06-18 17:16:04 GMT 41.462124 27.877935 27,225 9 371 1472
2021-06-18 17:16:00 GMT 41.456165 27.876595 27,200 9 370 1472
2021-06-18 17:15:56 GMT 41.449081 27.874998 27,100 9 369 1536
2021-06-18 17:15:53 GMT 41.444183 27.873875 27,000 9 369 1664
2021-06-18 17:15:50 GMT 41.439331 27.872814 26,925 9 368 1728
2021-06-18 17:15:46 GMT 41.433262 27.871485 26,825 9 368 1920
2021-06-18 17:15:43 GMT 41.427071 27.870079 26,700 9 368 1984
2021-06-18 17:15:40 GMT 41.422508 27.869057 26,625 9 368 1920
2021-06-18 17:15:36 GMT 41.415989 27.867588 26,500 9 366 1728
2021-06-18 17:15:33 GMT 41.411148 27.866566 26,400 9 366 1664
2021-06-18 17:15:30 GMT 41.404957 27.865162 26,300 9 366 1664
2021-06-18 17:15:24 GMT 41.394112 27.862669 26,125 10 364 1600
2021-06-18 17:15:19 GMT 41.387833 27.861202 26,025 10 363 1792
2021-06-18 17:15:13 GMT 41.371124 27.857056 25,600 10 363 2240
2021-06-18 17:15:10 GMT 41.371124 27.857056 25,675 11 364 2368
2021-06-18 17:15:05 GMT 41.364830 27.855398 25,500 11 365 2496
2021-06-18 17:14:43 GMT 41.327179 27.845947 24,950 9 384 2112
2021-06-18 17:14:42 GMT 41.326492 27.846008 24,575 358 356 1664
2021-06-18 17:14:38 GMT 41.319206 27.846161 24,575 356 355 1728
2021-06-18 17:14:33 GMT 41.309601 27.847656 24,275 346 352 1920
2021-06-18 17:14:29 GMT 41.303741 27.849365 24,275 342 353 1856
2021-06-18 17:14:22 GMT 41.293556 27.854338 24,075 334 351 1728
2021-06-18 17:14:19 GMT 41.288624 27.857519 24,000 328 350 1664
2021-06-18 17:14:13 GMT 41.280533 27.864563 23,700 317 350 1536
2021-06-18 17:14:09 GMT 41.275078 27.870754 23,725 314 349 1536
2021-06-18 17:14:01 GMT 41.267162 27.882677 23,550 304 348 1280
2021-06-18 17:13:57 GMT 41.264420 27.888062 23,500 299 348 1088
2021-06-18 17:13:51 GMT 41.259521 27.900085 23,400 294 347 1088
2021-06-18 17:13:48 GMT 41.257370 27.906738 23,325 293 346 1088
2021-06-18 17:13:41 GMT 41.252357 27.922626 23,175 293 348 1152
2021-06-18 17:13:38 GMT 41.251099 27.926575 23,150 293 348 1216
2021-06-18 17:13:32 GMT 41.247562 27.937609 23,025 294 349 1472
2021-06-18 17:13:28 GMT 41.244537 27.947035 22,875 294 350 1664
2021-06-18 17:13:18 GMT 41.237972 27.967196 22,575 294 349 1920
2021-06-18 17:13:08 GMT 41.231503 27.986734 22,250 294 346 1984
2021-06-18 17:13:00 GMT 41.225079 28.006397 21,900 294 346 2816
2021-06-18 17:12:57 GMT 41.225079 28.006397 21,875 294 345 2560
2021-06-18 17:12:50 GMT 41.220474 28.020630 21,525 294 346 2816
2021-06-18 17:12:47 GMT 41.218563 28.026499 21,400 294 347 2688
2021-06-18 17:12:40 GMT 41.214046 28.040106 21,100 295 346 2624
2021-06-18 17:12:37 GMT 41.212234 28.045349 20,975 295 347 2688
2021-06-18 17:12:27 GMT 41.205231 28.065186 20,550 297 346 2240
2021-06-18 17:12:17 GMT 41.198135 28.084167 20,175 297 344 2304
2021-06-18 17:12:07 GMT 41.190765 28.104004 19,750 295 342 2624
2021-06-18 17:11:57 GMT 41.184856 28.123440 19,325 284 341 2688
2021-06-18 17:11:47 GMT 41.182018 28.143976 18,900 273 342 2752
2021-06-18 17:11:37 GMT 41.181931 28.164856 18,425 269 341 2624
2021-06-18 17:11:29 GMT 41.182159 28.181742 18,075 270 339 2496
2021-06-18 17:11:26 GMT 41.182251 28.186548 17,975 270 339 2560
2021-06-18 17:11:20 GMT 41.182297 28.199408 17,725 270 338 2240
2021-06-18 17:11:16 GMT 41.182343 28.206648 17,600 270 336 2240
2021-06-18 17:11:05 GMT 41.182434 28.229431 17,150 270 333 2752
2021-06-18 17:11:00 GMT 41.182438 28.241480 16,875 270 332 2688
2021-06-18 17:10:55 GMT 41.182484 28.250219 16,650 270 332 3136
2021-06-18 17:10:52 GMT 41.182480 28.256714 16,475 270 337 4480
2021-06-18 17:10:45 GMT 41.182575 28.270756 16,050 270 334 4032
2021-06-18 17:10:40 GMT 41.182663 28.281616 15,675 270 337 4480
2021-06-18 17:10:35 GMT 41.182716 28.291542 15,325 270 340 4608
2021-06-18 17:10:25 GMT 41.182892 28.312500 14,675 270 344 3008
2021-06-18 17:10:15 GMT 41.182949 28.333740 14,200 270 340 2624
2021-06-18 17:10:05 GMT 41.182949 28.355150 13,700 271 338 3072
2021-06-18 17:09:57 GMT 41.182938 28.372314 13,250 271 337 3264
2021-06-18 17:09:53 GMT 41.182892 28.377869 13,125 271 336 3200
2021-06-18 17:09:46 GMT 41.182858 28.393291 12,700 271 336 3328
2021-06-18 17:09:36 GMT 41.182800 28.414246 12,175 271 334 3264
2021-06-18 17:09:33 GMT 41.182762 28.419571 12,025 271 333 3136
2021-06-18 17:09:26 GMT 41.182716 28.435114 11,675 271 330 2496
2021-06-18 17:09:23 GMT 41.182709 28.439941 11,575 271 329 2240
2021-06-18 17:09:14 GMT 41.182716 28.459146 11,250 270 320 1984
2021-06-18 17:09:06 GMT 41.182800 28.475342 11,025 270 310 1408
2021-06-18 17:09:03 GMT 41.182846 28.479187 10,975 270 308 1344
2021-06-18 17:08:53 GMT 41.182995 28.498535 10,775 270 295 1216
2021-06-18 17:08:43 GMT 41.183167 28.516785 10,525 270 280 1664
2021-06-18 17:08:34 GMT 41.183304 28.530762 10,200 270 274 3328
2021-06-18 17:08:31 GMT 41.183369 28.536114 10,025 270 274 3520
2021-06-18 17:08:25 GMT 41.183441 28.547485 9,625 270 273 3456
2021-06-18 17:08:22 GMT 41.183460 28.552843 9,450 271 272 3328
2021-06-18 17:08:13 GMT 41.183350 28.567505 9,000 273 269 3136
2021-06-18 17:08:03 GMT 41.182671 28.583679 8,450 276 265 3520
2021-06-18 17:07:54 GMT 41.181427 28.597961 7,925 277 265 3584
2021-06-18 17:07:05 GMT 41.180649 28.676392 5,325 271 269 3648
2021-06-18 17:07:01 GMT 41.180786 28.683167 4,650 264 254 3648
2021-06-18 17:06:53 GMT 41.182625 28.695852 4,175 248 251 3072
2021-06-18 17:06:50 GMT 41.183693 28.699472 4,075 242 249 2816
2021-06-18 17:06:40 GMT 41.190536 28.712519 3,625 223 242 2752
2021-06-18 17:06:30 GMT 41.199104 28.720882 3,225 205 233 2240
2021-06-18 17:06:20 GMT 41.209438 28.725565 2,850 189 222 2048
2021-06-18 17:06:12 GMT 41.217224 28.726501 2,625 178 209 1536
2021-06-18 17:06:08 GMT 41.219742 28.726440 2,550 178 206 1664
2021-06-18 17:05:59 GMT 41.228943 28.726074 2,275 178 192 1536
2021-06-18 17:05:49 GMT 41.237686 28.725891 2,025 179 178 1408
2021-06-18 17:05:48 GMT 41.239426 28.725891 1,975 179 175 1408

Making use of Plane Finder data

You are free to use the raw flight data, aircraft information and images provided in this report for your own purposes provided the data is correctly attributed to Plane Finder. We ask that you please credit Plane Finder and link to planefinder.net in close proximity to the content.

Optionally one of the following logos (no smaller then 150x24px) can be used and must link to planefinder.net

Embedding the Plane Finder map

You are welcome to embed the Plane Finder playback map on your website to offer visitors a more interactive experience. We suggest using the following HTML code:

<iframe src="//planefinder.net/data/report/TK1791-TC-LSP-7700-squawk-2021-06-18/map" width="800" height="600" seamless="seamless"></iframe>

Where our data comes from

Plane Finder has a global network of data feeds and antenna radars that receive data broadcast directly from aircraft. The primary technologies used are ADS-B and MLAT. We also show feeds from the FAA and a FLARM glider feed.

Click here to find out more about the Plane Finder network.

How we collect our data